<?xml version="1.0" encoding="UTF-8" standalone="no" ?>
<gpx xmlns="http://www.topografix.com/GPX/1/1" xmlns:xsi="http://www.w3.org/2001/XMLSchema-instance" xsi:schemaLocation="http://www.topografix.com/GPX/1/1 http://www.topografix.com/GPX/1/1/gpx.xsd" version="1.1" creator="VisuGPX - https://www.visugpx.com">
  <metadata>
    <name>Millau - Le Truel</name>
    <desc><![CDATA[http://mareemonti.canalblog.com/archives/2022/09/22/39647939.html]]></desc>
  </metadata>
  <trk>
    <name><![CDATA[Millau - Le Truel]]></name>
    <extensions>
      <line xmlns="http://www.topografix.com/GPX/gpx_style/0/2">
        <color>0000FF</color>
        <width>4</width>
      </line>
    </extensions>
    <trkseg>
      <trkpt lat="44.08016" lon="2.98826">
        <ele>371</ele>
        <time>2022-09-21T14:03:11+02:00</time>
      </trkpt>
      <trkpt lat="44.08045" lon="2.98821">
        <ele>370.5</ele>
        <time>2022-09-21T14:03:45+02:00</time>
      </trkpt>
      <trkpt lat="44.08089" lon="2.98816">
        <ele>369.4</ele>
        <time>2022-09-21T14:03:51+02:00</time>
      </trkpt>
      <trkpt lat="44.08119" lon="2.98813">
        <ele>366.4</ele>
        <time>2022-09-21T14:03:56+02:00</time>
      </trkpt>
      <trkpt lat="44.08147" lon="2.98812">
        <ele>364</ele>
        <time>2022-09-21T14:04:01+02:00</time>
      </trkpt>
      <trkpt lat="44.08167" lon="2.98836">
        <ele>365.3</ele>
        <time>2022-09-21T14:04:06+02:00</time>
      </trkpt>
      <trkpt lat="44.08181" lon="2.98873">
        <ele>369</ele>
        <time>2022-09-21T14:04:11+02:00</time>
      </trkpt>
      <trkpt lat="44.08187" lon="2.98912">
        <ele>373.7</ele>
        <time>2022-09-21T14:04:16+02:00</time>
      </trkpt>
      <trkpt lat="44.08212" lon="2.98943">
        <ele>374.1</ele>
        <time>2022-09-21T14:04:26+02:00</time>
      </trkpt>
      <trkpt lat="44.08234" lon="2.98974">
        <ele>374.6</ele>
        <time>2022-09-21T14:04:50+02:00</time>
      </trkpt>
      <trkpt lat="44.0825" lon="2.9901">
        <ele>376.2</ele>
        <time>2022-09-21T14:04:56+02:00</time>
      </trkpt>
      <trkpt lat="44.08268" lon="2.99039">
        <ele>375.5</ele>
        <time>2022-09-21T14:05:03+02:00</time>
      </trkpt>
      <trkpt lat="44.08289" lon="2.99055">
        <ele>372.4</ele>
        <time>2022-09-21T14:05:08+02:00</time>
      </trkpt>
      <trkpt lat="44.08309" lon="2.99082">
        <ele>370.7</ele>
        <time>2022-09-21T14:05:14+02:00</time>
      </trkpt>
      <trkpt lat="44.08326" lon="2.99107">
        <ele>371.3</ele>
        <time>2022-09-21T14:05:21+02:00</time>
      </trkpt>
      <trkpt lat="44.0834" lon="2.99134">
        <ele>374</ele>
        <time>2022-09-21T14:05:25+02:00</time>
      </trkpt>
      <trkpt lat="44.08358" lon="2.9917">
        <ele>378.1</ele>
        <time>2022-09-21T14:05:33+02:00</time>
      </trkpt>
      <trkpt lat="44.08384" lon="2.99231">
        <ele>386.4</ele>
        <time>2022-09-21T14:05:41+02:00</time>
      </trkpt>
      <trkpt lat="44.08395" lon="2.99271">
        <ele>393.3</ele>
        <time>2022-09-21T14:05:51+02:00</time>
      </trkpt>
      <trkpt lat="44.08411" lon="2.993">
        <ele>398.1</ele>
        <time>2022-09-21T14:06:00+02:00</time>
      </trkpt>
      <trkpt lat="44.08426" lon="2.99332">
        <ele>400.2</ele>
        <time>2022-09-21T14:06:11+02:00</time>
      </trkpt>
      <trkpt lat="44.08443" lon="2.99361">
        <ele>399.5</ele>
        <time>2022-09-21T14:06:18+02:00</time>
      </trkpt>
      <trkpt lat="44.08457" lon="2.99393">
        <ele>402</ele>
        <time>2022-09-21T14:06:28+02:00</time>
      </trkpt>
      <trkpt lat="44.08473" lon="2.99422">
        <ele>404.4</ele>
        <time>2022-09-21T14:06:35+02:00</time>
      </trkpt>
      <trkpt lat="44.08491" lon="2.99455">
        <ele>406.2</ele>
        <time>2022-09-21T14:06:43+02:00</time>
      </trkpt>
      <trkpt lat="44.08507" lon="2.99488">
        <ele>407.1</ele>
        <time>2022-09-21T14:06:51+02:00</time>
      </trkpt>
      <trkpt lat="44.08524" lon="2.99515">
        <ele>403.7</ele>
        <time>2022-09-21T14:07:01+02:00</time>
      </trkpt>
      <trkpt lat="44.08539" lon="2.99544">
        <ele>403.3</ele>
        <time>2022-09-21T14:07:08+02:00</time>
      </trkpt>
      <trkpt lat="44.0856" lon="2.99556">
        <ele>398.7</ele>
        <time>2022-09-21T14:09:04+02:00</time>
      </trkpt>
      <trkpt lat="44.08564" lon="2.99587">
        <ele>406.2</ele>
        <time>2022-09-21T14:10:51+02:00</time>
      </trkpt>
      <trkpt lat="44.0858" lon="2.99616">
        <ele>409.4</ele>
        <time>2022-09-21T14:11:02+02:00</time>
      </trkpt>
      <trkpt lat="44.08598" lon="2.99639">
        <ele>406.5</ele>
        <time>2022-09-21T14:11:12+02:00</time>
      </trkpt>
      <trkpt lat="44.08616" lon="2.99661">
        <ele>402.1</ele>
        <time>2022-09-21T14:11:19+02:00</time>
      </trkpt>
      <trkpt lat="44.08638" lon="2.99679">
        <ele>395.5</ele>
        <time>2022-09-21T14:11:26+02:00</time>
      </trkpt>
      <trkpt lat="44.08664" lon="2.997">
        <ele>390.6</ele>
        <time>2022-09-21T14:11:35+02:00</time>
      </trkpt>
      <trkpt lat="44.08686" lon="2.9972">
        <ele>388.9</ele>
        <time>2022-09-21T14:11:42+02:00</time>
      </trkpt>
      <trkpt lat="44.08708" lon="2.99736">
        <ele>384</ele>
        <time>2022-09-21T14:11:49+02:00</time>
      </trkpt>
      <trkpt lat="44.08732" lon="2.99754">
        <ele>377.7</ele>
        <time>2022-09-21T14:11:57+02:00</time>
      </trkpt>
      <trkpt lat="44.08758" lon="2.99772">
        <ele>375.8</ele>
        <time>2022-09-21T14:12:06+02:00</time>
      </trkpt>
      <trkpt lat="44.08778" lon="2.9979">
        <ele>379</ele>
        <time>2022-09-21T14:12:14+02:00</time>
      </trkpt>
      <trkpt lat="44.08801" lon="2.99804">
        <ele>377.4</ele>
        <time>2022-09-21T14:12:24+02:00</time>
      </trkpt>
      <trkpt lat="44.08825" lon="2.99815">
        <ele>372.7</ele>
        <time>2022-09-21T14:12:38+02:00</time>
      </trkpt>
      <trkpt lat="44.08848" lon="2.99821">
        <ele>367.6</ele>
        <time>2022-09-21T14:12:47+02:00</time>
      </trkpt>
      <trkpt lat="44.08873" lon="2.99828">
        <ele>362.8</ele>
        <time>2022-09-21T14:12:56+02:00</time>
      </trkpt>
      <trkpt lat="44.08894" lon="2.99841">
        <ele>361.3</ele>
        <time>2022-09-21T14:13:02+02:00</time>
      </trkpt>
      <trkpt lat="44.08921" lon="2.99857">
        <ele>360.1</ele>
        <time>2022-09-21T14:13:13+02:00</time>
      </trkpt>
      <trkpt lat="44.08943" lon="2.99873">
        <ele>361.5</ele>
        <time>2022-09-21T14:13:25+02:00</time>
      </trkpt>
      <trkpt lat="44.08969" lon="2.99902">
        <ele>363.2</ele>
        <time>2022-09-21T14:15:51+02:00</time>
      </trkpt>
      <trkpt lat="44.08987" lon="2.99928">
        <ele>365.5</ele>
        <time>2022-09-21T14:16:01+02:00</time>
      </trkpt>
      <trkpt lat="44.09001" lon="2.99956">
        <ele>371.8</ele>
        <time>2022-09-21T14:16:07+02:00</time>
      </trkpt>
      <trkpt lat="44.09003" lon="2.99989">
        <ele>383.5</ele>
        <time>2022-09-21T14:16:16+02:00</time>
      </trkpt>
      <trkpt lat="44.09" lon="3.00027">
        <ele>390</ele>
        <time>2022-09-21T14:16:28+02:00</time>
      </trkpt>
      <trkpt lat="44.08984" lon="3.00056">
        <ele>398.1</ele>
        <time>2022-09-21T14:16:40+02:00</time>
      </trkpt>
      <trkpt lat="44.0897" lon="3.00086">
        <ele>405.9</ele>
        <time>2022-09-21T14:16:52+02:00</time>
      </trkpt>
      <trkpt lat="44.08951" lon="3.00112">
        <ele>407.1</ele>
        <time>2022-09-21T14:17:02+02:00</time>
      </trkpt>
      <trkpt lat="44.08936" lon="3.00148">
        <ele>402.9</ele>
        <time>2022-09-21T14:17:22+02:00</time>
      </trkpt>
      <trkpt lat="44.08921" lon="3.00176">
        <ele>400</ele>
        <time>2022-09-21T14:17:40+02:00</time>
      </trkpt>
      <trkpt lat="44.08904" lon="3.00203">
        <ele>396</ele>
        <time>2022-09-21T14:17:50+02:00</time>
      </trkpt>
      <trkpt lat="44.08884" lon="3.00219">
        <ele>398.2</ele>
        <time>2022-09-21T14:17:58+02:00</time>
      </trkpt>
      <trkpt lat="44.08865" lon="3.00238">
        <ele>399.1</ele>
        <time>2022-09-21T14:18:10+02:00</time>
      </trkpt>
      <trkpt lat="44.08844" lon="3.00263">
        <ele>398.3</ele>
        <time>2022-09-21T14:18:21+02:00</time>
      </trkpt>
      <trkpt lat="44.08819" lon="3.00294">
        <ele>394.2</ele>
        <time>2022-09-21T14:18:28+02:00</time>
      </trkpt>
      <trkpt lat="44.08807" lon="3.00324">
        <ele>385.8</ele>
        <time>2022-09-21T14:18:56+02:00</time>
      </trkpt>
      <trkpt lat="44.08784" lon="3.00356">
        <ele>384.6</ele>
        <time>2022-09-21T14:19:19+02:00</time>
      </trkpt>
      <trkpt lat="44.08759" lon="3.00375">
        <ele>388</ele>
        <time>2022-09-21T14:19:26+02:00</time>
      </trkpt>
      <trkpt lat="44.08738" lon="3.00389">
        <ele>393.1</ele>
        <time>2022-09-21T14:19:38+02:00</time>
      </trkpt>
      <trkpt lat="44.08721" lon="3.00418">
        <ele>392.7</ele>
        <time>2022-09-21T14:19:54+02:00</time>
      </trkpt>
      <trkpt lat="44.08706" lon="3.00445">
        <ele>393.8</ele>
        <time>2022-09-21T14:20:00+02:00</time>
      </trkpt>
      <trkpt lat="44.08692" lon="3.00471">
        <ele>393.4</ele>
        <time>2022-09-21T14:20:06+02:00</time>
      </trkpt>
      <trkpt lat="44.08672" lon="3.00501">
        <ele>393.3</ele>
        <time>2022-09-21T14:20:13+02:00</time>
      </trkpt>
      <trkpt lat="44.08652" lon="3.00532">
        <ele>394.7</ele>
        <time>2022-09-21T14:20:20+02:00</time>
      </trkpt>
      <trkpt lat="44.08634" lon="3.00561">
        <ele>395.9</ele>
        <time>2022-09-21T14:20:28+02:00</time>
      </trkpt>
      <trkpt lat="44.08611" lon="3.00591">
        <ele>399.3</ele>
        <time>2022-09-21T14:20:35+02:00</time>
      </trkpt>
      <trkpt lat="44.08592" lon="3.0062">
        <ele>399.6</ele>
        <time>2022-09-21T14:20:42+02:00</time>
      </trkpt>
      <trkpt lat="44.08577" lon="3.00646">
        <ele>396.8</ele>
        <time>2022-09-21T14:20:48+02:00</time>
      </trkpt>
      <trkpt lat="44.08558" lon="3.00673">
        <ele>394.8</ele>
        <time>2022-09-21T14:20:57+02:00</time>
      </trkpt>
      <trkpt lat="44.08542" lon="3.00701">
        <ele>393.5</ele>
        <time>2022-09-21T14:21:02+02:00</time>
      </trkpt>
      <trkpt lat="44.08523" lon="3.00728">
        <ele>393.8</ele>
        <time>2022-09-21T14:21:09+02:00</time>
      </trkpt>
      <trkpt lat="44.08511" lon="3.00764">
        <ele>392.2</ele>
        <time>2022-09-21T14:21:18+02:00</time>
      </trkpt>
      <trkpt lat="44.08494" lon="3.00795">
        <ele>398</ele>
        <time>2022-09-21T14:21:28+02:00</time>
      </trkpt>
      <trkpt lat="44.08482" lon="3.00836">
        <ele>403.1</ele>
        <time>2022-09-21T14:21:35+02:00</time>
      </trkpt>
      <trkpt lat="44.08473" lon="3.00865">
        <ele>404.6</ele>
        <time>2022-09-21T14:21:39+02:00</time>
      </trkpt>
      <trkpt lat="44.08456" lon="3.009">
        <ele>410.6</ele>
        <time>2022-09-21T14:21:49+02:00</time>
      </trkpt>
      <trkpt lat="44.08443" lon="3.00936">
        <ele>413.4</ele>
        <time>2022-09-21T14:22:01+02:00</time>
      </trkpt>
      <trkpt lat="44.08429" lon="3.0097">
        <ele>415.7</ele>
        <time>2022-09-21T14:22:11+02:00</time>
      </trkpt>
      <trkpt lat="44.08414" lon="3.00995">
        <ele>419.2</ele>
        <time>2022-09-21T14:22:19+02:00</time>
      </trkpt>
      <trkpt lat="44.08402" lon="3.01031">
        <ele>412.6</ele>
        <time>2022-09-21T14:22:28+02:00</time>
      </trkpt>
      <trkpt lat="44.08389" lon="3.01069">
        <ele>406</ele>
        <time>2022-09-21T14:22:40+02:00</time>
      </trkpt>
      <trkpt lat="44.08374" lon="3.01104">
        <ele>402.7</ele>
        <time>2022-09-21T14:22:47+02:00</time>
      </trkpt>
      <trkpt lat="44.08368" lon="3.01139">
        <ele>399.1</ele>
        <time>2022-09-21T14:22:57+02:00</time>
      </trkpt>
      <trkpt lat="44.08361" lon="3.0117">
        <ele>396.7</ele>
        <time>2022-09-21T14:23:09+02:00</time>
      </trkpt>
      <trkpt lat="44.0835" lon="3.01211">
        <ele>396.4</ele>
        <time>2022-09-21T14:23:19+02:00</time>
      </trkpt>
      <trkpt lat="44.08346" lon="3.01242">
        <ele>395.5</ele>
        <time>2022-09-21T14:23:30+02:00</time>
      </trkpt>
      <trkpt lat="44.08338" lon="3.01276">
        <ele>399.5</ele>
        <time>2022-09-21T14:23:39+02:00</time>
      </trkpt>
      <trkpt lat="44.08333" lon="3.01309">
        <ele>403.6</ele>
        <time>2022-09-21T14:23:48+02:00</time>
      </trkpt>
      <trkpt lat="44.0833" lon="3.01347">
        <ele>404.9</ele>
        <time>2022-09-21T14:24:00+02:00</time>
      </trkpt>
      <trkpt lat="44.0833" lon="3.0138">
        <ele>402.9</ele>
        <time>2022-09-21T14:24:20+02:00</time>
      </trkpt>
      <trkpt lat="44.08325" lon="3.01424">
        <ele>400.4</ele>
        <time>2022-09-21T14:25:06+02:00</time>
      </trkpt>
      <trkpt lat="44.08318" lon="3.01461">
        <ele>395.6</ele>
        <time>2022-09-21T14:25:16+02:00</time>
      </trkpt>
      <trkpt lat="44.08312" lon="3.01504">
        <ele>390.5</ele>
        <time>2022-09-21T14:25:26+02:00</time>
      </trkpt>
      <trkpt lat="44.083" lon="3.01544">
        <ele>392.5</ele>
        <time>2022-09-21T14:25:36+02:00</time>
      </trkpt>
      <trkpt lat="44.08294" lon="3.01576">
        <ele>393.5</ele>
        <time>2022-09-21T14:25:45+02:00</time>
      </trkpt>
      <trkpt lat="44.08293" lon="3.01613">
        <ele>395.2</ele>
        <time>2022-09-21T14:25:54+02:00</time>
      </trkpt>
      <trkpt lat="44.08286" lon="3.01648">
        <ele>399.4</ele>
        <time>2022-09-21T14:26:45+02:00</time>
      </trkpt>
      <trkpt lat="44.08286" lon="3.01688">
        <ele>402.5</ele>
        <time>2022-09-21T14:26:54+02:00</time>
      </trkpt>
      <trkpt lat="44.08285" lon="3.0173">
        <ele>406.9</ele>
        <time>2022-09-21T14:27:05+02:00</time>
      </trkpt>
      <trkpt lat="44.08285" lon="3.01762">
        <ele>411</ele>
        <time>2022-09-21T14:27:12+02:00</time>
      </trkpt>
      <trkpt lat="44.08291" lon="3.018">
        <ele>414.6</ele>
        <time>2022-09-21T14:27:22+02:00</time>
      </trkpt>
      <trkpt lat="44.08287" lon="3.01833">
        <ele>423</ele>
        <time>2022-09-21T14:28:05+02:00</time>
      </trkpt>
      <trkpt lat="44.08299" lon="3.0187">
        <ele>420.1</ele>
        <time>2022-09-21T14:29:26+02:00</time>
      </trkpt>
      <trkpt lat="44.08312" lon="3.01897">
        <ele>414.7</ele>
        <time>2022-09-21T14:29:32+02:00</time>
      </trkpt>
      <trkpt lat="44.08329" lon="3.01926">
        <ele>406.8</ele>
        <time>2022-09-21T14:29:39+02:00</time>
      </trkpt>
      <trkpt lat="44.08339" lon="3.01964">
        <ele>407.7</ele>
        <time>2022-09-21T14:29:48+02:00</time>
      </trkpt>
      <trkpt lat="44.08348" lon="3.02001">
        <ele>408.7</ele>
        <time>2022-09-21T14:29:57+02:00</time>
      </trkpt>
      <trkpt lat="44.08354" lon="3.02036">
        <ele>411.5</ele>
        <time>2022-09-21T14:30:07+02:00</time>
      </trkpt>
      <trkpt lat="44.08359" lon="3.0207">
        <ele>414.6</ele>
        <time>2022-09-21T14:30:15+02:00</time>
      </trkpt>
      <trkpt lat="44.08368" lon="3.02104">
        <ele>413.1</ele>
        <time>2022-09-21T14:30:22+02:00</time>
      </trkpt>
      <trkpt lat="44.08373" lon="3.02138">
        <ele>413.3</ele>
        <time>2022-09-21T14:30:31+02:00</time>
      </trkpt>
      <trkpt lat="44.08386" lon="3.02165">
        <ele>407.4</ele>
        <time>2022-09-21T14:30:50+02:00</time>
      </trkpt>
      <trkpt lat="44.08389" lon="3.0221">
        <ele>409.6</ele>
        <time>2022-09-21T14:31:38+02:00</time>
      </trkpt>
      <trkpt lat="44.08409" lon="3.02254">
        <ele>405</ele>
        <time>2022-09-21T14:31:45+02:00</time>
      </trkpt>
      <trkpt lat="44.08434" lon="3.02289">
        <ele>404.7</ele>
        <time>2022-09-21T14:31:55+02:00</time>
      </trkpt>
      <trkpt lat="44.08453" lon="3.02311">
        <ele>401.5</ele>
        <time>2022-09-21T14:32:02+02:00</time>
      </trkpt>
      <trkpt lat="44.08468" lon="3.02343">
        <ele>402.4</ele>
        <time>2022-09-21T14:32:10+02:00</time>
      </trkpt>
      <trkpt lat="44.08481" lon="3.02379">
        <ele>405.3</ele>
        <time>2022-09-21T14:32:17+02:00</time>
      </trkpt>
      <trkpt lat="44.08495" lon="3.02415">
        <ele>406.8</ele>
        <time>2022-09-21T14:32:24+02:00</time>
      </trkpt>
      <trkpt lat="44.08511" lon="3.02441">
        <ele>405.2</ele>
        <time>2022-09-21T14:32:29+02:00</time>
      </trkpt>
      <trkpt lat="44.08526" lon="3.02471">
        <ele>405.1</ele>
        <time>2022-09-21T14:32:36+02:00</time>
      </trkpt>
      <trkpt lat="44.08544" lon="3.02507">
        <ele>404</ele>
        <time>2022-09-21T14:32:43+02:00</time>
      </trkpt>
      <trkpt lat="44.08551" lon="3.02539">
        <ele>408.1</ele>
        <time>2022-09-21T14:32:48+02:00</time>
      </trkpt>
      <trkpt lat="44.08563" lon="3.02577">
        <ele>410.3</ele>
        <time>2022-09-21T14:32:56+02:00</time>
      </trkpt>
      <trkpt lat="44.08577" lon="3.02611">
        <ele>410.3</ele>
        <time>2022-09-21T14:33:03+02:00</time>
      </trkpt>
      <trkpt lat="44.08594" lon="3.02643">
        <ele>409.2</ele>
        <time>2022-09-21T14:33:11+02:00</time>
      </trkpt>
      <trkpt lat="44.08609" lon="3.02678">
        <ele>410.6</ele>
        <time>2022-09-21T14:33:18+02:00</time>
      </trkpt>
      <trkpt lat="44.08624" lon="3.02703">
        <ele>409.9</ele>
        <time>2022-09-21T14:33:23+02:00</time>
      </trkpt>
      <trkpt lat="44.08649" lon="3.0273">
        <ele>402.3</ele>
        <time>2022-09-21T14:33:30+02:00</time>
      </trkpt>
      <trkpt lat="44.08685" lon="3.0277">
        <ele>395.5</ele>
        <time>2022-09-21T14:33:34+02:00</time>
      </trkpt>
      <trkpt lat="44.08719" lon="3.02807">
        <ele>392.9</ele>
        <time>2022-09-21T14:33:40+02:00</time>
      </trkpt>
      <trkpt lat="44.08742" lon="3.02848">
        <ele>396.6</ele>
        <time>2022-09-21T14:33:45+02:00</time>
      </trkpt>
      <trkpt lat="44.08764" lon="3.02871">
        <ele>395.6</ele>
        <time>2022-09-21T14:33:50+02:00</time>
      </trkpt>
      <trkpt lat="44.08784" lon="3.02892">
        <ele>394.4</ele>
        <time>2022-09-21T14:33:55+02:00</time>
      </trkpt>
      <trkpt lat="44.08804" lon="3.02908">
        <ele>390.2</ele>
        <time>2022-09-21T14:34:00+02:00</time>
      </trkpt>
      <trkpt lat="44.08824" lon="3.02923">
        <ele>385.5</ele>
        <time>2022-09-21T14:34:10+02:00</time>
      </trkpt>
      <trkpt lat="44.08841" lon="3.02955">
        <ele>391.3</ele>
        <time>2022-09-21T14:34:22+02:00</time>
      </trkpt>
      <trkpt lat="44.08858" lon="3.02975">
        <ele>392.9</ele>
        <time>2022-09-21T14:34:37+02:00</time>
      </trkpt>
      <trkpt lat="44.08888" lon="3.02999">
        <ele>389.7</ele>
        <time>2022-09-21T14:34:50+02:00</time>
      </trkpt>
      <trkpt lat="44.08913" lon="3.03016">
        <ele>385.7</ele>
        <time>2022-09-21T14:34:57+02:00</time>
      </trkpt>
      <trkpt lat="44.08936" lon="3.03029">
        <ele>384.5</ele>
        <time>2022-09-21T14:35:06+02:00</time>
      </trkpt>
      <trkpt lat="44.08966" lon="3.03046">
        <ele>383</ele>
        <time>2022-09-21T14:35:16+02:00</time>
      </trkpt>
      <trkpt lat="44.08988" lon="3.03063">
        <ele>382.5</ele>
        <time>2022-09-21T14:35:23+02:00</time>
      </trkpt>
      <trkpt lat="44.09007" lon="3.03082">
        <ele>383</ele>
        <time>2022-09-21T14:35:30+02:00</time>
      </trkpt>
      <trkpt lat="44.09031" lon="3.03104">
        <ele>382.7</ele>
        <time>2022-09-21T14:35:37+02:00</time>
      </trkpt>
      <trkpt lat="44.09059" lon="3.03126">
        <ele>379.9</ele>
        <time>2022-09-21T14:35:47+02:00</time>
      </trkpt>
      <trkpt lat="44.09086" lon="3.03157">
        <ele>377.8</ele>
        <time>2022-09-21T14:35:55+02:00</time>
      </trkpt>
      <trkpt lat="44.09109" lon="3.03174">
        <ele>376.9</ele>
        <time>2022-09-21T14:36:02+02:00</time>
      </trkpt>
      <trkpt lat="44.09138" lon="3.03211">
        <ele>377.8</ele>
        <time>2022-09-21T14:36:12+02:00</time>
      </trkpt>
      <trkpt lat="44.09165" lon="3.03231">
        <ele>374.7</ele>
        <time>2022-09-21T14:36:19+02:00</time>
      </trkpt>
      <trkpt lat="44.09181" lon="3.03261">
        <ele>377</ele>
        <time>2022-09-21T14:36:27+02:00</time>
      </trkpt>
      <trkpt lat="44.09202" lon="3.03297">
        <ele>379.4</ele>
        <time>2022-09-21T14:36:34+02:00</time>
      </trkpt>
      <trkpt lat="44.09219" lon="3.03334">
        <ele>381.4</ele>
        <time>2022-09-21T14:36:42+02:00</time>
      </trkpt>
      <trkpt lat="44.0923" lon="3.03364">
        <ele>383.3</ele>
        <time>2022-09-21T14:36:49+02:00</time>
      </trkpt>
      <trkpt lat="44.09248" lon="3.03408">
        <ele>384.5</ele>
        <time>2022-09-21T14:36:57+02:00</time>
      </trkpt>
      <trkpt lat="44.09261" lon="3.03449">
        <ele>388.6</ele>
        <time>2022-09-21T14:37:04+02:00</time>
      </trkpt>
      <trkpt lat="44.09264" lon="3.03486">
        <ele>394.7</ele>
        <time>2022-09-21T14:37:12+02:00</time>
      </trkpt>
      <trkpt lat="44.0927" lon="3.0353">
        <ele>400.9</ele>
        <time>2022-09-21T14:37:19+02:00</time>
      </trkpt>
      <trkpt lat="44.09272" lon="3.03562">
        <ele>406</ele>
        <time>2022-09-21T14:37:24+02:00</time>
      </trkpt>
      <trkpt lat="44.0927" lon="3.03595">
        <ele>412</ele>
        <time>2022-09-21T14:37:29+02:00</time>
      </trkpt>
      <trkpt lat="44.09269" lon="3.03627">
        <ele>415.3</ele>
        <time>2022-09-21T14:37:33+02:00</time>
      </trkpt>
      <trkpt lat="44.09263" lon="3.03669">
        <ele>422.2</ele>
        <time>2022-09-21T14:37:42+02:00</time>
      </trkpt>
      <trkpt lat="44.09247" lon="3.0371">
        <ele>421.7</ele>
        <time>2022-09-21T14:37:49+02:00</time>
      </trkpt>
      <trkpt lat="44.0923" lon="3.03752">
        <ele>417.9</ele>
        <time>2022-09-21T14:37:57+02:00</time>
      </trkpt>
      <trkpt lat="44.09209" lon="3.03792">
        <ele>412.1</ele>
        <time>2022-09-21T14:38:04+02:00</time>
      </trkpt>
      <trkpt lat="44.09188" lon="3.0382">
        <ele>411.7</ele>
        <time>2022-09-21T14:38:10+02:00</time>
      </trkpt>
      <trkpt lat="44.09153" lon="3.03861">
        <ele>415</ele>
        <time>2022-09-21T14:38:20+02:00</time>
      </trkpt>
      <trkpt lat="44.09137" lon="3.03888">
        <ele>415</ele>
        <time>2022-09-21T14:38:25+02:00</time>
      </trkpt>
      <trkpt lat="44.09121" lon="3.03912">
        <ele>416.4</ele>
        <time>2022-09-21T14:38:30+02:00</time>
      </trkpt>
      <trkpt lat="44.09096" lon="3.03947">
        <ele>417.8</ele>
        <time>2022-09-21T14:38:42+02:00</time>
      </trkpt>
      <trkpt lat="44.09075" lon="3.03963">
        <ele>423.6</ele>
        <time>2022-09-21T14:38:46+02:00</time>
      </trkpt>
      <trkpt lat="44.09055" lon="3.03987">
        <ele>428.8</ele>
        <time>2022-09-21T14:38:53+02:00</time>
      </trkpt>
      <trkpt lat="44.09034" lon="3.04007">
        <ele>437.3</ele>
        <time>2022-09-21T14:39:00+02:00</time>
      </trkpt>
      <trkpt lat="44.09016" lon="3.04036">
        <ele>440.4</ele>
        <time>2022-09-21T14:39:10+02:00</time>
      </trkpt>
      <trkpt lat="44.08999" lon="3.04067">
        <ele>441.1</ele>
        <time>2022-09-21T14:39:18+02:00</time>
      </trkpt>
      <trkpt lat="44.08982" lon="3.04091">
        <ele>443.7</ele>
        <time>2022-09-21T14:39:25+02:00</time>
      </trkpt>
      <trkpt lat="44.08961" lon="3.04123">
        <ele>447.5</ele>
        <time>2022-09-21T14:39:34+02:00</time>
      </trkpt>
      <trkpt lat="44.08949" lon="3.04152">
        <ele>447.5</ele>
        <time>2022-09-21T14:39:41+02:00</time>
      </trkpt>
      <trkpt lat="44.08939" lon="3.04183">
        <ele>446.7</ele>
        <time>2022-09-21T14:39:51+02:00</time>
      </trkpt>
      <trkpt lat="44.08929" lon="3.04217">
        <ele>445</ele>
        <time>2022-09-21T14:40:00+02:00</time>
      </trkpt>
      <trkpt lat="44.08925" lon="3.04253">
        <ele>438.3</ele>
        <time>2022-09-21T14:40:12+02:00</time>
      </trkpt>
      <trkpt lat="44.08925" lon="3.04292">
        <ele>430.8</ele>
        <time>2022-09-21T14:40:22+02:00</time>
      </trkpt>
      <trkpt lat="44.08918" lon="3.04328">
        <ele>427.4</ele>
        <time>2022-09-21T14:40:34+02:00</time>
      </trkpt>
      <trkpt lat="44.08904" lon="3.04363">
        <ele>427.1</ele>
        <time>2022-09-21T14:40:43+02:00</time>
      </trkpt>
      <trkpt lat="44.08884" lon="3.04397">
        <ele>428.3</ele>
        <time>2022-09-21T14:40:52+02:00</time>
      </trkpt>
      <trkpt lat="44.08876" lon="3.04427">
        <ele>425.3</ele>
        <time>2022-09-21T14:41:00+02:00</time>
      </trkpt>
      <trkpt lat="44.08871" lon="3.04473">
        <ele>419</ele>
        <time>2022-09-21T14:41:07+02:00</time>
      </trkpt>
      <trkpt lat="44.08865" lon="3.04514">
        <ele>414.2</ele>
        <time>2022-09-21T14:41:16+02:00</time>
      </trkpt>
      <trkpt lat="44.08875" lon="3.04553">
        <ele>407.3</ele>
        <time>2022-09-21T14:41:26+02:00</time>
      </trkpt>
      <trkpt lat="44.08891" lon="3.04585">
        <ele>401.3</ele>
        <time>2022-09-21T14:41:33+02:00</time>
      </trkpt>
      <trkpt lat="44.08899" lon="3.04618">
        <ele>399.3</ele>
        <time>2022-09-21T14:41:41+02:00</time>
      </trkpt>
      <trkpt lat="44.08905" lon="3.0465">
        <ele>398.1</ele>
        <time>2022-09-21T14:41:48+02:00</time>
      </trkpt>
      <trkpt lat="44.08911" lon="3.04689">
        <ele>397</ele>
        <time>2022-09-21T14:41:57+02:00</time>
      </trkpt>
      <trkpt lat="44.08912" lon="3.04722">
        <ele>396.5</ele>
        <time>2022-09-21T14:42:06+02:00</time>
      </trkpt>
      <trkpt lat="44.08893" lon="3.04749">
        <ele>396.3</ele>
        <time>2022-09-21T14:42:15+02:00</time>
      </trkpt>
      <trkpt lat="44.08871" lon="3.04761">
        <ele>394.3</ele>
        <time>2022-09-21T14:42:22+02:00</time>
      </trkpt>
      <trkpt lat="44.08849" lon="3.04776">
        <ele>392</ele>
        <time>2022-09-21T14:42:29+02:00</time>
      </trkpt>
      <trkpt lat="44.08823" lon="3.0479">
        <ele>390.5</ele>
        <time>2022-09-21T14:42:35+02:00</time>
      </trkpt>
      <trkpt lat="44.08798" lon="3.04801">
        <ele>388.7</ele>
        <time>2022-09-21T14:42:40+02:00</time>
      </trkpt>
      <trkpt lat="44.08772" lon="3.04818">
        <ele>385.1</ele>
        <time>2022-09-21T14:42:45+02:00</time>
      </trkpt>
      <trkpt lat="44.08747" lon="3.04836">
        <ele>379.8</ele>
        <time>2022-09-21T14:42:50+02:00</time>
      </trkpt>
      <trkpt lat="44.08722" lon="3.04858">
        <ele>371.1</ele>
        <time>2022-09-21T14:42:55+02:00</time>
      </trkpt>
      <trkpt lat="44.08701" lon="3.04874">
        <ele>365.6</ele>
        <time>2022-09-21T14:43:00+02:00</time>
      </trkpt>
      <trkpt lat="44.08678" lon="3.04874">
        <ele>362.9</ele>
        <time>2022-09-21T14:44:35+02:00</time>
      </trkpt>
      <trkpt lat="44.08659" lon="3.04851">
        <ele>363.8</ele>
        <time>2022-09-21T14:44:45+02:00</time>
      </trkpt>
      <trkpt lat="44.08631" lon="3.04829">
        <ele>364.1</ele>
        <time>2022-09-21T14:45:38+02:00</time>
      </trkpt>
      <trkpt lat="44.08592" lon="3.04775">
        <ele>366.3</ele>
        <time>2022-09-21T14:45:46+02:00</time>
      </trkpt>
      <trkpt lat="44.08562" lon="3.04749">
        <ele>366.4</ele>
        <time>2022-09-21T14:45:52+02:00</time>
      </trkpt>
      <trkpt lat="44.08528" lon="3.04728">
        <ele>366.2</ele>
        <time>2022-09-21T14:45:57+02:00</time>
      </trkpt>
      <trkpt lat="44.08496" lon="3.04701">
        <ele>364.3</ele>
        <time>2022-09-21T14:46:02+02:00</time>
      </trkpt>
      <trkpt lat="44.08471" lon="3.04658">
        <ele>365.7</ele>
        <time>2022-09-21T14:46:07+02:00</time>
      </trkpt>
      <trkpt lat="44.08446" lon="3.04613">
        <ele>368.4</ele>
        <time>2022-09-21T14:46:12+02:00</time>
      </trkpt>
      <trkpt lat="44.08416" lon="3.04577">
        <ele>368.9</ele>
        <time>2022-09-21T14:46:17+02:00</time>
      </trkpt>
      <trkpt lat="44.08381" lon="3.04553">
        <ele>368.4</ele>
        <time>2022-09-21T14:46:22+02:00</time>
      </trkpt>
      <trkpt lat="44.08341" lon="3.04538">
        <ele>364.6</ele>
        <time>2022-09-21T14:46:27+02:00</time>
      </trkpt>
      <trkpt lat="44.08306" lon="3.04528">
        <ele>364.3</ele>
        <time>2022-09-21T14:46:32+02:00</time>
      </trkpt>
      <trkpt lat="44.08281" lon="3.04531">
        <ele>364.6</ele>
        <time>2022-09-21T14:46:37+02:00</time>
      </trkpt>
      <trkpt lat="44.08256" lon="3.04532">
        <ele>364.9</ele>
        <time>2022-09-21T14:46:57+02:00</time>
      </trkpt>
      <trkpt lat="44.08273" lon="3.04554">
        <ele>364.5</ele>
        <time>2022-09-21T14:47:17+02:00</time>
      </trkpt>
      <trkpt lat="44.08303" lon="3.04564">
        <ele>363.5</ele>
        <time>2022-09-21T14:47:24+02:00</time>
      </trkpt>
      <trkpt lat="44.08342" lon="3.04587">
        <ele>362.7</ele>
        <time>2022-09-21T14:47:32+02:00</time>
      </trkpt>
      <trkpt lat="44.08361" lon="3.04612">
        <ele>364.6</ele>
        <time>2022-09-21T14:47:37+02:00</time>
      </trkpt>
      <trkpt lat="44.0838" lon="3.04645">
        <ele>365.9</ele>
        <time>2022-09-21T14:47:41+02:00</time>
      </trkpt>
      <trkpt lat="44.08399" lon="3.04679">
        <ele>367.9</ele>
        <time>2022-09-21T14:47:47+02:00</time>
      </trkpt>
      <trkpt lat="44.0842" lon="3.04715">
        <ele>371.9</ele>
        <time>2022-09-21T14:47:52+02:00</time>
      </trkpt>
      <trkpt lat="44.08441" lon="3.04757">
        <ele>374</ele>
        <time>2022-09-21T14:47:57+02:00</time>
      </trkpt>
      <trkpt lat="44.08462" lon="3.04799">
        <ele>379.3</ele>
        <time>2022-09-21T14:48:02+02:00</time>
      </trkpt>
      <trkpt lat="44.08483" lon="3.04841">
        <ele>383.1</ele>
        <time>2022-09-21T14:48:07+02:00</time>
      </trkpt>
      <trkpt lat="44.08505" lon="3.04883">
        <ele>385.4</ele>
        <time>2022-09-21T14:48:12+02:00</time>
      </trkpt>
      <trkpt lat="44.08526" lon="3.04923">
        <ele>384.4</ele>
        <time>2022-09-21T14:48:17+02:00</time>
      </trkpt>
      <trkpt lat="44.0855" lon="3.04959">
        <ele>381.9</ele>
        <time>2022-09-21T14:48:22+02:00</time>
      </trkpt>
      <trkpt lat="44.0858" lon="3.04989">
        <ele>377</ele>
        <time>2022-09-21T14:48:27+02:00</time>
      </trkpt>
      <trkpt lat="44.08609" lon="3.05019">
        <ele>374</ele>
        <time>2022-09-21T14:48:32+02:00</time>
      </trkpt>
      <trkpt lat="44.08634" lon="3.05048">
        <ele>370</ele>
        <time>2022-09-21T14:48:37+02:00</time>
      </trkpt>
      <trkpt lat="44.08619" lon="3.05075">
        <ele>377.2</ele>
        <time>2022-09-21T14:48:47+02:00</time>
      </trkpt>
      <trkpt lat="44.08598" lon="3.05102">
        <ele>385.7</ele>
        <time>2022-09-21T14:48:54+02:00</time>
      </trkpt>
      <trkpt lat="44.08584" lon="3.05135">
        <ele>392.2</ele>
        <time>2022-09-21T14:49:01+02:00</time>
      </trkpt>
      <trkpt lat="44.08565" lon="3.05175">
        <ele>398.7</ele>
        <time>2022-09-21T14:49:09+02:00</time>
      </trkpt>
      <trkpt lat="44.08546" lon="3.05236">
        <ele>401</ele>
        <time>2022-09-21T14:49:16+02:00</time>
      </trkpt>
      <trkpt lat="44.08537" lon="3.05267">
        <ele>401.4</ele>
        <time>2022-09-21T14:49:22+02:00</time>
      </trkpt>
      <trkpt lat="44.0853" lon="3.05297">
        <ele>399.6</ele>
        <time>2022-09-21T14:49:27+02:00</time>
      </trkpt>
      <trkpt lat="44.08529" lon="3.05361">
        <ele>390.5</ele>
        <time>2022-09-21T14:49:39+02:00</time>
      </trkpt>
      <trkpt lat="44.08525" lon="3.05395">
        <ele>387.1</ele>
        <time>2022-09-21T14:49:44+02:00</time>
      </trkpt>
      <trkpt lat="44.08522" lon="3.05434">
        <ele>384.3</ele>
        <time>2022-09-21T14:49:51+02:00</time>
      </trkpt>
      <trkpt lat="44.08529" lon="3.05468">
        <ele>381.4</ele>
        <time>2022-09-21T14:49:55+02:00</time>
      </trkpt>
      <trkpt lat="44.08538" lon="3.05517">
        <ele>378</ele>
        <time>2022-09-21T14:50:02+02:00</time>
      </trkpt>
      <trkpt lat="44.08544" lon="3.05552">
        <ele>376.1</ele>
        <time>2022-09-21T14:50:07+02:00</time>
      </trkpt>
      <trkpt lat="44.08552" lon="3.05597">
        <ele>374.3</ele>
        <time>2022-09-21T14:50:12+02:00</time>
      </trkpt>
      <trkpt lat="44.08558" lon="3.05638">
        <ele>373.7</ele>
        <time>2022-09-21T14:50:17+02:00</time>
      </trkpt>
      <trkpt lat="44.08562" lon="3.05675">
        <ele>373.2</ele>
        <time>2022-09-21T14:50:22+02:00</time>
      </trkpt>
      <trkpt lat="44.08565" lon="3.05706">
        <ele>372.7</ele>
        <time>2022-09-21T14:50:27+02:00</time>
      </trkpt>
      <trkpt lat="44.08572" lon="3.05743">
        <ele>371.1</ele>
        <time>2022-09-21T14:50:36+02:00</time>
      </trkpt>
      <trkpt lat="44.08587" lon="3.0579">
        <ele>370.4</ele>
        <time>2022-09-21T14:50:44+02:00</time>
      </trkpt>
      <trkpt lat="44.08604" lon="3.05828">
        <ele>371.4</ele>
        <time>2022-09-21T14:50:51+02:00</time>
      </trkpt>
      <trkpt lat="44.08621" lon="3.05859">
        <ele>371.3</ele>
        <time>2022-09-21T14:51:01+02:00</time>
      </trkpt>
      <trkpt lat="44.08631" lon="3.05887">
        <ele>371.8</ele>
        <time>2022-09-21T14:51:10+02:00</time>
      </trkpt>
      <trkpt lat="44.08638" lon="3.05928">
        <ele>373.3</ele>
        <time>2022-09-21T14:51:20+02:00</time>
      </trkpt>
      <trkpt lat="44.08616" lon="3.05945">
        <ele>376.3</ele>
        <time>2022-09-21T14:51:31+02:00</time>
      </trkpt>
      <trkpt lat="44.08596" lon="3.05964">
        <ele>379.5</ele>
        <time>2022-09-21T14:51:43+02:00</time>
      </trkpt>
      <trkpt lat="44.08579" lon="3.05993">
        <ele>383.3</ele>
        <time>2022-09-21T14:52:49+02:00</time>
      </trkpt>
      <trkpt lat="44.08573" lon="3.06023">
        <ele>384.4</ele>
        <time>2022-09-21T14:53:01+02:00</time>
      </trkpt>
      <trkpt lat="44.08597" lon="3.06017">
        <ele>381.5</ele>
        <time>2022-09-21T14:54:44+02:00</time>
      </trkpt>
      <trkpt lat="44.08612" lon="3.06042">
        <ele>380.6</ele>
        <time>2022-09-21T14:54:57+02:00</time>
      </trkpt>
      <trkpt lat="44.08635" lon="3.06048">
        <ele>379.4</ele>
        <time>2022-09-21T14:55:09+02:00</time>
      </trkpt>
      <trkpt lat="44.08663" lon="3.06064">
        <ele>379.3</ele>
        <time>2022-09-21T14:55:27+02:00</time>
      </trkpt>
      <trkpt lat="44.08685" lon="3.06085">
        <ele>378.4</ele>
        <time>2022-09-21T14:55:34+02:00</time>
      </trkpt>
      <trkpt lat="44.08702" lon="3.06109">
        <ele>376.7</ele>
        <time>2022-09-21T14:55:40+02:00</time>
      </trkpt>
      <trkpt lat="44.08733" lon="3.0614">
        <ele>372.9</ele>
        <time>2022-09-21T14:55:45+02:00</time>
      </trkpt>
      <trkpt lat="44.08782" lon="3.06197">
        <ele>366.8</ele>
        <time>2022-09-21T14:55:54+02:00</time>
      </trkpt>
      <trkpt lat="44.08802" lon="3.06219">
        <ele>364.7</ele>
        <time>2022-09-21T14:56:00+02:00</time>
      </trkpt>
      <trkpt lat="44.08822" lon="3.06241">
        <ele>363</ele>
        <time>2022-09-21T14:56:07+02:00</time>
      </trkpt>
      <trkpt lat="44.08861" lon="3.06282">
        <ele>363.5</ele>
        <time>2022-09-21T14:56:15+02:00</time>
      </trkpt>
      <trkpt lat="44.08882" lon="3.06307">
        <ele>363.8</ele>
        <time>2022-09-21T14:56:20+02:00</time>
      </trkpt>
      <trkpt lat="44.08898" lon="3.06332">
        <ele>363.9</ele>
        <time>2022-09-21T14:56:27+02:00</time>
      </trkpt>
      <trkpt lat="44.08914" lon="3.06354">
        <ele>363.3</ele>
        <time>2022-09-21T14:56:34+02:00</time>
      </trkpt>
      <trkpt lat="44.08936" lon="3.064">
        <ele>364.3</ele>
        <time>2022-09-21T14:56:40+02:00</time>
      </trkpt>
      <trkpt lat="44.08947" lon="3.06442">
        <ele>367.1</ele>
        <time>2022-09-21T14:56:51+02:00</time>
      </trkpt>
      <trkpt lat="44.08962" lon="3.06483">
        <ele>369.9</ele>
        <time>2022-09-21T14:56:57+02:00</time>
      </trkpt>
      <trkpt lat="44.08979" lon="3.06521">
        <ele>371.9</ele>
        <time>2022-09-21T14:57:05+02:00</time>
      </trkpt>
      <trkpt lat="44.08987" lon="3.0656">
        <ele>374.1</ele>
        <time>2022-09-21T14:57:09+02:00</time>
      </trkpt>
      <trkpt lat="44.08991" lon="3.06594">
        <ele>375.5</ele>
        <time>2022-09-21T14:57:14+02:00</time>
      </trkpt>
      <trkpt lat="44.09001" lon="3.06663">
        <ele>375.7</ele>
        <time>2022-09-21T14:57:20+02:00</time>
      </trkpt>
      <trkpt lat="44.09007" lon="3.06709">
        <ele>375.2</ele>
        <time>2022-09-21T14:57:25+02:00</time>
      </trkpt>
      <trkpt lat="44.09015" lon="3.06757">
        <ele>374.7</ele>
        <time>2022-09-21T14:57:30+02:00</time>
      </trkpt>
      <trkpt lat="44.09019" lon="3.06794">
        <ele>375.1</ele>
        <time>2022-09-21T14:57:35+02:00</time>
      </trkpt>
      <trkpt lat="44.09022" lon="3.06834">
        <ele>375.9</ele>
        <time>2022-09-21T14:57:47+02:00</time>
      </trkpt>
      <trkpt lat="44.09013" lon="3.06873">
        <ele>380.6</ele>
        <time>2022-09-21T14:57:57+02:00</time>
      </trkpt>
      <trkpt lat="44.09018" lon="3.06916">
        <ele>383.5</ele>
        <time>2022-09-21T14:58:02+02:00</time>
      </trkpt>
      <trkpt lat="44.09024" lon="3.06952">
        <ele>385.1</ele>
        <time>2022-09-21T14:58:06+02:00</time>
      </trkpt>
      <trkpt lat="44.09024" lon="3.06989">
        <ele>387.8</ele>
        <time>2022-09-21T14:58:13+02:00</time>
      </trkpt>
      <trkpt lat="44.09015" lon="3.07032">
        <ele>391.6</ele>
        <time>2022-09-21T14:58:23+02:00</time>
      </trkpt>
      <trkpt lat="44.09023" lon="3.07077">
        <ele>390</ele>
        <time>2022-09-21T14:58:28+02:00</time>
      </trkpt>
      <trkpt lat="44.09034" lon="3.07125">
        <ele>388.8</ele>
        <time>2022-09-21T14:58:34+02:00</time>
      </trkpt>
      <trkpt lat="44.09054" lon="3.07174">
        <ele>385.4</ele>
        <time>2022-09-21T14:58:40+02:00</time>
      </trkpt>
      <trkpt lat="44.09071" lon="3.07224">
        <ele>384</ele>
        <time>2022-09-21T14:58:50+02:00</time>
      </trkpt>
      <trkpt lat="44.09079" lon="3.07263">
        <ele>384.5</ele>
        <time>2022-09-21T14:58:57+02:00</time>
      </trkpt>
      <trkpt lat="44.09096" lon="3.07303">
        <ele>382.5</ele>
        <time>2022-09-21T14:59:05+02:00</time>
      </trkpt>
      <trkpt lat="44.09111" lon="3.07335">
        <ele>380</ele>
        <time>2022-09-21T14:59:10+02:00</time>
      </trkpt>
      <trkpt lat="44.0913" lon="3.07372">
        <ele>374.4</ele>
        <time>2022-09-21T14:59:16+02:00</time>
      </trkpt>
      <trkpt lat="44.09165" lon="3.07438">
        <ele>365.3</ele>
        <time>2022-09-21T14:59:25+02:00</time>
      </trkpt>
      <trkpt lat="44.09179" lon="3.0747">
        <ele>364.6</ele>
        <time>2022-09-21T14:59:30+02:00</time>
      </trkpt>
      <trkpt lat="44.09192" lon="3.07507">
        <ele>363.8</ele>
        <time>2022-09-21T14:59:40+02:00</time>
      </trkpt>
      <trkpt lat="44.0921" lon="3.07541">
        <ele>361.6</ele>
        <time>2022-09-21T14:59:46+02:00</time>
      </trkpt>
      <trkpt lat="44.09222" lon="3.07569">
        <ele>360.9</ele>
        <time>2022-09-21T14:59:54+02:00</time>
      </trkpt>
      <trkpt lat="44.09241" lon="3.07589">
        <ele>360.4</ele>
        <time>2022-09-21T15:09:56+02:00</time>
      </trkpt>
      <trkpt lat="44.09255" lon="3.0762">
        <ele>360.2</ele>
        <time>2022-09-21T15:10:43+02:00</time>
      </trkpt>
      <trkpt lat="44.09235" lon="3.07595">
        <ele>360.6</ele>
      </trkpt>
      <trkpt lat="44.09229" lon="3.07597">
        <ele>360.9</ele>
        <time>2022-09-21T15:11:11+02:00</time>
      </trkpt>
      <trkpt lat="44.09279" lon="3.07547">
        <ele>357.3</ele>
        <time>2022-09-21T15:12:00+02:00</time>
      </trkpt>
      <trkpt lat="44.09312" lon="3.07517">
        <ele>355.1</ele>
        <time>2022-09-21T15:12:10+02:00</time>
      </trkpt>
      <trkpt lat="44.09345" lon="3.07483">
        <ele>354.2</ele>
        <time>2022-09-21T15:12:20+02:00</time>
      </trkpt>
      <trkpt lat="44.09369" lon="3.07464">
        <ele>355.2</ele>
        <time>2022-09-21T15:12:27+02:00</time>
      </trkpt>
      <trkpt lat="44.09391" lon="3.07436">
        <ele>356.7</ele>
        <time>2022-09-21T15:12:34+02:00</time>
      </trkpt>
      <trkpt lat="44.09414" lon="3.07411">
        <ele>359</ele>
        <time>2022-09-21T15:12:42+02:00</time>
      </trkpt>
      <trkpt lat="44.09449" lon="3.07398">
        <ele>361.4</ele>
        <time>2022-09-21T15:12:50+02:00</time>
      </trkpt>
      <trkpt lat="44.09445" lon="3.07361">
        <ele>362.2</ele>
        <time>2022-09-21T15:12:59+02:00</time>
      </trkpt>
      <trkpt lat="44.09432" lon="3.07326">
        <ele>362.7</ele>
        <time>2022-09-21T15:13:05+02:00</time>
      </trkpt>
      <trkpt lat="44.09415" lon="3.07298">
        <ele>362.7</ele>
        <time>2022-09-21T15:13:12+02:00</time>
      </trkpt>
      <trkpt lat="44.09386" lon="3.07274">
        <ele>360.5</ele>
        <time>2022-09-21T15:13:20+02:00</time>
      </trkpt>
      <trkpt lat="44.09364" lon="3.07264">
        <ele>358.6</ele>
        <time>2022-09-21T15:13:25+02:00</time>
      </trkpt>
      <trkpt lat="44.09337" lon="3.07262">
        <ele>356.1</ele>
        <time>2022-09-21T15:13:30+02:00</time>
      </trkpt>
      <trkpt lat="44.0931" lon="3.0724">
        <ele>354.8</ele>
        <time>2022-09-21T15:13:35+02:00</time>
      </trkpt>
      <trkpt lat="44.09293" lon="3.07194">
        <ele>354.6</ele>
        <time>2022-09-21T15:13:40+02:00</time>
      </trkpt>
      <trkpt lat="44.09276" lon="3.0715">
        <ele>354.5</ele>
        <time>2022-09-21T15:13:45+02:00</time>
      </trkpt>
      <trkpt lat="44.09255" lon="3.07113">
        <ele>354.5</ele>
        <time>2022-09-21T15:13:50+02:00</time>
      </trkpt>
      <trkpt lat="44.09233" lon="3.0708">
        <ele>355</ele>
        <time>2022-09-21T15:13:55+02:00</time>
      </trkpt>
      <trkpt lat="44.09213" lon="3.07048">
        <ele>354.8</ele>
        <time>2022-09-21T15:14:00+02:00</time>
      </trkpt>
      <trkpt lat="44.09195" lon="3.07018">
        <ele>354.5</ele>
        <time>2022-09-21T15:14:05+02:00</time>
      </trkpt>
      <trkpt lat="44.09173" lon="3.06984">
        <ele>353.7</ele>
        <time>2022-09-21T15:14:15+02:00</time>
      </trkpt>
      <trkpt lat="44.09164" lon="3.06954">
        <ele>353.5</ele>
        <time>2022-09-21T15:14:20+02:00</time>
      </trkpt>
      <trkpt lat="44.09155" lon="3.06922">
        <ele>354.8</ele>
        <time>2022-09-21T15:14:26+02:00</time>
      </trkpt>
      <trkpt lat="44.09157" lon="3.06879">
        <ele>355.2</ele>
        <time>2022-09-21T15:14:36+02:00</time>
      </trkpt>
      <trkpt lat="44.09144" lon="3.06851">
        <ele>358</ele>
        <time>2022-09-21T15:14:38+02:00</time>
      </trkpt>
      <trkpt lat="44.09129" lon="3.06803">
        <ele>360</ele>
        <time>2022-09-21T15:14:48+02:00</time>
      </trkpt>
      <trkpt lat="44.09121" lon="3.06766">
        <ele>360.2</ele>
        <time>2022-09-21T15:14:53+02:00</time>
      </trkpt>
      <trkpt lat="44.09118" lon="3.06733">
        <ele>359.3</ele>
        <time>2022-09-21T15:14:58+02:00</time>
      </trkpt>
      <trkpt lat="44.09116" lon="3.06697">
        <ele>357.8</ele>
        <time>2022-09-21T15:15:06+02:00</time>
      </trkpt>
      <trkpt lat="44.09119" lon="3.06644">
        <ele>356.1</ele>
        <time>2022-09-21T15:15:13+02:00</time>
      </trkpt>
      <trkpt lat="44.09129" lon="3.06611">
        <ele>355.1</ele>
        <time>2022-09-21T15:15:21+02:00</time>
      </trkpt>
      <trkpt lat="44.09142" lon="3.06576">
        <ele>353.9</ele>
        <time>2022-09-21T15:15:28+02:00</time>
      </trkpt>
      <trkpt lat="44.09162" lon="3.06541">
        <ele>352.8</ele>
        <time>2022-09-21T15:27:43+02:00</time>
      </trkpt>
      <trkpt lat="44.09181" lon="3.06512">
        <ele>353.7</ele>
        <time>2022-09-21T15:27:51+02:00</time>
      </trkpt>
      <trkpt lat="44.09199" lon="3.06487">
        <ele>355.2</ele>
        <time>2022-09-21T15:28:02+02:00</time>
      </trkpt>
      <trkpt lat="44.09217" lon="3.06462">
        <ele>356.6</ele>
        <time>2022-09-21T15:28:14+02:00</time>
      </trkpt>
      <trkpt lat="44.09233" lon="3.06436">
        <ele>357.5</ele>
        <time>2022-09-21T15:28:25+02:00</time>
      </trkpt>
      <trkpt lat="44.09241" lon="3.06403">
        <ele>358.2</ele>
        <time>2022-09-21T15:28:38+02:00</time>
      </trkpt>
      <trkpt lat="44.0923" lon="3.0635">
        <ele>359.3</ele>
        <time>2022-09-21T15:29:00+02:00</time>
      </trkpt>
      <trkpt lat="44.09214" lon="3.06316">
        <ele>359.8</ele>
        <time>2022-09-21T15:29:10+02:00</time>
      </trkpt>
      <trkpt lat="44.09201" lon="3.06291">
        <ele>360.2</ele>
        <time>2022-09-21T15:29:15+02:00</time>
      </trkpt>
      <trkpt lat="44.09176" lon="3.06256">
        <ele>359.7</ele>
        <time>2022-09-21T15:29:25+02:00</time>
      </trkpt>
      <trkpt lat="44.09149" lon="3.06225">
        <ele>362.8</ele>
        <time>2022-09-21T15:29:35+02:00</time>
      </trkpt>
      <trkpt lat="44.09118" lon="3.06194">
        <ele>366</ele>
        <time>2022-09-21T15:29:45+02:00</time>
      </trkpt>
      <trkpt lat="44.09088" lon="3.06169">
        <ele>367.1</ele>
        <time>2022-09-21T15:29:55+02:00</time>
      </trkpt>
      <trkpt lat="44.09067" lon="3.06156">
        <ele>368</ele>
        <time>2022-09-21T15:30:00+02:00</time>
      </trkpt>
      <trkpt lat="44.09025" lon="3.06148">
        <ele>364.8</ele>
        <time>2022-09-21T15:30:10+02:00</time>
      </trkpt>
      <trkpt lat="44.08991" lon="3.06143">
        <ele>361.7</ele>
        <time>2022-09-21T15:30:20+02:00</time>
      </trkpt>
      <trkpt lat="44.08967" lon="3.06133">
        <ele>360.9</ele>
        <time>2022-09-21T15:30:26+02:00</time>
      </trkpt>
      <trkpt lat="44.08938" lon="3.06117">
        <ele>359.4</ele>
        <time>2022-09-21T15:30:35+02:00</time>
      </trkpt>
      <trkpt lat="44.08919" lon="3.06093">
        <ele>358.7</ele>
        <time>2022-09-21T15:30:41+02:00</time>
      </trkpt>
      <trkpt lat="44.08904" lon="3.06066">
        <ele>360</ele>
        <time>2022-09-21T15:30:48+02:00</time>
      </trkpt>
      <trkpt lat="44.0889" lon="3.06023">
        <ele>362.6</ele>
        <time>2022-09-21T15:30:59+02:00</time>
      </trkpt>
      <trkpt lat="44.08882" lon="3.05972">
        <ele>364.8</ele>
        <time>2022-09-21T15:46:18+02:00</time>
      </trkpt>
      <trkpt lat="44.08889" lon="3.05885">
        <ele>368.1</ele>
        <time>2022-09-21T15:54:59+02:00</time>
      </trkpt>
      <trkpt lat="44.0894" lon="3.05597">
        <ele>367</ele>
      </trkpt>
      <trkpt lat="44.08958" lon="3.05499">
        <ele>365.5</ele>
        <time>2022-09-21T15:55:16+02:00</time>
      </trkpt>
      <trkpt lat="44.08976" lon="3.05435">
        <ele>365</ele>
        <time>2022-09-21T15:55:24+02:00</time>
      </trkpt>
      <trkpt lat="44.0899" lon="3.054">
        <ele>364.5</ele>
        <time>2022-09-21T15:55:29+02:00</time>
      </trkpt>
      <trkpt lat="44.09006" lon="3.05367">
        <ele>364.3</ele>
        <time>2022-09-21T15:55:34+02:00</time>
      </trkpt>
      <trkpt lat="44.09023" lon="3.05333">
        <ele>364.1</ele>
        <time>2022-09-21T15:55:39+02:00</time>
      </trkpt>
      <trkpt lat="44.0904" lon="3.05293">
        <ele>363</ele>
        <time>2022-09-21T15:55:44+02:00</time>
      </trkpt>
      <trkpt lat="44.09061" lon="3.05251">
        <ele>361.1</ele>
        <time>2022-09-21T15:55:49+02:00</time>
      </trkpt>
      <trkpt lat="44.09083" lon="3.05209">
        <ele>360</ele>
        <time>2022-09-21T15:55:53+02:00</time>
      </trkpt>
      <trkpt lat="44.09106" lon="3.05169">
        <ele>359.4</ele>
        <time>2022-09-21T15:55:59+02:00</time>
      </trkpt>
      <trkpt lat="44.09129" lon="3.05129">
        <ele>357.7</ele>
        <time>2022-09-21T15:56:04+02:00</time>
      </trkpt>
      <trkpt lat="44.09152" lon="3.05091">
        <ele>356.2</ele>
        <time>2022-09-21T15:56:09+02:00</time>
      </trkpt>
      <trkpt lat="44.09172" lon="3.05054">
        <ele>355</ele>
        <time>2022-09-21T15:56:14+02:00</time>
      </trkpt>
      <trkpt lat="44.09187" lon="3.05015">
        <ele>354.4</ele>
        <time>2022-09-21T15:56:19+02:00</time>
      </trkpt>
      <trkpt lat="44.09199" lon="3.04977">
        <ele>354.1</ele>
        <time>2022-09-21T15:56:24+02:00</time>
      </trkpt>
      <trkpt lat="44.09207" lon="3.04937">
        <ele>353.3</ele>
        <time>2022-09-21T15:56:29+02:00</time>
      </trkpt>
      <trkpt lat="44.09214" lon="3.04896">
        <ele>353.4</ele>
        <time>2022-09-21T15:56:34+02:00</time>
      </trkpt>
      <trkpt lat="44.0922" lon="3.04855">
        <ele>354.4</ele>
        <time>2022-09-21T15:56:39+02:00</time>
      </trkpt>
      <trkpt lat="44.09223" lon="3.04817">
        <ele>354.6</ele>
        <time>2022-09-21T15:56:44+02:00</time>
      </trkpt>
      <trkpt lat="44.09225" lon="3.04779">
        <ele>354.2</ele>
        <time>2022-09-21T15:56:49+02:00</time>
      </trkpt>
      <trkpt lat="44.09223" lon="3.04739">
        <ele>354.3</ele>
        <time>2022-09-21T15:56:54+02:00</time>
      </trkpt>
      <trkpt lat="44.09222" lon="3.047">
        <ele>354.3</ele>
        <time>2022-09-21T15:56:59+02:00</time>
      </trkpt>
      <trkpt lat="44.09218" lon="3.0466">
        <ele>354.6</ele>
        <time>2022-09-21T15:57:04+02:00</time>
      </trkpt>
      <trkpt lat="44.0921" lon="3.04622">
        <ele>354.7</ele>
        <time>2022-09-21T15:57:08+02:00</time>
      </trkpt>
      <trkpt lat="44.092" lon="3.04581">
        <ele>354.2</ele>
        <time>2022-09-21T15:57:14+02:00</time>
      </trkpt>
      <trkpt lat="44.09191" lon="3.04541">
        <ele>354</ele>
        <time>2022-09-21T15:57:18+02:00</time>
      </trkpt>
      <trkpt lat="44.09182" lon="3.04501">
        <ele>352.6</ele>
        <time>2022-09-21T15:57:24+02:00</time>
      </trkpt>
      <trkpt lat="44.09171" lon="3.0446">
        <ele>349.9</ele>
        <time>2022-09-21T15:57:29+02:00</time>
      </trkpt>
      <trkpt lat="44.09163" lon="3.04421">
        <ele>348.4</ele>
        <time>2022-09-21T15:57:34+02:00</time>
      </trkpt>
      <trkpt lat="44.09154" lon="3.04381">
        <ele>349.6</ele>
        <time>2022-09-21T15:57:39+02:00</time>
      </trkpt>
      <trkpt lat="44.09147" lon="3.04342">
        <ele>351</ele>
        <time>2022-09-21T15:57:44+02:00</time>
      </trkpt>
      <trkpt lat="44.09144" lon="3.04302">
        <ele>352.6</ele>
        <time>2022-09-21T15:57:49+02:00</time>
      </trkpt>
      <trkpt lat="44.09144" lon="3.04261">
        <ele>354.1</ele>
        <time>2022-09-21T15:57:53+02:00</time>
      </trkpt>
      <trkpt lat="44.09148" lon="3.04221">
        <ele>354.6</ele>
        <time>2022-09-21T15:57:59+02:00</time>
      </trkpt>
      <trkpt lat="44.09156" lon="3.04183">
        <ele>354</ele>
        <time>2022-09-21T15:58:04+02:00</time>
      </trkpt>
      <trkpt lat="44.09169" lon="3.04148">
        <ele>353.1</ele>
        <time>2022-09-21T15:58:09+02:00</time>
      </trkpt>
      <trkpt lat="44.09186" lon="3.04114">
        <ele>354.8</ele>
        <time>2022-09-21T15:58:14+02:00</time>
      </trkpt>
      <trkpt lat="44.09206" lon="3.04083">
        <ele>353.7</ele>
        <time>2022-09-21T15:58:19+02:00</time>
      </trkpt>
      <trkpt lat="44.09225" lon="3.04054">
        <ele>353.5</ele>
        <time>2022-09-21T15:58:24+02:00</time>
      </trkpt>
      <trkpt lat="44.09245" lon="3.04025">
        <ele>351.1</ele>
        <time>2022-09-21T15:58:29+02:00</time>
      </trkpt>
      <trkpt lat="44.09264" lon="3.03996">
        <ele>351.8</ele>
        <time>2022-09-21T15:58:34+02:00</time>
      </trkpt>
      <trkpt lat="44.09282" lon="3.0397">
        <ele>354.6</ele>
        <time>2022-09-21T15:58:39+02:00</time>
      </trkpt>
      <trkpt lat="44.09302" lon="3.03943">
        <ele>354.8</ele>
        <time>2022-09-21T15:58:44+02:00</time>
      </trkpt>
      <trkpt lat="44.09322" lon="3.03915">
        <ele>352.3</ele>
        <time>2022-09-21T15:58:49+02:00</time>
      </trkpt>
      <trkpt lat="44.0934" lon="3.03885">
        <ele>353.5</ele>
        <time>2022-09-21T15:58:54+02:00</time>
      </trkpt>
      <trkpt lat="44.09357" lon="3.03852">
        <ele>355.6</ele>
        <time>2022-09-21T15:58:59+02:00</time>
      </trkpt>
      <trkpt lat="44.09372" lon="3.03817">
        <ele>356.1</ele>
        <time>2022-09-21T15:59:04+02:00</time>
      </trkpt>
      <trkpt lat="44.09384" lon="3.03779">
        <ele>355.8</ele>
        <time>2022-09-21T15:59:09+02:00</time>
      </trkpt>
      <trkpt lat="44.09396" lon="3.03742">
        <ele>353.3</ele>
        <time>2022-09-21T15:59:14+02:00</time>
      </trkpt>
      <trkpt lat="44.09406" lon="3.03704">
        <ele>352.2</ele>
        <time>2022-09-21T15:59:18+02:00</time>
      </trkpt>
      <trkpt lat="44.09414" lon="3.03664">
        <ele>351</ele>
        <time>2022-09-21T15:59:24+02:00</time>
      </trkpt>
      <trkpt lat="44.09418" lon="3.03625">
        <ele>351.2</ele>
        <time>2022-09-21T15:59:28+02:00</time>
      </trkpt>
      <trkpt lat="44.09423" lon="3.03585">
        <ele>352.7</ele>
        <time>2022-09-21T15:59:34+02:00</time>
      </trkpt>
      <trkpt lat="44.09426" lon="3.03546">
        <ele>352.9</ele>
        <time>2022-09-21T15:59:39+02:00</time>
      </trkpt>
      <trkpt lat="44.09431" lon="3.03504">
        <ele>353.1</ele>
        <time>2022-09-21T15:59:44+02:00</time>
      </trkpt>
      <trkpt lat="44.09435" lon="3.03464">
        <ele>352.5</ele>
        <time>2022-09-21T15:59:49+02:00</time>
      </trkpt>
      <trkpt lat="44.09439" lon="3.03424">
        <ele>351.8</ele>
        <time>2022-09-21T15:59:54+02:00</time>
      </trkpt>
      <trkpt lat="44.09437" lon="3.03385">
        <ele>351</ele>
        <time>2022-09-21T15:59:58+02:00</time>
      </trkpt>
      <trkpt lat="44.09431" lon="3.03347">
        <ele>349.5</ele>
        <time>2022-09-21T16:00:04+02:00</time>
      </trkpt>
      <trkpt lat="44.09423" lon="3.03308">
        <ele>348.9</ele>
        <time>2022-09-21T16:00:09+02:00</time>
      </trkpt>
      <trkpt lat="44.09412" lon="3.03271">
        <ele>348.8</ele>
        <time>2022-09-21T16:00:14+02:00</time>
      </trkpt>
      <trkpt lat="44.09401" lon="3.03237">
        <ele>350.4</ele>
        <time>2022-09-21T16:00:19+02:00</time>
      </trkpt>
      <trkpt lat="44.09386" lon="3.03202">
        <ele>352</ele>
        <time>2022-09-21T16:00:24+02:00</time>
      </trkpt>
      <trkpt lat="44.0937" lon="3.03169">
        <ele>351.4</ele>
        <time>2022-09-21T16:00:29+02:00</time>
      </trkpt>
      <trkpt lat="44.09354" lon="3.03138">
        <ele>351.9</ele>
        <time>2022-09-21T16:00:34+02:00</time>
      </trkpt>
      <trkpt lat="44.09336" lon="3.0311">
        <ele>349.7</ele>
        <time>2022-09-21T16:00:39+02:00</time>
      </trkpt>
      <trkpt lat="44.09314" lon="3.03081">
        <ele>349.4</ele>
        <time>2022-09-21T16:00:44+02:00</time>
      </trkpt>
      <trkpt lat="44.09291" lon="3.03053">
        <ele>352.5</ele>
        <time>2022-09-21T16:00:49+02:00</time>
      </trkpt>
      <trkpt lat="44.09269" lon="3.03029">
        <ele>352.4</ele>
        <time>2022-09-21T16:00:54+02:00</time>
      </trkpt>
      <trkpt lat="44.09244" lon="3.03007">
        <ele>350.2</ele>
        <time>2022-09-21T16:00:59+02:00</time>
      </trkpt>
      <trkpt lat="44.09218" lon="3.02987">
        <ele>351.6</ele>
        <time>2022-09-21T16:01:04+02:00</time>
      </trkpt>
      <trkpt lat="44.09192" lon="3.02964">
        <ele>352.2</ele>
        <time>2022-09-21T16:01:09+02:00</time>
      </trkpt>
      <trkpt lat="44.09166" lon="3.02942">
        <ele>350.2</ele>
        <time>2022-09-21T16:01:14+02:00</time>
      </trkpt>
      <trkpt lat="44.09139" lon="3.02918">
        <ele>351</ele>
        <time>2022-09-21T16:01:19+02:00</time>
      </trkpt>
      <trkpt lat="44.09112" lon="3.02895">
        <ele>354.9</ele>
        <time>2022-09-21T16:01:24+02:00</time>
      </trkpt>
      <trkpt lat="44.09088" lon="3.02873">
        <ele>357.8</ele>
        <time>2022-09-21T16:01:29+02:00</time>
      </trkpt>
      <trkpt lat="44.0906" lon="3.02856">
        <ele>357.4</ele>
        <time>2022-09-21T16:01:34+02:00</time>
      </trkpt>
      <trkpt lat="44.0903" lon="3.02844">
        <ele>354</ele>
        <time>2022-09-21T16:01:39+02:00</time>
      </trkpt>
      <trkpt lat="44.09" lon="3.02833">
        <ele>349.1</ele>
        <time>2022-09-21T16:01:43+02:00</time>
      </trkpt>
      <trkpt lat="44.08971" lon="3.02821">
        <ele>351</ele>
        <time>2022-09-21T16:01:49+02:00</time>
      </trkpt>
      <trkpt lat="44.08943" lon="3.02805">
        <ele>351.5</ele>
        <time>2022-09-21T16:01:54+02:00</time>
      </trkpt>
      <trkpt lat="44.08917" lon="3.02785">
        <ele>349.8</ele>
        <time>2022-09-21T16:01:59+02:00</time>
      </trkpt>
      <trkpt lat="44.08892" lon="3.02765">
        <ele>350.1</ele>
        <time>2022-09-21T16:02:04+02:00</time>
      </trkpt>
      <trkpt lat="44.08868" lon="3.02744">
        <ele>349.7</ele>
        <time>2022-09-21T16:02:09+02:00</time>
      </trkpt>
      <trkpt lat="44.08843" lon="3.02723">
        <ele>349.4</ele>
        <time>2022-09-21T16:02:13+02:00</time>
      </trkpt>
      <trkpt lat="44.0882" lon="3.02702">
        <ele>349.5</ele>
        <time>2022-09-21T16:02:19+02:00</time>
      </trkpt>
      <trkpt lat="44.08798" lon="3.02676">
        <ele>349.4</ele>
        <time>2022-09-21T16:02:24+02:00</time>
      </trkpt>
      <trkpt lat="44.08778" lon="3.02649">
        <ele>349.2</ele>
        <time>2022-09-21T16:02:29+02:00</time>
      </trkpt>
      <trkpt lat="44.08758" lon="3.02619">
        <ele>347.8</ele>
        <time>2022-09-21T16:02:34+02:00</time>
      </trkpt>
      <trkpt lat="44.08739" lon="3.02588">
        <ele>348.2</ele>
        <time>2022-09-21T16:02:39+02:00</time>
      </trkpt>
      <trkpt lat="44.08722" lon="3.02557">
        <ele>350.2</ele>
        <time>2022-09-21T16:02:44+02:00</time>
      </trkpt>
      <trkpt lat="44.08708" lon="3.02526">
        <ele>350.1</ele>
        <time>2022-09-21T16:02:49+02:00</time>
      </trkpt>
      <trkpt lat="44.08695" lon="3.02493">
        <ele>348.7</ele>
        <time>2022-09-21T16:02:54+02:00</time>
      </trkpt>
      <trkpt lat="44.08682" lon="3.02458">
        <ele>348.1</ele>
        <time>2022-09-21T16:02:59+02:00</time>
      </trkpt>
      <trkpt lat="44.0867" lon="3.02423">
        <ele>345.8</ele>
        <time>2022-09-21T16:03:04+02:00</time>
      </trkpt>
      <trkpt lat="44.08657" lon="3.02386">
        <ele>346.5</ele>
        <time>2022-09-21T16:03:09+02:00</time>
      </trkpt>
      <trkpt lat="44.08644" lon="3.0235">
        <ele>347.4</ele>
        <time>2022-09-21T16:03:13+02:00</time>
      </trkpt>
      <trkpt lat="44.08632" lon="3.02315">
        <ele>348</ele>
        <time>2022-09-21T16:03:19+02:00</time>
      </trkpt>
      <trkpt lat="44.08622" lon="3.02285">
        <ele>348.3</ele>
        <time>2022-09-21T16:03:24+02:00</time>
      </trkpt>
      <trkpt lat="44.08613" lon="3.02254">
        <ele>347.8</ele>
        <time>2022-09-21T16:03:29+02:00</time>
      </trkpt>
      <trkpt lat="44.08603" lon="3.02224">
        <ele>347.7</ele>
        <time>2022-09-21T16:03:34+02:00</time>
      </trkpt>
      <trkpt lat="44.08591" lon="3.0219">
        <ele>346.9</ele>
        <time>2022-09-21T16:03:39+02:00</time>
      </trkpt>
      <trkpt lat="44.08579" lon="3.02154">
        <ele>346.5</ele>
        <time>2022-09-21T16:03:44+02:00</time>
      </trkpt>
      <trkpt lat="44.08567" lon="3.02112">
        <ele>347.6</ele>
        <time>2022-09-21T16:03:49+02:00</time>
      </trkpt>
      <trkpt lat="44.08559" lon="3.02076">
        <ele>347.9</ele>
        <time>2022-09-21T16:03:54+02:00</time>
      </trkpt>
      <trkpt lat="44.08552" lon="3.02044">
        <ele>348</ele>
        <time>2022-09-21T16:03:59+02:00</time>
      </trkpt>
      <trkpt lat="44.08544" lon="3.02012">
        <ele>348</ele>
        <time>2022-09-21T16:04:04+02:00</time>
      </trkpt>
      <trkpt lat="44.08535" lon="3.01979">
        <ele>348.3</ele>
        <time>2022-09-21T16:04:09+02:00</time>
      </trkpt>
      <trkpt lat="44.08528" lon="3.01944">
        <ele>348.6</ele>
        <time>2022-09-21T16:04:14+02:00</time>
      </trkpt>
      <trkpt lat="44.0852" lon="3.0191">
        <ele>348.3</ele>
        <time>2022-09-21T16:04:19+02:00</time>
      </trkpt>
      <trkpt lat="44.08512" lon="3.01874">
        <ele>346.8</ele>
        <time>2022-09-21T16:04:24+02:00</time>
      </trkpt>
      <trkpt lat="44.08503" lon="3.01833">
        <ele>344.3</ele>
        <time>2022-09-21T16:04:29+02:00</time>
      </trkpt>
      <trkpt lat="44.08494" lon="3.01789">
        <ele>343.7</ele>
        <time>2022-09-21T16:04:34+02:00</time>
      </trkpt>
      <trkpt lat="44.08485" lon="3.01746">
        <ele>343.6</ele>
        <time>2022-09-21T16:04:39+02:00</time>
      </trkpt>
      <trkpt lat="44.08475" lon="3.01707">
        <ele>344.4</ele>
        <time>2022-09-21T16:04:44+02:00</time>
      </trkpt>
      <trkpt lat="44.08466" lon="3.01665">
        <ele>345.3</ele>
        <time>2022-09-21T16:04:49+02:00</time>
      </trkpt>
      <trkpt lat="44.08459" lon="3.01626">
        <ele>346.2</ele>
        <time>2022-09-21T16:04:54+02:00</time>
      </trkpt>
      <trkpt lat="44.08454" lon="3.01591">
        <ele>347.1</ele>
        <time>2022-09-21T16:04:59+02:00</time>
      </trkpt>
      <trkpt lat="44.08451" lon="3.01557">
        <ele>347.7</ele>
        <time>2022-09-21T16:05:03+02:00</time>
      </trkpt>
      <trkpt lat="44.0845" lon="3.01523">
        <ele>348.3</ele>
        <time>2022-09-21T16:05:09+02:00</time>
      </trkpt>
      <trkpt lat="44.08452" lon="3.0146">
        <ele>349</ele>
        <time>2022-09-21T16:05:19+02:00</time>
      </trkpt>
      <trkpt lat="44.08457" lon="3.01422">
        <ele>349.1</ele>
        <time>2022-09-21T16:05:24+02:00</time>
      </trkpt>
      <trkpt lat="44.08464" lon="3.01387">
        <ele>348.8</ele>
        <time>2022-09-21T16:05:29+02:00</time>
      </trkpt>
      <trkpt lat="44.08472" lon="3.01353">
        <ele>348</ele>
        <time>2022-09-21T16:05:34+02:00</time>
      </trkpt>
      <trkpt lat="44.0848" lon="3.01321">
        <ele>346.8</ele>
        <time>2022-09-21T16:05:38+02:00</time>
      </trkpt>
      <trkpt lat="44.08487" lon="3.0129">
        <ele>345.6</ele>
        <time>2022-09-21T16:05:44+02:00</time>
      </trkpt>
      <trkpt lat="44.08494" lon="3.01258">
        <ele>343.8</ele>
        <time>2022-09-21T16:05:49+02:00</time>
      </trkpt>
      <trkpt lat="44.08501" lon="3.01225">
        <ele>343</ele>
        <time>2022-09-21T16:05:54+02:00</time>
      </trkpt>
      <trkpt lat="44.08508" lon="3.01192">
        <ele>344.5</ele>
        <time>2022-09-21T16:05:59+02:00</time>
      </trkpt>
      <trkpt lat="44.08516" lon="3.01159">
        <ele>346</ele>
        <time>2022-09-21T16:06:04+02:00</time>
      </trkpt>
      <trkpt lat="44.08525" lon="3.01123">
        <ele>348.7</ele>
        <time>2022-09-21T16:06:09+02:00</time>
      </trkpt>
      <trkpt lat="44.08534" lon="3.0109">
        <ele>350.3</ele>
        <time>2022-09-21T16:06:14+02:00</time>
      </trkpt>
      <trkpt lat="44.0855" lon="3.01041">
        <ele>351.4</ele>
        <time>2022-09-21T16:06:24+02:00</time>
      </trkpt>
      <trkpt lat="44.08558" lon="3.01009">
        <ele>351</ele>
        <time>2022-09-21T16:08:18+02:00</time>
      </trkpt>
      <trkpt lat="44.08572" lon="3.00977">
        <ele>349.5</ele>
        <time>2022-09-21T16:08:24+02:00</time>
      </trkpt>
      <trkpt lat="44.08587" lon="3.0095">
        <ele>348.4</ele>
        <time>2022-09-21T16:08:29+02:00</time>
      </trkpt>
      <trkpt lat="44.086" lon="3.00921">
        <ele>350.6</ele>
        <time>2022-09-21T16:08:35+02:00</time>
      </trkpt>
      <trkpt lat="44.08618" lon="3.00885">
        <ele>350.1</ele>
        <time>2022-09-21T16:08:42+02:00</time>
      </trkpt>
      <trkpt lat="44.08641" lon="3.00853">
        <ele>347.6</ele>
        <time>2022-09-21T16:08:48+02:00</time>
      </trkpt>
      <trkpt lat="44.08654" lon="3.00822">
        <ele>345.6</ele>
        <time>2022-09-21T16:08:55+02:00</time>
      </trkpt>
      <trkpt lat="44.08688" lon="3.00761">
        <ele>345.7</ele>
        <time>2022-09-21T16:09:05+02:00</time>
      </trkpt>
      <trkpt lat="44.08707" lon="3.00731">
        <ele>347.1</ele>
        <time>2022-09-21T16:09:10+02:00</time>
      </trkpt>
      <trkpt lat="44.0873" lon="3.00703">
        <ele>347.7</ele>
        <time>2022-09-21T16:09:14+02:00</time>
      </trkpt>
      <trkpt lat="44.08755" lon="3.00678">
        <ele>346.8</ele>
        <time>2022-09-21T16:09:19+02:00</time>
      </trkpt>
      <trkpt lat="44.0878" lon="3.00657">
        <ele>347.8</ele>
        <time>2022-09-21T16:09:24+02:00</time>
      </trkpt>
      <trkpt lat="44.08804" lon="3.00638">
        <ele>348.3</ele>
        <time>2022-09-21T16:09:29+02:00</time>
      </trkpt>
      <trkpt lat="44.08826" lon="3.00622">
        <ele>347.8</ele>
        <time>2022-09-21T16:09:34+02:00</time>
      </trkpt>
      <trkpt lat="44.08848" lon="3.00605">
        <ele>347.6</ele>
        <time>2022-09-21T16:09:40+02:00</time>
      </trkpt>
      <trkpt lat="44.08868" lon="3.00588">
        <ele>347.2</ele>
        <time>2022-09-21T16:09:45+02:00</time>
      </trkpt>
      <trkpt lat="44.08889" lon="3.0057">
        <ele>346.8</ele>
        <time>2022-09-21T16:09:49+02:00</time>
      </trkpt>
      <trkpt lat="44.08909" lon="3.00553">
        <ele>346.3</ele>
        <time>2022-09-21T16:09:54+02:00</time>
      </trkpt>
      <trkpt lat="44.08928" lon="3.00532">
        <ele>345.9</ele>
        <time>2022-09-21T16:09:59+02:00</time>
      </trkpt>
      <trkpt lat="44.08947" lon="3.00512">
        <ele>345.6</ele>
        <time>2022-09-21T16:10:05+02:00</time>
      </trkpt>
      <trkpt lat="44.08966" lon="3.00493">
        <ele>345.4</ele>
        <time>2022-09-21T16:10:09+02:00</time>
      </trkpt>
      <trkpt lat="44.08986" lon="3.0047">
        <ele>345.9</ele>
        <time>2022-09-21T16:10:15+02:00</time>
      </trkpt>
      <trkpt lat="44.09001" lon="3.00444">
        <ele>345.4</ele>
        <time>2022-09-21T16:10:20+02:00</time>
      </trkpt>
      <trkpt lat="44.09029" lon="3.00386">
        <ele>345.7</ele>
        <time>2022-09-21T16:10:30+02:00</time>
      </trkpt>
      <trkpt lat="44.09044" lon="3.00355">
        <ele>345.6</ele>
        <time>2022-09-21T16:10:35+02:00</time>
      </trkpt>
      <trkpt lat="44.0902" lon="3.00388">
        <ele>345.3</ele>
        <time>2022-09-21T16:10:55+02:00</time>
      </trkpt>
      <trkpt lat="44.09049" lon="3.00349">
        <ele>345.5</ele>
        <time>2022-09-21T16:14:04+02:00</time>
      </trkpt>
      <trkpt lat="44.09063" lon="3.00315">
        <ele>344.9</ele>
        <time>2022-09-21T16:14:09+02:00</time>
      </trkpt>
      <trkpt lat="44.09077" lon="3.00284">
        <ele>344.1</ele>
        <time>2022-09-21T16:14:14+02:00</time>
      </trkpt>
      <trkpt lat="44.0909" lon="3.00248">
        <ele>343.6</ele>
        <time>2022-09-21T16:14:23+02:00</time>
      </trkpt>
      <trkpt lat="44.09114" lon="3.00197">
        <ele>345.2</ele>
        <time>2022-09-21T16:14:34+02:00</time>
      </trkpt>
      <trkpt lat="44.09127" lon="3.00152">
        <ele>345.9</ele>
        <time>2022-09-21T16:14:43+02:00</time>
      </trkpt>
      <trkpt lat="44.09145" lon="3.00097">
        <ele>346</ele>
        <time>2022-09-21T16:14:51+02:00</time>
      </trkpt>
      <trkpt lat="44.09148" lon="3.00055">
        <ele>345.4</ele>
        <time>2022-09-21T16:17:38+02:00</time>
      </trkpt>
      <trkpt lat="44.09146" lon="3.00018">
        <ele>345.3</ele>
        <time>2022-09-21T16:17:43+02:00</time>
      </trkpt>
      <trkpt lat="44.09141" lon="2.99978">
        <ele>346.1</ele>
        <time>2022-09-21T16:17:49+02:00</time>
      </trkpt>
      <trkpt lat="44.09126" lon="2.99943">
        <ele>346.2</ele>
        <time>2022-09-21T16:17:54+02:00</time>
      </trkpt>
      <trkpt lat="44.09113" lon="2.9991">
        <ele>345.1</ele>
        <time>2022-09-21T16:18:00+02:00</time>
      </trkpt>
      <trkpt lat="44.09093" lon="2.99871">
        <ele>344.9</ele>
        <time>2022-09-21T16:18:07+02:00</time>
      </trkpt>
      <trkpt lat="44.09066" lon="2.99828">
        <ele>344.8</ele>
        <time>2022-09-21T16:18:15+02:00</time>
      </trkpt>
      <trkpt lat="44.09032" lon="2.99788">
        <ele>346.5</ele>
        <time>2022-09-21T16:18:22+02:00</time>
      </trkpt>
      <trkpt lat="44.0901" lon="2.99764">
        <ele>343.5</ele>
        <time>2022-09-21T16:18:29+02:00</time>
      </trkpt>
      <trkpt lat="44.08991" lon="2.99745">
        <ele>341.9</ele>
        <time>2022-09-21T16:18:34+02:00</time>
      </trkpt>
      <trkpt lat="44.08951" lon="2.99712">
        <ele>344.3</ele>
        <time>2022-09-21T16:18:44+02:00</time>
      </trkpt>
      <trkpt lat="44.08929" lon="2.99693">
        <ele>343.1</ele>
        <time>2022-09-21T16:18:49+02:00</time>
      </trkpt>
      <trkpt lat="44.08906" lon="2.99673">
        <ele>341.6</ele>
        <time>2022-09-21T16:18:54+02:00</time>
      </trkpt>
      <trkpt lat="44.08882" lon="2.9965">
        <ele>341.5</ele>
        <time>2022-09-21T16:18:58+02:00</time>
      </trkpt>
      <trkpt lat="44.08858" lon="2.99618">
        <ele>341.3</ele>
        <time>2022-09-21T16:19:04+02:00</time>
      </trkpt>
      <trkpt lat="44.0884" lon="2.9958">
        <ele>340.8</ele>
        <time>2022-09-21T16:19:08+02:00</time>
      </trkpt>
      <trkpt lat="44.08832" lon="2.99541">
        <ele>341.5</ele>
        <time>2022-09-21T16:19:14+02:00</time>
      </trkpt>
      <trkpt lat="44.08826" lon="2.99505">
        <ele>342.5</ele>
        <time>2022-09-21T16:19:18+02:00</time>
      </trkpt>
      <trkpt lat="44.08814" lon="2.99456">
        <ele>343.9</ele>
        <time>2022-09-21T16:19:29+02:00</time>
      </trkpt>
      <trkpt lat="44.08803" lon="2.99409">
        <ele>345.1</ele>
        <time>2022-09-21T16:19:36+02:00</time>
      </trkpt>
      <trkpt lat="44.0879" lon="2.9938">
        <ele>344.7</ele>
        <time>2022-09-21T16:19:42+02:00</time>
      </trkpt>
      <trkpt lat="44.08779" lon="2.99349">
        <ele>344.2</ele>
        <time>2022-09-21T16:19:47+02:00</time>
      </trkpt>
      <trkpt lat="44.08766" lon="2.99304">
        <ele>344.4</ele>
        <time>2022-09-21T16:19:57+02:00</time>
      </trkpt>
      <trkpt lat="44.08759" lon="2.9927">
        <ele>344.9</ele>
        <time>2022-09-21T16:20:04+02:00</time>
      </trkpt>
      <trkpt lat="44.08733" lon="2.9923">
        <ele>344.6</ele>
        <time>2022-09-21T16:20:12+02:00</time>
      </trkpt>
      <trkpt lat="44.08719" lon="2.99205">
        <ele>345.3</ele>
        <time>2022-09-21T16:20:17+02:00</time>
      </trkpt>
      <trkpt lat="44.087" lon="2.99178">
        <ele>345.3</ele>
        <time>2022-09-21T16:20:25+02:00</time>
      </trkpt>
      <trkpt lat="44.08682" lon="2.99133">
        <ele>346.8</ele>
        <time>2022-09-21T16:20:32+02:00</time>
      </trkpt>
      <trkpt lat="44.08665" lon="2.99107">
        <ele>345.8</ele>
        <time>2022-09-21T16:20:39+02:00</time>
      </trkpt>
      <trkpt lat="44.08642" lon="2.99078">
        <ele>346</ele>
        <time>2022-09-21T16:20:46+02:00</time>
      </trkpt>
      <trkpt lat="44.08621" lon="2.99058">
        <ele>346.5</ele>
        <time>2022-09-21T16:20:53+02:00</time>
      </trkpt>
      <trkpt lat="44.08604" lon="2.99037">
        <ele>346.1</ele>
        <time>2022-09-21T16:20:57+02:00</time>
      </trkpt>
      <trkpt lat="44.08587" lon="2.99008">
        <ele>344.5</ele>
        <time>2022-09-21T16:21:09+02:00</time>
      </trkpt>
      <trkpt lat="44.08561" lon="2.9898">
        <ele>344.9</ele>
        <time>2022-09-21T16:21:13+02:00</time>
      </trkpt>
      <trkpt lat="44.08544" lon="2.98951">
        <ele>345.5</ele>
        <time>2022-09-21T16:21:19+02:00</time>
      </trkpt>
      <trkpt lat="44.08527" lon="2.98921">
        <ele>344.7</ele>
        <time>2022-09-21T16:21:27+02:00</time>
      </trkpt>
      <trkpt lat="44.08512" lon="2.9889">
        <ele>344.6</ele>
        <time>2022-09-21T16:21:34+02:00</time>
      </trkpt>
      <trkpt lat="44.08497" lon="2.98865">
        <ele>343.6</ele>
        <time>2022-09-21T16:21:40+02:00</time>
      </trkpt>
      <trkpt lat="44.08479" lon="2.98829">
        <ele>344.8</ele>
        <time>2022-09-21T16:21:47+02:00</time>
      </trkpt>
      <trkpt lat="44.08458" lon="2.98805">
        <ele>345</ele>
        <time>2022-09-21T16:22:00+02:00</time>
      </trkpt>
      <trkpt lat="44.08445" lon="2.98777">
        <ele>345.3</ele>
        <time>2022-09-21T16:22:02+02:00</time>
      </trkpt>
      <trkpt lat="44.08429" lon="2.9875">
        <ele>343.7</ele>
        <time>2022-09-21T16:22:10+02:00</time>
      </trkpt>
      <trkpt lat="44.08416" lon="2.98723">
        <ele>341.3</ele>
        <time>2022-09-21T16:22:14+02:00</time>
      </trkpt>
      <trkpt lat="44.08403" lon="2.98691">
        <ele>341.2</ele>
        <time>2022-09-21T16:22:26+02:00</time>
      </trkpt>
      <trkpt lat="44.08403" lon="2.98659">
        <ele>341.5</ele>
        <time>2022-09-21T16:22:35+02:00</time>
      </trkpt>
      <trkpt lat="44.084" lon="2.98622">
        <ele>341.4</ele>
        <time>2022-09-21T16:22:44+02:00</time>
      </trkpt>
      <trkpt lat="44.084" lon="2.98582">
        <ele>341.4</ele>
        <time>2022-09-21T16:22:50+02:00</time>
      </trkpt>
      <trkpt lat="44.08413" lon="2.98554">
        <ele>341.2</ele>
        <time>2022-09-21T16:22:57+02:00</time>
      </trkpt>
      <trkpt lat="44.08443" lon="2.98533">
        <ele>346.8</ele>
        <time>2022-09-21T16:23:07+02:00</time>
      </trkpt>
      <trkpt lat="44.08482" lon="2.9854">
        <ele>356.5</ele>
        <time>2022-09-21T16:23:19+02:00</time>
      </trkpt>
      <trkpt lat="44.08505" lon="2.98547">
        <ele>361.9</ele>
        <time>2022-09-21T16:23:24+02:00</time>
      </trkpt>
      <trkpt lat="44.08533" lon="2.98558">
        <ele>364.9</ele>
        <time>2022-09-21T16:23:29+02:00</time>
      </trkpt>
      <trkpt lat="44.08558" lon="2.9857">
        <ele>368.5</ele>
        <time>2022-09-21T16:23:33+02:00</time>
      </trkpt>
      <trkpt lat="44.08583" lon="2.98583">
        <ele>372.9</ele>
        <time>2022-09-21T16:23:39+02:00</time>
      </trkpt>
      <trkpt lat="44.08611" lon="2.98596">
        <ele>373.2</ele>
        <time>2022-09-21T16:23:44+02:00</time>
      </trkpt>
      <trkpt lat="44.08639" lon="2.98611">
        <ele>374.3</ele>
        <time>2022-09-21T16:23:48+02:00</time>
      </trkpt>
      <trkpt lat="44.08668" lon="2.98622">
        <ele>374.5</ele>
        <time>2022-09-21T16:23:54+02:00</time>
      </trkpt>
      <trkpt lat="44.08697" lon="2.98631">
        <ele>373.5</ele>
        <time>2022-09-21T16:23:59+02:00</time>
      </trkpt>
      <trkpt lat="44.08729" lon="2.98636">
        <ele>370.9</ele>
        <time>2022-09-21T16:24:04+02:00</time>
      </trkpt>
      <trkpt lat="44.08761" lon="2.98639">
        <ele>368.2</ele>
        <time>2022-09-21T16:24:09+02:00</time>
      </trkpt>
      <trkpt lat="44.08794" lon="2.98644">
        <ele>367</ele>
        <time>2022-09-21T16:24:14+02:00</time>
      </trkpt>
      <trkpt lat="44.08828" lon="2.98648">
        <ele>365.5</ele>
        <time>2022-09-21T16:24:19+02:00</time>
      </trkpt>
      <trkpt lat="44.08863" lon="2.98645">
        <ele>364</ele>
        <time>2022-09-21T16:24:24+02:00</time>
      </trkpt>
      <trkpt lat="44.08897" lon="2.98639">
        <ele>362.2</ele>
        <time>2022-09-21T16:24:28+02:00</time>
      </trkpt>
      <trkpt lat="44.08933" lon="2.98629">
        <ele>359.1</ele>
        <time>2022-09-21T16:24:34+02:00</time>
      </trkpt>
      <trkpt lat="44.08969" lon="2.98617">
        <ele>355.5</ele>
        <time>2022-09-21T16:24:38+02:00</time>
      </trkpt>
      <trkpt lat="44.09004" lon="2.98604">
        <ele>352.4</ele>
        <time>2022-09-21T16:24:44+02:00</time>
      </trkpt>
      <trkpt lat="44.0904" lon="2.9859">
        <ele>350.6</ele>
        <time>2022-09-21T16:24:49+02:00</time>
      </trkpt>
      <trkpt lat="44.09077" lon="2.98574">
        <ele>349.1</ele>
        <time>2022-09-21T16:24:54+02:00</time>
      </trkpt>
      <trkpt lat="44.09115" lon="2.98557">
        <ele>348.8</ele>
        <time>2022-09-21T16:24:59+02:00</time>
      </trkpt>
      <trkpt lat="44.09143" lon="2.98524">
        <ele>345</ele>
        <time>2022-09-21T16:25:04+02:00</time>
      </trkpt>
      <trkpt lat="44.09165" lon="2.9849">
        <ele>340.7</ele>
        <time>2022-09-21T16:25:09+02:00</time>
      </trkpt>
      <trkpt lat="44.09186" lon="2.9846">
        <ele>342.8</ele>
        <time>2022-09-21T16:25:14+02:00</time>
      </trkpt>
      <trkpt lat="44.09207" lon="2.98432">
        <ele>344.1</ele>
        <time>2022-09-21T16:25:19+02:00</time>
      </trkpt>
      <trkpt lat="44.09227" lon="2.98404">
        <ele>344.1</ele>
        <time>2022-09-21T16:25:24+02:00</time>
      </trkpt>
      <trkpt lat="44.09247" lon="2.98375">
        <ele>342.8</ele>
        <time>2022-09-21T16:25:29+02:00</time>
      </trkpt>
      <trkpt lat="44.09264" lon="2.98346">
        <ele>342.7</ele>
        <time>2022-09-21T16:25:34+02:00</time>
      </trkpt>
      <trkpt lat="44.0928" lon="2.98315">
        <ele>342.6</ele>
        <time>2022-09-21T16:25:39+02:00</time>
      </trkpt>
      <trkpt lat="44.09297" lon="2.98288">
        <ele>342.8</ele>
        <time>2022-09-21T16:25:44+02:00</time>
      </trkpt>
      <trkpt lat="44.0931" lon="2.98259">
        <ele>340.9</ele>
        <time>2022-09-21T16:25:49+02:00</time>
      </trkpt>
      <trkpt lat="44.0932" lon="2.98228">
        <ele>339.5</ele>
        <time>2022-09-21T16:25:54+02:00</time>
      </trkpt>
      <trkpt lat="44.09337" lon="2.98185">
        <ele>338.1</ele>
        <time>2022-09-21T16:26:04+02:00</time>
      </trkpt>
      <trkpt lat="44.0935" lon="2.98142">
        <ele>339.4</ele>
        <time>2022-09-21T16:26:11+02:00</time>
      </trkpt>
      <trkpt lat="44.09357" lon="2.98104">
        <ele>339.6</ele>
        <time>2022-09-21T16:26:18+02:00</time>
      </trkpt>
      <trkpt lat="44.09365" lon="2.98043">
        <ele>340.9</ele>
        <time>2022-09-21T16:26:27+02:00</time>
      </trkpt>
      <trkpt lat="44.09362" lon="2.97985">
        <ele>342.8</ele>
        <time>2022-09-21T16:26:33+02:00</time>
      </trkpt>
      <trkpt lat="44.09359" lon="2.97942">
        <ele>345</ele>
        <time>2022-09-21T16:26:39+02:00</time>
      </trkpt>
      <trkpt lat="44.09355" lon="2.97899">
        <ele>345.8</ele>
        <time>2022-09-21T16:26:44+02:00</time>
      </trkpt>
      <trkpt lat="44.09353" lon="2.97855">
        <ele>344.6</ele>
        <time>2022-09-21T16:26:49+02:00</time>
      </trkpt>
      <trkpt lat="44.09355" lon="2.97812">
        <ele>344.1</ele>
        <time>2022-09-21T16:26:54+02:00</time>
      </trkpt>
      <trkpt lat="44.09354" lon="2.97766">
        <ele>344.4</ele>
        <time>2022-09-21T16:26:59+02:00</time>
      </trkpt>
      <trkpt lat="44.09355" lon="2.9772">
        <ele>345.2</ele>
        <time>2022-09-21T16:27:04+02:00</time>
      </trkpt>
      <trkpt lat="44.09359" lon="2.97675">
        <ele>345.8</ele>
        <time>2022-09-21T16:27:09+02:00</time>
      </trkpt>
      <trkpt lat="44.0936" lon="2.97628">
        <ele>347</ele>
        <time>2022-09-21T16:27:13+02:00</time>
      </trkpt>
      <trkpt lat="44.09363" lon="2.97583">
        <ele>347.6</ele>
        <time>2022-09-21T16:27:18+02:00</time>
      </trkpt>
      <trkpt lat="44.09364" lon="2.97536">
        <ele>347</ele>
        <time>2022-09-21T16:27:23+02:00</time>
      </trkpt>
      <trkpt lat="44.09368" lon="2.97494">
        <ele>345.9</ele>
        <time>2022-09-21T16:27:29+02:00</time>
      </trkpt>
      <trkpt lat="44.0937" lon="2.97454">
        <ele>345.1</ele>
        <time>2022-09-21T16:27:34+02:00</time>
      </trkpt>
      <trkpt lat="44.09372" lon="2.97416">
        <ele>344.5</ele>
        <time>2022-09-21T16:27:39+02:00</time>
      </trkpt>
      <trkpt lat="44.09373" lon="2.97381">
        <ele>344.4</ele>
        <time>2022-09-21T16:27:44+02:00</time>
      </trkpt>
      <trkpt lat="44.09376" lon="2.97347">
        <ele>343.8</ele>
        <time>2022-09-21T16:27:49+02:00</time>
      </trkpt>
      <trkpt lat="44.09378" lon="2.97311">
        <ele>343.4</ele>
        <time>2022-09-21T16:27:54+02:00</time>
      </trkpt>
      <trkpt lat="44.09376" lon="2.97275">
        <ele>343.8</ele>
        <time>2022-09-21T16:27:59+02:00</time>
      </trkpt>
      <trkpt lat="44.09374" lon="2.97239">
        <ele>343.8</ele>
        <time>2022-09-21T16:28:04+02:00</time>
      </trkpt>
      <trkpt lat="44.09371" lon="2.97201">
        <ele>343.1</ele>
        <time>2022-09-21T16:28:09+02:00</time>
      </trkpt>
      <trkpt lat="44.09369" lon="2.97165">
        <ele>342.1</ele>
        <time>2022-09-21T16:28:14+02:00</time>
      </trkpt>
      <trkpt lat="44.09364" lon="2.9713">
        <ele>341.7</ele>
        <time>2022-09-21T16:28:19+02:00</time>
      </trkpt>
      <trkpt lat="44.09357" lon="2.97094">
        <ele>340.7</ele>
        <time>2022-09-21T16:28:24+02:00</time>
      </trkpt>
      <trkpt lat="44.09348" lon="2.97062">
        <ele>339.2</ele>
        <time>2022-09-21T16:28:29+02:00</time>
      </trkpt>
      <trkpt lat="44.09339" lon="2.97026">
        <ele>336.5</ele>
        <time>2022-09-21T16:28:34+02:00</time>
      </trkpt>
      <trkpt lat="44.0933" lon="2.96992">
        <ele>334.6</ele>
        <time>2022-09-21T16:28:39+02:00</time>
      </trkpt>
      <trkpt lat="44.09319" lon="2.96959">
        <ele>335.9</ele>
        <time>2022-09-21T16:28:44+02:00</time>
      </trkpt>
      <trkpt lat="44.09308" lon="2.96931">
        <ele>336.2</ele>
        <time>2022-09-21T16:28:49+02:00</time>
      </trkpt>
      <trkpt lat="44.09291" lon="2.96896">
        <ele>337.2</ele>
        <time>2022-09-21T16:28:59+02:00</time>
      </trkpt>
      <trkpt lat="44.09267" lon="2.96855">
        <ele>336.6</ele>
        <time>2022-09-21T16:29:07+02:00</time>
      </trkpt>
      <trkpt lat="44.09244" lon="2.96828">
        <ele>334.7</ele>
        <time>2022-09-21T16:29:16+02:00</time>
      </trkpt>
      <trkpt lat="44.09227" lon="2.96792">
        <ele>336.8</ele>
        <time>2022-09-21T16:29:23+02:00</time>
      </trkpt>
      <trkpt lat="44.09206" lon="2.96767">
        <ele>336.2</ele>
        <time>2022-09-21T16:29:30+02:00</time>
      </trkpt>
      <trkpt lat="44.09186" lon="2.96739">
        <ele>336.4</ele>
        <time>2022-09-21T16:29:37+02:00</time>
      </trkpt>
      <trkpt lat="44.09157" lon="2.96711">
        <ele>337.8</ele>
        <time>2022-09-21T16:29:50+02:00</time>
      </trkpt>
      <trkpt lat="44.09133" lon="2.96684">
        <ele>339.2</ele>
        <time>2022-09-21T16:29:55+02:00</time>
      </trkpt>
      <trkpt lat="44.09097" lon="2.96652">
        <ele>339.5</ele>
        <time>2022-09-21T16:30:05+02:00</time>
      </trkpt>
      <trkpt lat="44.0907" lon="2.96634">
        <ele>340.5</ele>
        <time>2022-09-21T16:30:12+02:00</time>
      </trkpt>
      <trkpt lat="44.09047" lon="2.96615">
        <ele>342.2</ele>
        <time>2022-09-21T16:30:19+02:00</time>
      </trkpt>
      <trkpt lat="44.09015" lon="2.96599">
        <ele>340.9</ele>
        <time>2022-09-21T16:30:26+02:00</time>
      </trkpt>
      <trkpt lat="44.08989" lon="2.96586">
        <ele>339.1</ele>
        <time>2022-09-21T16:30:33+02:00</time>
      </trkpt>
      <trkpt lat="44.08964" lon="2.96566">
        <ele>342.1</ele>
        <time>2022-09-21T16:30:40+02:00</time>
      </trkpt>
      <trkpt lat="44.08914" lon="2.96541">
        <ele>340</ele>
        <time>2022-09-21T16:30:49+02:00</time>
      </trkpt>
      <trkpt lat="44.08891" lon="2.96526">
        <ele>340.9</ele>
        <time>2022-09-21T16:30:54+02:00</time>
      </trkpt>
      <trkpt lat="44.08868" lon="2.96513">
        <ele>341.1</ele>
        <time>2022-09-21T16:30:58+02:00</time>
      </trkpt>
      <trkpt lat="44.08845" lon="2.96497">
        <ele>341.5</ele>
        <time>2022-09-21T16:31:04+02:00</time>
      </trkpt>
      <trkpt lat="44.0882" lon="2.96484">
        <ele>341.8</ele>
        <time>2022-09-21T16:31:08+02:00</time>
      </trkpt>
      <trkpt lat="44.08795" lon="2.96471">
        <ele>341.7</ele>
        <time>2022-09-21T16:31:14+02:00</time>
      </trkpt>
      <trkpt lat="44.08771" lon="2.96458">
        <ele>341.2</ele>
        <time>2022-09-21T16:31:19+02:00</time>
      </trkpt>
      <trkpt lat="44.08746" lon="2.96443">
        <ele>340.6</ele>
        <time>2022-09-21T16:31:24+02:00</time>
      </trkpt>
      <trkpt lat="44.08722" lon="2.96431">
        <ele>340.4</ele>
        <time>2022-09-21T16:31:29+02:00</time>
      </trkpt>
      <trkpt lat="44.08698" lon="2.9642">
        <ele>339.4</ele>
        <time>2022-09-21T16:31:34+02:00</time>
      </trkpt>
      <trkpt lat="44.08673" lon="2.96406">
        <ele>339.5</ele>
        <time>2022-09-21T16:31:39+02:00</time>
      </trkpt>
      <trkpt lat="44.08648" lon="2.96393">
        <ele>340</ele>
        <time>2022-09-21T16:31:44+02:00</time>
      </trkpt>
      <trkpt lat="44.0862" lon="2.96379">
        <ele>339.8</ele>
        <time>2022-09-21T16:31:49+02:00</time>
      </trkpt>
      <trkpt lat="44.08593" lon="2.96361">
        <ele>339.1</ele>
        <time>2022-09-21T16:31:54+02:00</time>
      </trkpt>
      <trkpt lat="44.08567" lon="2.96339">
        <ele>338.7</ele>
        <time>2022-09-21T16:31:59+02:00</time>
      </trkpt>
      <trkpt lat="44.08549" lon="2.9632">
        <ele>339.6</ele>
        <time>2022-09-21T16:32:04+02:00</time>
      </trkpt>
      <trkpt lat="44.0853" lon="2.96292">
        <ele>341.9</ele>
        <time>2022-09-21T16:32:14+02:00</time>
      </trkpt>
      <trkpt lat="44.08516" lon="2.96266">
        <ele>344.2</ele>
        <time>2022-09-21T16:32:22+02:00</time>
      </trkpt>
      <trkpt lat="44.08503" lon="2.96239">
        <ele>346.2</ele>
        <time>2022-09-21T16:32:28+02:00</time>
      </trkpt>
      <trkpt lat="44.08483" lon="2.96205">
        <ele>348</ele>
        <time>2022-09-21T16:32:39+02:00</time>
      </trkpt>
      <trkpt lat="44.08465" lon="2.96166">
        <ele>350.8</ele>
        <time>2022-09-21T16:32:53+02:00</time>
      </trkpt>
      <trkpt lat="44.08452" lon="2.96139">
        <ele>351</ele>
        <time>2022-09-21T16:33:01+02:00</time>
      </trkpt>
      <trkpt lat="44.08436" lon="2.96107">
        <ele>350.9</ele>
        <time>2022-09-21T16:33:10+02:00</time>
      </trkpt>
      <trkpt lat="44.08418" lon="2.96077">
        <ele>350.2</ele>
        <time>2022-09-21T16:33:19+02:00</time>
      </trkpt>
      <trkpt lat="44.08373" lon="2.96004">
        <ele>346.4</ele>
        <time>2022-09-21T16:33:34+02:00</time>
      </trkpt>
      <trkpt lat="44.08356" lon="2.95974">
        <ele>344.2</ele>
        <time>2022-09-21T16:33:39+02:00</time>
      </trkpt>
      <trkpt lat="44.08341" lon="2.95945">
        <ele>341.8</ele>
        <time>2022-09-21T16:33:44+02:00</time>
      </trkpt>
      <trkpt lat="44.08331" lon="2.95909">
        <ele>339.6</ele>
        <time>2022-09-21T16:33:49+02:00</time>
      </trkpt>
      <trkpt lat="44.08324" lon="2.95872">
        <ele>338.1</ele>
        <time>2022-09-21T16:33:53+02:00</time>
      </trkpt>
      <trkpt lat="44.08323" lon="2.95833">
        <ele>337</ele>
        <time>2022-09-21T16:33:59+02:00</time>
      </trkpt>
      <trkpt lat="44.08329" lon="2.95791">
        <ele>336.1</ele>
        <time>2022-09-21T16:34:04+02:00</time>
      </trkpt>
      <trkpt lat="44.08337" lon="2.95751">
        <ele>335.7</ele>
        <time>2022-09-21T16:34:08+02:00</time>
      </trkpt>
      <trkpt lat="44.08346" lon="2.95713">
        <ele>336</ele>
        <time>2022-09-21T16:34:14+02:00</time>
      </trkpt>
      <trkpt lat="44.08356" lon="2.95676">
        <ele>336.3</ele>
        <time>2022-09-21T16:34:18+02:00</time>
      </trkpt>
      <trkpt lat="44.08366" lon="2.95637">
        <ele>336.9</ele>
        <time>2022-09-21T16:34:24+02:00</time>
      </trkpt>
      <trkpt lat="44.08376" lon="2.95596">
        <ele>337.3</ele>
        <time>2022-09-21T16:34:29+02:00</time>
      </trkpt>
      <trkpt lat="44.08371" lon="2.95556">
        <ele>336.3</ele>
        <time>2022-09-21T16:34:34+02:00</time>
      </trkpt>
      <trkpt lat="44.0836" lon="2.95515">
        <ele>334.4</ele>
        <time>2022-09-21T16:34:39+02:00</time>
      </trkpt>
      <trkpt lat="44.08361" lon="2.95473">
        <ele>334</ele>
        <time>2022-09-21T16:34:44+02:00</time>
      </trkpt>
      <trkpt lat="44.08366" lon="2.95434">
        <ele>334</ele>
        <time>2022-09-21T16:34:49+02:00</time>
      </trkpt>
      <trkpt lat="44.08376" lon="2.95398">
        <ele>334.6</ele>
        <time>2022-09-21T16:34:54+02:00</time>
      </trkpt>
      <trkpt lat="44.08395" lon="2.95369">
        <ele>335.1</ele>
        <time>2022-09-21T16:34:59+02:00</time>
      </trkpt>
      <trkpt lat="44.08415" lon="2.95343">
        <ele>334.5</ele>
        <time>2022-09-21T16:35:04+02:00</time>
      </trkpt>
      <trkpt lat="44.08437" lon="2.95317">
        <ele>335.8</ele>
        <time>2022-09-21T16:35:09+02:00</time>
      </trkpt>
      <trkpt lat="44.08459" lon="2.95293">
        <ele>336.8</ele>
        <time>2022-09-21T16:35:14+02:00</time>
      </trkpt>
      <trkpt lat="44.0848" lon="2.95271">
        <ele>336.8</ele>
        <time>2022-09-21T16:35:19+02:00</time>
      </trkpt>
      <trkpt lat="44.08497" lon="2.9525">
        <ele>336</ele>
        <time>2022-09-21T16:35:24+02:00</time>
      </trkpt>
      <trkpt lat="44.08516" lon="2.95218">
        <ele>337</ele>
        <time>2022-09-21T16:35:34+02:00</time>
      </trkpt>
      <trkpt lat="44.08533" lon="2.95191">
        <ele>337.8</ele>
        <time>2022-09-21T16:35:43+02:00</time>
      </trkpt>
      <trkpt lat="44.08546" lon="2.95165">
        <ele>337.9</ele>
        <time>2022-09-21T16:35:51+02:00</time>
      </trkpt>
      <trkpt lat="44.08564" lon="2.9512">
        <ele>339</ele>
        <time>2022-09-21T16:36:47+02:00</time>
      </trkpt>
      <trkpt lat="44.08579" lon="2.95085">
        <ele>339</ele>
        <time>2022-09-21T16:36:53+02:00</time>
      </trkpt>
      <trkpt lat="44.08603" lon="2.95032">
        <ele>338.7</ele>
        <time>2022-09-21T16:37:04+02:00</time>
      </trkpt>
      <trkpt lat="44.0862" lon="2.95004">
        <ele>336.9</ele>
        <time>2022-09-21T16:37:09+02:00</time>
      </trkpt>
      <trkpt lat="44.0864" lon="2.94969">
        <ele>334.8</ele>
        <time>2022-09-21T16:37:14+02:00</time>
      </trkpt>
      <trkpt lat="44.0866" lon="2.9493">
        <ele>332.1</ele>
        <time>2022-09-21T16:37:19+02:00</time>
      </trkpt>
      <trkpt lat="44.08678" lon="2.94888">
        <ele>332.4</ele>
        <time>2022-09-21T16:37:24+02:00</time>
      </trkpt>
      <trkpt lat="44.08698" lon="2.94847">
        <ele>333.3</ele>
        <time>2022-09-21T16:37:29+02:00</time>
      </trkpt>
      <trkpt lat="44.08715" lon="2.94815">
        <ele>333.4</ele>
        <time>2022-09-21T16:37:34+02:00</time>
      </trkpt>
      <trkpt lat="44.08728" lon="2.94781">
        <ele>332.1</ele>
        <time>2022-09-21T16:37:39+02:00</time>
      </trkpt>
      <trkpt lat="44.08741" lon="2.94746">
        <ele>329.6</ele>
        <time>2022-09-21T16:37:44+02:00</time>
      </trkpt>
      <trkpt lat="44.08753" lon="2.94715">
        <ele>330.3</ele>
        <time>2022-09-21T16:37:49+02:00</time>
      </trkpt>
      <trkpt lat="44.08768" lon="2.9468">
        <ele>332.2</ele>
        <time>2022-09-21T16:37:54+02:00</time>
      </trkpt>
      <trkpt lat="44.08786" lon="2.94646">
        <ele>333.2</ele>
        <time>2022-09-21T16:37:58+02:00</time>
      </trkpt>
      <trkpt lat="44.08799" lon="2.94612">
        <ele>333.1</ele>
        <time>2022-09-21T16:38:04+02:00</time>
      </trkpt>
      <trkpt lat="44.08811" lon="2.9458">
        <ele>332</ele>
        <time>2022-09-21T16:38:09+02:00</time>
      </trkpt>
      <trkpt lat="44.08823" lon="2.94549">
        <ele>330.7</ele>
        <time>2022-09-21T16:38:14+02:00</time>
      </trkpt>
      <trkpt lat="44.08838" lon="2.94499">
        <ele>328.7</ele>
        <time>2022-09-21T16:38:24+02:00</time>
      </trkpt>
      <trkpt lat="44.08843" lon="2.94461">
        <ele>329.2</ele>
        <time>2022-09-21T16:38:31+02:00</time>
      </trkpt>
      <trkpt lat="44.08849" lon="2.94421">
        <ele>329.7</ele>
        <time>2022-09-21T16:38:36+02:00</time>
      </trkpt>
      <trkpt lat="44.08857" lon="2.94388">
        <ele>331.3</ele>
        <time>2022-09-21T16:38:43+02:00</time>
      </trkpt>
      <trkpt lat="44.08868" lon="2.94358">
        <ele>332.8</ele>
        <time>2022-09-21T16:38:49+02:00</time>
      </trkpt>
      <trkpt lat="44.08882" lon="2.94315">
        <ele>334</ele>
        <time>2022-09-21T16:38:56+02:00</time>
      </trkpt>
      <trkpt lat="44.08895" lon="2.94278">
        <ele>334</ele>
        <time>2022-09-21T16:39:03+02:00</time>
      </trkpt>
      <trkpt lat="44.08907" lon="2.94239">
        <ele>332.7</ele>
        <time>2022-09-21T16:39:11+02:00</time>
      </trkpt>
      <trkpt lat="44.08918" lon="2.94211">
        <ele>331.8</ele>
        <time>2022-09-21T16:39:21+02:00</time>
      </trkpt>
      <trkpt lat="44.08925" lon="2.94163">
        <ele>332.5</ele>
        <time>2022-09-21T16:39:26+02:00</time>
      </trkpt>
      <trkpt lat="44.08925" lon="2.94095">
        <ele>333.9</ele>
        <time>2022-09-21T16:39:34+02:00</time>
      </trkpt>
      <trkpt lat="44.08923" lon="2.94058">
        <ele>333.4</ele>
        <time>2022-09-21T16:39:39+02:00</time>
      </trkpt>
      <trkpt lat="44.08924" lon="2.94019">
        <ele>332.9</ele>
        <time>2022-09-21T16:39:44+02:00</time>
      </trkpt>
      <trkpt lat="44.08921" lon="2.93953">
        <ele>332.5</ele>
        <time>2022-09-21T16:39:54+02:00</time>
      </trkpt>
      <trkpt lat="44.08914" lon="2.93917">
        <ele>332.2</ele>
        <time>2022-09-21T16:39:59+02:00</time>
      </trkpt>
      <trkpt lat="44.08902" lon="2.93885">
        <ele>333.4</ele>
        <time>2022-09-21T16:40:04+02:00</time>
      </trkpt>
      <trkpt lat="44.08889" lon="2.93854">
        <ele>334</ele>
        <time>2022-09-21T16:40:09+02:00</time>
      </trkpt>
      <trkpt lat="44.08873" lon="2.93813">
        <ele>335.3</ele>
        <time>2022-09-21T16:40:16+02:00</time>
      </trkpt>
      <trkpt lat="44.08849" lon="2.93766">
        <ele>334.7</ele>
        <time>2022-09-21T16:40:24+02:00</time>
      </trkpt>
      <trkpt lat="44.08832" lon="2.93741">
        <ele>333.3</ele>
        <time>2022-09-21T16:40:29+02:00</time>
      </trkpt>
      <trkpt lat="44.08814" lon="2.93716">
        <ele>335.6</ele>
        <time>2022-09-21T16:40:34+02:00</time>
      </trkpt>
      <trkpt lat="44.08784" lon="2.9368">
        <ele>335.1</ele>
        <time>2022-09-21T16:40:44+02:00</time>
      </trkpt>
      <trkpt lat="44.08734" lon="2.93638">
        <ele>336.8</ele>
        <time>2022-09-21T16:40:54+02:00</time>
      </trkpt>
      <trkpt lat="44.08708" lon="2.93628">
        <ele>336.7</ele>
        <time>2022-09-21T16:41:00+02:00</time>
      </trkpt>
      <trkpt lat="44.08683" lon="2.93608">
        <ele>336.6</ele>
        <time>2022-09-21T16:41:05+02:00</time>
      </trkpt>
      <trkpt lat="44.08657" lon="2.93588">
        <ele>335.1</ele>
        <time>2022-09-21T16:41:12+02:00</time>
      </trkpt>
      <trkpt lat="44.08631" lon="2.93569">
        <ele>337.8</ele>
        <time>2022-09-21T16:41:17+02:00</time>
      </trkpt>
      <trkpt lat="44.08591" lon="2.93546">
        <ele>340.3</ele>
        <time>2022-09-21T16:41:24+02:00</time>
      </trkpt>
      <trkpt lat="44.08561" lon="2.93526">
        <ele>342.2</ele>
        <time>2022-09-21T16:41:33+02:00</time>
      </trkpt>
      <trkpt lat="44.08536" lon="2.93511">
        <ele>342.6</ele>
        <time>2022-09-21T16:41:39+02:00</time>
      </trkpt>
      <trkpt lat="44.08509" lon="2.93503">
        <ele>340.7</ele>
        <time>2022-09-21T16:41:44+02:00</time>
      </trkpt>
      <trkpt lat="44.08485" lon="2.935">
        <ele>339.8</ele>
        <time>2022-09-21T16:41:49+02:00</time>
      </trkpt>
      <trkpt lat="44.08464" lon="2.93488">
        <ele>344.3</ele>
        <time>2022-09-21T16:41:54+02:00</time>
      </trkpt>
      <trkpt lat="44.08442" lon="2.93481">
        <ele>346.5</ele>
        <time>2022-09-21T16:41:58+02:00</time>
      </trkpt>
      <trkpt lat="44.08417" lon="2.93475">
        <ele>348</ele>
        <time>2022-09-21T16:42:04+02:00</time>
      </trkpt>
      <trkpt lat="44.08381" lon="2.9347">
        <ele>346.7</ele>
        <time>2022-09-21T16:42:11+02:00</time>
      </trkpt>
      <trkpt lat="44.08356" lon="2.93463">
        <ele>346.7</ele>
        <time>2022-09-21T16:42:18+02:00</time>
      </trkpt>
      <trkpt lat="44.08324" lon="2.93456">
        <ele>345.8</ele>
        <time>2022-09-21T16:42:24+02:00</time>
      </trkpt>
      <trkpt lat="44.08292" lon="2.93445">
        <ele>345.2</ele>
        <time>2022-09-21T16:42:31+02:00</time>
      </trkpt>
      <trkpt lat="44.08265" lon="2.93439">
        <ele>343.5</ele>
        <time>2022-09-21T16:42:37+02:00</time>
      </trkpt>
      <trkpt lat="44.08235" lon="2.93428">
        <ele>342.4</ele>
        <time>2022-09-21T16:42:43+02:00</time>
      </trkpt>
      <trkpt lat="44.08207" lon="2.93423">
        <ele>340.5</ele>
        <time>2022-09-21T16:42:51+02:00</time>
      </trkpt>
      <trkpt lat="44.08164" lon="2.93405">
        <ele>340.7</ele>
        <time>2022-09-21T16:42:59+02:00</time>
      </trkpt>
      <trkpt lat="44.0814" lon="2.93396">
        <ele>342.2</ele>
        <time>2022-09-21T16:43:04+02:00</time>
      </trkpt>
      <trkpt lat="44.08119" lon="2.93375">
        <ele>346.8</ele>
        <time>2022-09-21T16:43:12+02:00</time>
      </trkpt>
      <trkpt lat="44.08094" lon="2.93368">
        <ele>346.6</ele>
        <time>2022-09-21T16:43:17+02:00</time>
      </trkpt>
      <trkpt lat="44.08073" lon="2.93347">
        <ele>350.3</ele>
        <time>2022-09-21T16:43:25+02:00</time>
      </trkpt>
      <trkpt lat="44.0805" lon="2.93347">
        <ele>349.3</ele>
        <time>2022-09-21T16:43:27+02:00</time>
      </trkpt>
      <trkpt lat="44.08028" lon="2.93341">
        <ele>349.7</ele>
        <time>2022-09-21T16:43:32+02:00</time>
      </trkpt>
      <trkpt lat="44.07983" lon="2.93326">
        <ele>352.2</ele>
        <time>2022-09-21T16:43:42+02:00</time>
      </trkpt>
      <trkpt lat="44.07958" lon="2.93319">
        <ele>353.7</ele>
        <time>2022-09-21T16:43:50+02:00</time>
      </trkpt>
      <trkpt lat="44.07927" lon="2.93302">
        <ele>358.7</ele>
        <time>2022-09-21T16:43:59+02:00</time>
      </trkpt>
      <trkpt lat="44.07903" lon="2.93311">
        <ele>353.8</ele>
        <time>2022-09-21T16:44:16+02:00</time>
      </trkpt>
      <trkpt lat="44.07877" lon="2.93306">
        <ele>354.1</ele>
        <time>2022-09-21T16:44:22+02:00</time>
      </trkpt>
      <trkpt lat="44.07844" lon="2.93298">
        <ele>355</ele>
        <time>2022-09-21T16:44:31+02:00</time>
      </trkpt>
      <trkpt lat="44.0782" lon="2.9329">
        <ele>356.3</ele>
        <time>2022-09-21T16:44:38+02:00</time>
      </trkpt>
      <trkpt lat="44.07794" lon="2.93286">
        <ele>356</ele>
        <time>2022-09-21T16:44:46+02:00</time>
      </trkpt>
      <trkpt lat="44.07763" lon="2.9328">
        <ele>356.1</ele>
        <time>2022-09-21T16:44:54+02:00</time>
      </trkpt>
      <trkpt lat="44.07736" lon="2.93273">
        <ele>355.4</ele>
        <time>2022-09-21T16:45:03+02:00</time>
      </trkpt>
      <trkpt lat="44.07706" lon="2.93269">
        <ele>351.9</ele>
        <time>2022-09-21T16:45:11+02:00</time>
      </trkpt>
      <trkpt lat="44.07678" lon="2.93258">
        <ele>350.1</ele>
        <time>2022-09-21T16:45:18+02:00</time>
      </trkpt>
      <trkpt lat="44.0763" lon="2.93242">
        <ele>346.9</ele>
        <time>2022-09-21T16:45:29+02:00</time>
      </trkpt>
      <trkpt lat="44.07607" lon="2.9323">
        <ele>347</ele>
        <time>2022-09-21T16:45:34+02:00</time>
      </trkpt>
      <trkpt lat="44.07583" lon="2.93218">
        <ele>346.3</ele>
        <time>2022-09-21T16:45:39+02:00</time>
      </trkpt>
      <trkpt lat="44.07549" lon="2.93199">
        <ele>347.7</ele>
        <time>2022-09-21T16:45:47+02:00</time>
      </trkpt>
      <trkpt lat="44.07526" lon="2.93188">
        <ele>347</ele>
        <time>2022-09-21T16:45:54+02:00</time>
      </trkpt>
      <trkpt lat="44.07493" lon="2.93164">
        <ele>346.5</ele>
        <time>2022-09-21T16:46:02+02:00</time>
      </trkpt>
      <trkpt lat="44.07466" lon="2.93146">
        <ele>345.9</ele>
        <time>2022-09-21T16:46:11+02:00</time>
      </trkpt>
      <trkpt lat="44.07436" lon="2.93126">
        <ele>344.2</ele>
        <time>2022-09-21T16:46:21+02:00</time>
      </trkpt>
      <trkpt lat="44.07411" lon="2.93111">
        <ele>341.9</ele>
        <time>2022-09-21T16:46:30+02:00</time>
      </trkpt>
      <trkpt lat="44.07394" lon="2.93087">
        <ele>342.7</ele>
        <time>2022-09-21T16:46:36+02:00</time>
      </trkpt>
      <trkpt lat="44.07375" lon="2.93059">
        <ele>344.8</ele>
        <time>2022-09-21T16:46:44+02:00</time>
      </trkpt>
      <trkpt lat="44.07354" lon="2.93029">
        <ele>347.7</ele>
        <time>2022-09-21T16:46:53+02:00</time>
      </trkpt>
      <trkpt lat="44.0733" lon="2.93002">
        <ele>350.1</ele>
        <time>2022-09-21T16:47:02+02:00</time>
      </trkpt>
      <trkpt lat="44.07305" lon="2.92982">
        <ele>350.6</ele>
        <time>2022-09-21T16:47:11+02:00</time>
      </trkpt>
      <trkpt lat="44.07285" lon="2.92963">
        <ele>351.3</ele>
        <time>2022-09-21T16:47:19+02:00</time>
      </trkpt>
      <trkpt lat="44.07265" lon="2.92946">
        <ele>351.2</ele>
        <time>2022-09-21T16:47:26+02:00</time>
      </trkpt>
      <trkpt lat="44.07248" lon="2.92922">
        <ele>352.5</ele>
        <time>2022-09-21T16:47:34+02:00</time>
      </trkpt>
      <trkpt lat="44.07235" lon="2.92891">
        <ele>352.8</ele>
        <time>2022-09-21T16:47:42+02:00</time>
      </trkpt>
      <trkpt lat="44.07234" lon="2.9285">
        <ele>356.1</ele>
        <time>2022-09-21T16:47:52+02:00</time>
      </trkpt>
      <trkpt lat="44.07238" lon="2.92818">
        <ele>358.2</ele>
        <time>2022-09-21T16:47:59+02:00</time>
      </trkpt>
      <trkpt lat="44.07246" lon="2.9278">
        <ele>359</ele>
        <time>2022-09-21T16:48:08+02:00</time>
      </trkpt>
      <trkpt lat="44.0726" lon="2.92747">
        <ele>360.2</ele>
        <time>2022-09-21T16:48:17+02:00</time>
      </trkpt>
      <trkpt lat="44.07275" lon="2.92713">
        <ele>362.4</ele>
        <time>2022-09-21T16:48:28+02:00</time>
      </trkpt>
      <trkpt lat="44.07289" lon="2.92683">
        <ele>364.5</ele>
        <time>2022-09-21T16:48:36+02:00</time>
      </trkpt>
      <trkpt lat="44.07305" lon="2.92654">
        <ele>366.3</ele>
        <time>2022-09-21T16:48:45+02:00</time>
      </trkpt>
      <trkpt lat="44.07322" lon="2.92627">
        <ele>367.7</ele>
        <time>2022-09-21T16:48:53+02:00</time>
      </trkpt>
      <trkpt lat="44.07346" lon="2.92591">
        <ele>369.9</ele>
        <time>2022-09-21T16:49:04+02:00</time>
      </trkpt>
      <trkpt lat="44.07369" lon="2.92562">
        <ele>371.6</ele>
        <time>2022-09-21T16:49:13+02:00</time>
      </trkpt>
      <trkpt lat="44.07389" lon="2.92533">
        <ele>372.5</ele>
        <time>2022-09-21T16:49:22+02:00</time>
      </trkpt>
      <trkpt lat="44.07407" lon="2.92511">
        <ele>373.5</ele>
        <time>2022-09-21T16:49:29+02:00</time>
      </trkpt>
      <trkpt lat="44.07428" lon="2.92494">
        <ele>374.4</ele>
        <time>2022-09-21T16:49:37+02:00</time>
      </trkpt>
      <trkpt lat="44.07461" lon="2.9247">
        <ele>375</ele>
        <time>2022-09-21T16:49:46+02:00</time>
      </trkpt>
      <trkpt lat="44.07489" lon="2.92436">
        <ele>374.6</ele>
        <time>2022-09-21T16:49:54+02:00</time>
      </trkpt>
      <trkpt lat="44.07504" lon="2.92401">
        <ele>373.5</ele>
        <time>2022-09-21T16:50:01+02:00</time>
      </trkpt>
      <trkpt lat="44.07518" lon="2.92368">
        <ele>373.2</ele>
        <time>2022-09-21T16:50:09+02:00</time>
      </trkpt>
      <trkpt lat="44.07536" lon="2.92332">
        <ele>373.2</ele>
        <time>2022-09-21T16:50:18+02:00</time>
      </trkpt>
      <trkpt lat="44.07556" lon="2.9229">
        <ele>372.3</ele>
        <time>2022-09-21T16:50:24+02:00</time>
      </trkpt>
      <trkpt lat="44.0758" lon="2.92233">
        <ele>370.8</ele>
        <time>2022-09-21T16:50:34+02:00</time>
      </trkpt>
      <trkpt lat="44.07593" lon="2.92204">
        <ele>371.1</ele>
        <time>2022-09-21T16:50:39+02:00</time>
      </trkpt>
      <trkpt lat="44.07607" lon="2.92174">
        <ele>371.2</ele>
        <time>2022-09-21T16:50:44+02:00</time>
      </trkpt>
      <trkpt lat="44.07623" lon="2.92138">
        <ele>369.5</ele>
        <time>2022-09-21T16:50:49+02:00</time>
      </trkpt>
      <trkpt lat="44.07646" lon="2.92102">
        <ele>368</ele>
        <time>2022-09-21T16:50:54+02:00</time>
      </trkpt>
      <trkpt lat="44.0768" lon="2.92066">
        <ele>366.7</ele>
        <time>2022-09-21T16:50:59+02:00</time>
      </trkpt>
      <trkpt lat="44.0772" lon="2.92035">
        <ele>365.5</ele>
        <time>2022-09-21T16:51:04+02:00</time>
      </trkpt>
      <trkpt lat="44.07767" lon="2.92009">
        <ele>364.8</ele>
        <time>2022-09-21T16:51:09+02:00</time>
      </trkpt>
      <trkpt lat="44.07817" lon="2.92004">
        <ele>366.9</ele>
        <time>2022-09-21T16:51:14+02:00</time>
      </trkpt>
      <trkpt lat="44.07866" lon="2.92025">
        <ele>370.5</ele>
        <time>2022-09-21T16:51:19+02:00</time>
      </trkpt>
      <trkpt lat="44.07911" lon="2.92073">
        <ele>383.5</ele>
        <time>2022-09-21T16:51:24+02:00</time>
      </trkpt>
      <trkpt lat="44.07959" lon="2.92122">
        <ele>388.4</ele>
        <time>2022-09-21T16:51:29+02:00</time>
      </trkpt>
      <trkpt lat="44.08014" lon="2.92155">
        <ele>382.2</ele>
        <time>2022-09-21T16:51:33+02:00</time>
      </trkpt>
      <trkpt lat="44.08072" lon="2.92182">
        <ele>370.1</ele>
        <time>2022-09-21T16:51:39+02:00</time>
      </trkpt>
      <trkpt lat="44.08127" lon="2.92206">
        <ele>364.7</ele>
        <time>2022-09-21T16:51:44+02:00</time>
      </trkpt>
      <trkpt lat="44.08173" lon="2.92221">
        <ele>361.4</ele>
        <time>2022-09-21T16:51:49+02:00</time>
      </trkpt>
      <trkpt lat="44.08182" lon="2.92184">
        <ele>349.3</ele>
        <time>2022-09-21T16:52:07+02:00</time>
      </trkpt>
      <trkpt lat="44.08186" lon="2.92152">
        <ele>342.5</ele>
        <time>2022-09-21T16:52:14+02:00</time>
      </trkpt>
      <trkpt lat="44.08194" lon="2.9212">
        <ele>339.6</ele>
        <time>2022-09-21T16:52:19+02:00</time>
      </trkpt>
      <trkpt lat="44.08194" lon="2.92082">
        <ele>336.8</ele>
        <time>2022-09-21T16:52:27+02:00</time>
      </trkpt>
      <trkpt lat="44.08167" lon="2.92072">
        <ele>336.1</ele>
        <time>2022-09-21T16:52:32+02:00</time>
      </trkpt>
      <trkpt lat="44.08123" lon="2.92054">
        <ele>338.6</ele>
        <time>2022-09-21T16:52:39+02:00</time>
      </trkpt>
      <trkpt lat="44.08097" lon="2.92036">
        <ele>339</ele>
        <time>2022-09-21T16:52:44+02:00</time>
      </trkpt>
      <trkpt lat="44.08072" lon="2.92015">
        <ele>339.3</ele>
        <time>2022-09-21T16:52:49+02:00</time>
      </trkpt>
      <trkpt lat="44.08046" lon="2.92001">
        <ele>339.9</ele>
        <time>2022-09-21T16:52:54+02:00</time>
      </trkpt>
      <trkpt lat="44.0802" lon="2.9199">
        <ele>340.8</ele>
        <time>2022-09-21T16:52:59+02:00</time>
      </trkpt>
      <trkpt lat="44.07992" lon="2.91977">
        <ele>342.1</ele>
        <time>2022-09-21T16:53:04+02:00</time>
      </trkpt>
      <trkpt lat="44.07967" lon="2.91954">
        <ele>343.1</ele>
        <time>2022-09-21T16:53:09+02:00</time>
      </trkpt>
      <trkpt lat="44.07948" lon="2.91919">
        <ele>339.6</ele>
        <time>2022-09-21T16:53:14+02:00</time>
      </trkpt>
      <trkpt lat="44.07927" lon="2.91886">
        <ele>338</ele>
        <time>2022-09-21T16:53:19+02:00</time>
      </trkpt>
      <trkpt lat="44.07906" lon="2.91856">
        <ele>335.8</ele>
        <time>2022-09-21T16:53:24+02:00</time>
      </trkpt>
      <trkpt lat="44.07883" lon="2.91824">
        <ele>334</ele>
        <time>2022-09-21T16:53:29+02:00</time>
      </trkpt>
      <trkpt lat="44.0786" lon="2.91792">
        <ele>334.1</ele>
        <time>2022-09-21T16:53:34+02:00</time>
      </trkpt>
      <trkpt lat="44.07835" lon="2.91763">
        <ele>332.3</ele>
        <time>2022-09-21T16:53:38+02:00</time>
      </trkpt>
      <trkpt lat="44.07808" lon="2.9174">
        <ele>332.8</ele>
        <time>2022-09-21T16:53:44+02:00</time>
      </trkpt>
      <trkpt lat="44.07779" lon="2.91718">
        <ele>334</ele>
        <time>2022-09-21T16:53:49+02:00</time>
      </trkpt>
      <trkpt lat="44.07752" lon="2.917">
        <ele>332.8</ele>
        <time>2022-09-21T16:53:54+02:00</time>
      </trkpt>
      <trkpt lat="44.07725" lon="2.91683">
        <ele>331.7</ele>
        <time>2022-09-21T16:53:59+02:00</time>
      </trkpt>
      <trkpt lat="44.07697" lon="2.91667">
        <ele>329.3</ele>
        <time>2022-09-21T16:54:04+02:00</time>
      </trkpt>
      <trkpt lat="44.0767" lon="2.9165">
        <ele>327</ele>
        <time>2022-09-21T16:54:09+02:00</time>
      </trkpt>
      <trkpt lat="44.07646" lon="2.91632">
        <ele>326.6</ele>
        <time>2022-09-21T16:54:14+02:00</time>
      </trkpt>
      <trkpt lat="44.07621" lon="2.91611">
        <ele>326</ele>
        <time>2022-09-21T16:54:19+02:00</time>
      </trkpt>
      <trkpt lat="44.07601" lon="2.91582">
        <ele>325.1</ele>
        <time>2022-09-21T16:54:24+02:00</time>
      </trkpt>
      <trkpt lat="44.07586" lon="2.91549">
        <ele>323.8</ele>
        <time>2022-09-21T16:54:29+02:00</time>
      </trkpt>
      <trkpt lat="44.07578" lon="2.91514">
        <ele>323.7</ele>
        <time>2022-09-21T16:54:34+02:00</time>
      </trkpt>
      <trkpt lat="44.07573" lon="2.91479">
        <ele>325.1</ele>
        <time>2022-09-21T16:54:39+02:00</time>
      </trkpt>
      <trkpt lat="44.07569" lon="2.91442">
        <ele>327</ele>
        <time>2022-09-21T16:54:44+02:00</time>
      </trkpt>
      <trkpt lat="44.0756" lon="2.91406">
        <ele>330.1</ele>
        <time>2022-09-21T16:54:49+02:00</time>
      </trkpt>
      <trkpt lat="44.07543" lon="2.91376">
        <ele>333.4</ele>
        <time>2022-09-21T16:54:54+02:00</time>
      </trkpt>
      <trkpt lat="44.0752" lon="2.91355">
        <ele>335</ele>
        <time>2022-09-21T16:54:59+02:00</time>
      </trkpt>
      <trkpt lat="44.07499" lon="2.91332">
        <ele>335.2</ele>
        <time>2022-09-21T16:55:04+02:00</time>
      </trkpt>
      <trkpt lat="44.07479" lon="2.91304">
        <ele>337.1</ele>
        <time>2022-09-21T16:55:09+02:00</time>
      </trkpt>
      <trkpt lat="44.0746" lon="2.91274">
        <ele>336.5</ele>
        <time>2022-09-21T16:55:14+02:00</time>
      </trkpt>
      <trkpt lat="44.07444" lon="2.91246">
        <ele>334.3</ele>
        <time>2022-09-21T16:55:19+02:00</time>
      </trkpt>
      <trkpt lat="44.07427" lon="2.91218">
        <ele>333.2</ele>
        <time>2022-09-21T16:55:24+02:00</time>
      </trkpt>
      <trkpt lat="44.07408" lon="2.91195">
        <ele>330.8</ele>
        <time>2022-09-21T16:55:29+02:00</time>
      </trkpt>
      <trkpt lat="44.07388" lon="2.91172">
        <ele>328.3</ele>
        <time>2022-09-21T16:55:34+02:00</time>
      </trkpt>
      <trkpt lat="44.07369" lon="2.91153">
        <ele>328.2</ele>
        <time>2022-09-21T16:55:39+02:00</time>
      </trkpt>
      <trkpt lat="44.07354" lon="2.91129">
        <ele>328.5</ele>
        <time>2022-09-21T16:55:44+02:00</time>
      </trkpt>
      <trkpt lat="44.07338" lon="2.91102">
        <ele>327.5</ele>
        <time>2022-09-21T16:55:49+02:00</time>
      </trkpt>
      <trkpt lat="44.07305" lon="2.91059">
        <ele>334.7</ele>
        <time>2022-09-21T16:55:59+02:00</time>
      </trkpt>
      <trkpt lat="44.07259" lon="2.91031">
        <ele>346.7</ele>
        <time>2022-09-21T16:56:09+02:00</time>
      </trkpt>
      <trkpt lat="44.07231" lon="2.91033">
        <ele>350.2</ele>
        <time>2022-09-21T16:56:14+02:00</time>
      </trkpt>
      <trkpt lat="44.07176" lon="2.91039">
        <ele>357.4</ele>
        <time>2022-09-21T16:56:24+02:00</time>
      </trkpt>
      <trkpt lat="44.07149" lon="2.9105">
        <ele>360.2</ele>
        <time>2022-09-21T16:56:28+02:00</time>
      </trkpt>
      <trkpt lat="44.07119" lon="2.9106">
        <ele>365.3</ele>
        <time>2022-09-21T16:56:34+02:00</time>
      </trkpt>
      <trkpt lat="44.07089" lon="2.9107">
        <ele>370.1</ele>
        <time>2022-09-21T16:56:38+02:00</time>
      </trkpt>
      <trkpt lat="44.07061" lon="2.91087">
        <ele>372.7</ele>
        <time>2022-09-21T16:56:44+02:00</time>
      </trkpt>
      <trkpt lat="44.07035" lon="2.91107">
        <ele>374.6</ele>
        <time>2022-09-21T16:56:49+02:00</time>
      </trkpt>
      <trkpt lat="44.07011" lon="2.91125">
        <ele>375.9</ele>
        <time>2022-09-21T16:56:54+02:00</time>
      </trkpt>
      <trkpt lat="44.06984" lon="2.91146">
        <ele>374.5</ele>
        <time>2022-09-21T16:56:59+02:00</time>
      </trkpt>
      <trkpt lat="44.06962" lon="2.91166">
        <ele>371.5</ele>
        <time>2022-09-21T16:57:04+02:00</time>
      </trkpt>
      <trkpt lat="44.0694" lon="2.91187">
        <ele>368.8</ele>
        <time>2022-09-21T16:57:09+02:00</time>
      </trkpt>
      <trkpt lat="44.06916" lon="2.91211">
        <ele>365.2</ele>
        <time>2022-09-21T16:57:14+02:00</time>
      </trkpt>
      <trkpt lat="44.06891" lon="2.91231">
        <ele>365.7</ele>
        <time>2022-09-21T16:57:19+02:00</time>
      </trkpt>
      <trkpt lat="44.06867" lon="2.91249">
        <ele>368.5</ele>
        <time>2022-09-21T16:57:24+02:00</time>
      </trkpt>
      <trkpt lat="44.0684" lon="2.9127">
        <ele>372.9</ele>
        <time>2022-09-21T16:57:29+02:00</time>
      </trkpt>
      <trkpt lat="44.06815" lon="2.91298">
        <ele>376.2</ele>
        <time>2022-09-21T16:57:34+02:00</time>
      </trkpt>
      <trkpt lat="44.06794" lon="2.91334">
        <ele>374.4</ele>
        <time>2022-09-21T16:57:39+02:00</time>
      </trkpt>
      <trkpt lat="44.06776" lon="2.91367">
        <ele>369.5</ele>
        <time>2022-09-21T16:57:44+02:00</time>
      </trkpt>
      <trkpt lat="44.06755" lon="2.914">
        <ele>364</ele>
        <time>2022-09-21T16:57:48+02:00</time>
      </trkpt>
      <trkpt lat="44.06732" lon="2.9143">
        <ele>358.2</ele>
        <time>2022-09-21T16:57:54+02:00</time>
      </trkpt>
      <trkpt lat="44.06708" lon="2.91455">
        <ele>353.9</ele>
        <time>2022-09-21T16:57:59+02:00</time>
      </trkpt>
      <trkpt lat="44.06681" lon="2.91472">
        <ele>351.6</ele>
        <time>2022-09-21T16:58:04+02:00</time>
      </trkpt>
      <trkpt lat="44.06656" lon="2.9148">
        <ele>352</ele>
        <time>2022-09-21T16:58:09+02:00</time>
      </trkpt>
      <trkpt lat="44.06636" lon="2.91495">
        <ele>348.7</ele>
        <time>2022-09-21T16:58:14+02:00</time>
      </trkpt>
      <trkpt lat="44.06603" lon="2.91511">
        <ele>348.3</ele>
        <time>2022-09-21T16:58:24+02:00</time>
      </trkpt>
      <trkpt lat="44.06547" lon="2.91524">
        <ele>354.2</ele>
        <time>2022-09-21T16:58:34+02:00</time>
      </trkpt>
      <trkpt lat="44.06516" lon="2.91537">
        <ele>355.9</ele>
        <time>2022-09-21T16:58:44+02:00</time>
      </trkpt>
      <trkpt lat="44.06492" lon="2.91554">
        <ele>353.4</ele>
        <time>2022-09-21T16:58:50+02:00</time>
      </trkpt>
      <trkpt lat="44.06461" lon="2.9156">
        <ele>353.6</ele>
        <time>2022-09-21T16:58:56+02:00</time>
      </trkpt>
      <trkpt lat="44.06437" lon="2.91584">
        <ele>347.4</ele>
        <time>2022-09-21T16:59:03+02:00</time>
      </trkpt>
      <trkpt lat="44.06414" lon="2.91608">
        <ele>344.7</ele>
        <time>2022-09-21T16:59:10+02:00</time>
      </trkpt>
      <trkpt lat="44.0639" lon="2.91635">
        <ele>340.9</ele>
        <time>2022-09-21T16:59:18+02:00</time>
      </trkpt>
      <trkpt lat="44.06364" lon="2.91648">
        <ele>340.1</ele>
        <time>2022-09-21T16:59:26+02:00</time>
      </trkpt>
      <trkpt lat="44.06341" lon="2.91668">
        <ele>338.4</ele>
        <time>2022-09-21T16:59:32+02:00</time>
      </trkpt>
      <trkpt lat="44.06314" lon="2.91674">
        <ele>338.1</ele>
        <time>2022-09-21T16:59:39+02:00</time>
      </trkpt>
      <trkpt lat="44.06284" lon="2.91692">
        <ele>335.8</ele>
        <time>2022-09-21T16:59:46+02:00</time>
      </trkpt>
      <trkpt lat="44.06253" lon="2.91705">
        <ele>334</ele>
        <time>2022-09-21T16:59:53+02:00</time>
      </trkpt>
      <trkpt lat="44.06206" lon="2.91704">
        <ele>332.5</ele>
        <time>2022-09-21T17:00:03+02:00</time>
      </trkpt>
      <trkpt lat="44.06177" lon="2.91691">
        <ele>333.5</ele>
        <time>2022-09-21T17:00:13+02:00</time>
      </trkpt>
      <trkpt lat="44.06145" lon="2.91686">
        <ele>333.4</ele>
        <time>2022-09-21T17:00:21+02:00</time>
      </trkpt>
      <trkpt lat="44.06124" lon="2.91674">
        <ele>334.5</ele>
        <time>2022-09-21T17:00:26+02:00</time>
      </trkpt>
      <trkpt lat="44.06082" lon="2.9166">
        <ele>336.1</ele>
        <time>2022-09-21T17:00:34+02:00</time>
      </trkpt>
      <trkpt lat="44.06057" lon="2.91658">
        <ele>334.9</ele>
        <time>2022-09-21T17:00:39+02:00</time>
      </trkpt>
      <trkpt lat="44.06034" lon="2.91654">
        <ele>334.5</ele>
        <time>2022-09-21T17:00:44+02:00</time>
      </trkpt>
      <trkpt lat="44.0601" lon="2.91645">
        <ele>335.5</ele>
        <time>2022-09-21T17:00:51+02:00</time>
      </trkpt>
      <trkpt lat="44.05979" lon="2.91639">
        <ele>334.5</ele>
        <time>2022-09-21T17:00:58+02:00</time>
      </trkpt>
      <trkpt lat="44.05945" lon="2.91626">
        <ele>334.2</ele>
        <time>2022-09-21T17:01:05+02:00</time>
      </trkpt>
      <trkpt lat="44.05919" lon="2.91617">
        <ele>332.8</ele>
        <time>2022-09-21T17:01:13+02:00</time>
      </trkpt>
      <trkpt lat="44.05898" lon="2.91605">
        <ele>332.7</ele>
        <time>2022-09-21T17:01:18+02:00</time>
      </trkpt>
      <trkpt lat="44.05873" lon="2.91589">
        <ele>331.6</ele>
        <time>2022-09-21T17:01:24+02:00</time>
      </trkpt>
      <trkpt lat="44.05847" lon="2.91579">
        <ele>329.4</ele>
        <time>2022-09-21T17:01:30+02:00</time>
      </trkpt>
      <trkpt lat="44.05816" lon="2.91575">
        <ele>326.9</ele>
        <time>2022-09-21T17:01:39+02:00</time>
      </trkpt>
      <trkpt lat="44.0578" lon="2.91547">
        <ele>328.5</ele>
        <time>2022-09-21T17:01:50+02:00</time>
      </trkpt>
      <trkpt lat="44.0573" lon="2.91502">
        <ele>327.9</ele>
        <time>2022-09-21T17:01:59+02:00</time>
      </trkpt>
      <trkpt lat="44.05709" lon="2.91484">
        <ele>329</ele>
        <time>2022-09-21T17:02:04+02:00</time>
      </trkpt>
      <trkpt lat="44.05669" lon="2.91441">
        <ele>327.5</ele>
        <time>2022-09-21T17:02:14+02:00</time>
      </trkpt>
      <trkpt lat="44.05645" lon="2.91416">
        <ele>327.2</ele>
        <time>2022-09-21T17:02:19+02:00</time>
      </trkpt>
      <trkpt lat="44.05623" lon="2.91388">
        <ele>326.9</ele>
        <time>2022-09-21T17:02:24+02:00</time>
      </trkpt>
      <trkpt lat="44.05603" lon="2.91357">
        <ele>325.5</ele>
        <time>2022-09-21T17:02:29+02:00</time>
      </trkpt>
      <trkpt lat="44.05583" lon="2.91326">
        <ele>323.2</ele>
        <time>2022-09-21T17:02:34+02:00</time>
      </trkpt>
      <trkpt lat="44.05569" lon="2.91294">
        <ele>324.4</ele>
        <time>2022-09-21T17:02:39+02:00</time>
      </trkpt>
      <trkpt lat="44.05555" lon="2.91263">
        <ele>325</ele>
        <time>2022-09-21T17:02:44+02:00</time>
      </trkpt>
      <trkpt lat="44.05542" lon="2.91233">
        <ele>325</ele>
        <time>2022-09-21T17:02:49+02:00</time>
      </trkpt>
      <trkpt lat="44.05531" lon="2.91201">
        <ele>324.5</ele>
        <time>2022-09-21T17:02:54+02:00</time>
      </trkpt>
      <trkpt lat="44.0552" lon="2.91169">
        <ele>323.5</ele>
        <time>2022-09-21T17:02:59+02:00</time>
      </trkpt>
      <trkpt lat="44.05511" lon="2.91138">
        <ele>323.5</ele>
        <time>2022-09-21T17:03:04+02:00</time>
      </trkpt>
      <trkpt lat="44.05502" lon="2.91105">
        <ele>323.6</ele>
        <time>2022-09-21T17:03:09+02:00</time>
      </trkpt>
      <trkpt lat="44.05501" lon="2.91069">
        <ele>324.1</ele>
        <time>2022-09-21T17:03:14+02:00</time>
      </trkpt>
      <trkpt lat="44.05511" lon="2.91037">
        <ele>324.6</ele>
        <time>2022-09-21T17:03:19+02:00</time>
      </trkpt>
      <trkpt lat="44.0552" lon="2.91003">
        <ele>325</ele>
        <time>2022-09-21T17:03:24+02:00</time>
      </trkpt>
      <trkpt lat="44.05531" lon="2.90969">
        <ele>325.8</ele>
        <time>2022-09-21T17:03:29+02:00</time>
      </trkpt>
      <trkpt lat="44.05546" lon="2.90939">
        <ele>326</ele>
        <time>2022-09-21T17:03:34+02:00</time>
      </trkpt>
      <trkpt lat="44.05559" lon="2.90914">
        <ele>325.6</ele>
        <time>2022-09-21T17:03:39+02:00</time>
      </trkpt>
      <trkpt lat="44.05573" lon="2.90887">
        <ele>325.3</ele>
        <time>2022-09-21T17:03:44+02:00</time>
      </trkpt>
      <trkpt lat="44.05597" lon="2.90848">
        <ele>324.5</ele>
        <time>2022-09-21T17:03:54+02:00</time>
      </trkpt>
      <trkpt lat="44.05617" lon="2.90821">
        <ele>324.9</ele>
        <time>2022-09-21T17:04:00+02:00</time>
      </trkpt>
      <trkpt lat="44.0564" lon="2.908">
        <ele>325</ele>
        <time>2022-09-21T17:04:05+02:00</time>
      </trkpt>
      <trkpt lat="44.05667" lon="2.90779">
        <ele>323.7</ele>
        <time>2022-09-21T17:04:12+02:00</time>
      </trkpt>
      <trkpt lat="44.05684" lon="2.90757">
        <ele>323.9</ele>
        <time>2022-09-21T17:04:20+02:00</time>
      </trkpt>
      <trkpt lat="44.05707" lon="2.9073">
        <ele>324.7</ele>
        <time>2022-09-21T17:04:27+02:00</time>
      </trkpt>
      <trkpt lat="44.05733" lon="2.90724">
        <ele>325</ele>
        <time>2022-09-21T17:05:40+02:00</time>
      </trkpt>
      <trkpt lat="44.05753" lon="2.90689">
        <ele>324.2</ele>
        <time>2022-09-21T17:05:49+02:00</time>
      </trkpt>
      <trkpt lat="44.05764" lon="2.90658">
        <ele>324.8</ele>
        <time>2022-09-21T17:05:51+02:00</time>
      </trkpt>
      <trkpt lat="44.05786" lon="2.90599">
        <ele>328</ele>
        <time>2022-09-21T17:05:57+02:00</time>
      </trkpt>
      <trkpt lat="44.05806" lon="2.90547">
        <ele>331.2</ele>
        <time>2022-09-21T17:06:02+02:00</time>
      </trkpt>
      <trkpt lat="44.05817" lon="2.90516">
        <ele>331.8</ele>
        <time>2022-09-21T17:06:05+02:00</time>
      </trkpt>
      <trkpt lat="44.05832" lon="2.90459">
        <ele>331.3</ele>
        <time>2022-09-21T17:06:10+02:00</time>
      </trkpt>
      <trkpt lat="44.0584" lon="2.90425">
        <ele>331.6</ele>
        <time>2022-09-21T17:06:15+02:00</time>
      </trkpt>
      <trkpt lat="44.05849" lon="2.90395">
        <ele>332.1</ele>
        <time>2022-09-21T17:06:19+02:00</time>
      </trkpt>
      <trkpt lat="44.05858" lon="2.90359">
        <ele>332.2</ele>
        <time>2022-09-21T17:06:24+02:00</time>
      </trkpt>
      <trkpt lat="44.05867" lon="2.9033">
        <ele>331.5</ele>
        <time>2022-09-21T17:06:32+02:00</time>
      </trkpt>
      <trkpt lat="44.05875" lon="2.90297">
        <ele>329.8</ele>
        <time>2022-09-21T17:06:38+02:00</time>
      </trkpt>
      <trkpt lat="44.0588" lon="2.90263">
        <ele>328.4</ele>
        <time>2022-09-21T17:06:47+02:00</time>
      </trkpt>
      <trkpt lat="44.05901" lon="2.90209">
        <ele>324.3</ele>
        <time>2022-09-21T17:35:31+02:00</time>
      </trkpt>
      <trkpt lat="44.05898" lon="2.90171">
        <ele>324.2</ele>
        <time>2022-09-21T17:35:51+02:00</time>
      </trkpt>
      <trkpt lat="44.05887" lon="2.9014">
        <ele>325.4</ele>
        <time>2022-09-21T17:35:56+02:00</time>
      </trkpt>
      <trkpt lat="44.0587" lon="2.90105">
        <ele>325.8</ele>
        <time>2022-09-21T17:36:03+02:00</time>
      </trkpt>
      <trkpt lat="44.05864" lon="2.90074">
        <ele>326</ele>
        <time>2022-09-21T17:36:11+02:00</time>
      </trkpt>
      <trkpt lat="44.05849" lon="2.90043">
        <ele>326.4</ele>
        <time>2022-09-21T17:36:16+02:00</time>
      </trkpt>
      <trkpt lat="44.05839" lon="2.90014">
        <ele>326.3</ele>
        <time>2022-09-21T17:36:22+02:00</time>
      </trkpt>
      <trkpt lat="44.05828" lon="2.89979">
        <ele>327.2</ele>
        <time>2022-09-21T17:36:28+02:00</time>
      </trkpt>
      <trkpt lat="44.05803" lon="2.89943">
        <ele>328.3</ele>
        <time>2022-09-21T17:36:35+02:00</time>
      </trkpt>
      <trkpt lat="44.05782" lon="2.89919">
        <ele>327.9</ele>
        <time>2022-09-21T17:36:42+02:00</time>
      </trkpt>
      <trkpt lat="44.05763" lon="2.89891">
        <ele>330.8</ele>
        <time>2022-09-21T17:36:49+02:00</time>
      </trkpt>
      <trkpt lat="44.05743" lon="2.89875">
        <ele>330.5</ele>
        <time>2022-09-21T17:36:54+02:00</time>
      </trkpt>
      <trkpt lat="44.05721" lon="2.89851">
        <ele>330.9</ele>
        <time>2022-09-21T17:37:01+02:00</time>
      </trkpt>
      <trkpt lat="44.05697" lon="2.89834">
        <ele>329</ele>
        <time>2022-09-21T17:37:06+02:00</time>
      </trkpt>
      <trkpt lat="44.05675" lon="2.8982">
        <ele>330</ele>
        <time>2022-09-21T17:37:12+02:00</time>
      </trkpt>
      <trkpt lat="44.05644" lon="2.898">
        <ele>332.7</ele>
        <time>2022-09-21T17:37:20+02:00</time>
      </trkpt>
      <trkpt lat="44.05621" lon="2.89792">
        <ele>332.5</ele>
        <time>2022-09-21T17:37:27+02:00</time>
      </trkpt>
      <trkpt lat="44.056" lon="2.89775">
        <ele>333.8</ele>
        <time>2022-09-21T17:37:32+02:00</time>
      </trkpt>
      <trkpt lat="44.05566" lon="2.89765">
        <ele>332.1</ele>
        <time>2022-09-21T17:37:39+02:00</time>
      </trkpt>
      <trkpt lat="44.05535" lon="2.8976">
        <ele>330.2</ele>
        <time>2022-09-21T17:37:46+02:00</time>
      </trkpt>
      <trkpt lat="44.05508" lon="2.89747">
        <ele>329.5</ele>
        <time>2022-09-21T17:37:53+02:00</time>
      </trkpt>
      <trkpt lat="44.05474" lon="2.89731">
        <ele>330.7</ele>
        <time>2022-09-21T17:38:01+02:00</time>
      </trkpt>
      <trkpt lat="44.05442" lon="2.89711">
        <ele>330.1</ele>
        <time>2022-09-21T17:38:09+02:00</time>
      </trkpt>
      <trkpt lat="44.05408" lon="2.89688">
        <ele>327.5</ele>
        <time>2022-09-21T17:38:19+02:00</time>
      </trkpt>
      <trkpt lat="44.05389" lon="2.8967">
        <ele>327.6</ele>
        <time>2022-09-21T17:38:24+02:00</time>
      </trkpt>
      <trkpt lat="44.0536" lon="2.89658">
        <ele>328</ele>
        <time>2022-09-21T17:38:33+02:00</time>
      </trkpt>
      <trkpt lat="44.05343" lon="2.89632">
        <ele>328.1</ele>
        <time>2022-09-21T17:38:38+02:00</time>
      </trkpt>
      <trkpt lat="44.05326" lon="2.89611">
        <ele>327.6</ele>
        <time>2022-09-21T17:38:45+02:00</time>
      </trkpt>
      <trkpt lat="44.05307" lon="2.89592">
        <ele>329</ele>
        <time>2022-09-21T17:39:43+02:00</time>
      </trkpt>
      <trkpt lat="44.05284" lon="2.8956">
        <ele>331.7</ele>
        <time>2022-09-21T17:39:51+02:00</time>
      </trkpt>
      <trkpt lat="44.05264" lon="2.89533">
        <ele>333.4</ele>
        <time>2022-09-21T17:39:59+02:00</time>
      </trkpt>
      <trkpt lat="44.05246" lon="2.89512">
        <ele>334.5</ele>
        <time>2022-09-21T17:40:06+02:00</time>
      </trkpt>
      <trkpt lat="44.05239" lon="2.89483">
        <ele>335.9</ele>
        <time>2022-09-21T17:40:11+02:00</time>
      </trkpt>
      <trkpt lat="44.05231" lon="2.89444">
        <ele>337.3</ele>
        <time>2022-09-21T17:40:17+02:00</time>
      </trkpt>
      <trkpt lat="44.05221" lon="2.89415">
        <ele>338.8</ele>
        <time>2022-09-21T17:40:22+02:00</time>
      </trkpt>
      <trkpt lat="44.05204" lon="2.8937">
        <ele>338.7</ele>
        <time>2022-09-21T17:40:34+02:00</time>
      </trkpt>
      <trkpt lat="44.05191" lon="2.89326">
        <ele>337.5</ele>
        <time>2022-09-21T17:41:01+02:00</time>
      </trkpt>
      <trkpt lat="44.05179" lon="2.89289">
        <ele>334.8</ele>
        <time>2022-09-21T17:41:08+02:00</time>
      </trkpt>
      <trkpt lat="44.05166" lon="2.8925">
        <ele>329</ele>
        <time>2022-09-21T17:41:16+02:00</time>
      </trkpt>
      <trkpt lat="44.05147" lon="2.8921">
        <ele>328.9</ele>
        <time>2022-09-21T17:41:26+02:00</time>
      </trkpt>
      <trkpt lat="44.05135" lon="2.89178">
        <ele>327.8</ele>
        <time>2022-09-21T17:41:30+02:00</time>
      </trkpt>
      <trkpt lat="44.05121" lon="2.8915">
        <ele>328.2</ele>
        <time>2022-09-21T17:41:35+02:00</time>
      </trkpt>
      <trkpt lat="44.05104" lon="2.89127">
        <ele>327.4</ele>
        <time>2022-09-21T17:41:41+02:00</time>
      </trkpt>
      <trkpt lat="44.05082" lon="2.89091">
        <ele>323.1</ele>
        <time>2022-09-21T17:41:47+02:00</time>
      </trkpt>
      <trkpt lat="44.05054" lon="2.89053">
        <ele>325.2</ele>
        <time>2022-09-21T17:41:57+02:00</time>
      </trkpt>
      <trkpt lat="44.05034" lon="2.89029">
        <ele>325.1</ele>
        <time>2022-09-21T17:42:04+02:00</time>
      </trkpt>
      <trkpt lat="44.0501" lon="2.88991">
        <ele>323.8</ele>
        <time>2022-09-21T17:42:12+02:00</time>
      </trkpt>
      <trkpt lat="44.04991" lon="2.88966">
        <ele>323.1</ele>
        <time>2022-09-21T17:42:17+02:00</time>
      </trkpt>
      <trkpt lat="44.04972" lon="2.88938">
        <ele>323.5</ele>
        <time>2022-09-21T17:42:24+02:00</time>
      </trkpt>
      <trkpt lat="44.04935" lon="2.88874">
        <ele>322.8</ele>
        <time>2022-09-21T17:42:34+02:00</time>
      </trkpt>
      <trkpt lat="44.04921" lon="2.88841">
        <ele>321.7</ele>
        <time>2022-09-21T17:42:39+02:00</time>
      </trkpt>
      <trkpt lat="44.04906" lon="2.88806">
        <ele>320.7</ele>
        <time>2022-09-21T17:42:43+02:00</time>
      </trkpt>
      <trkpt lat="44.04896" lon="2.88768">
        <ele>319.9</ele>
        <time>2022-09-21T17:42:48+02:00</time>
      </trkpt>
      <trkpt lat="44.04894" lon="2.88728">
        <ele>319.9</ele>
        <time>2022-09-21T17:42:54+02:00</time>
      </trkpt>
      <trkpt lat="44.04895" lon="2.88693">
        <ele>320.8</ele>
        <time>2022-09-21T17:42:59+02:00</time>
      </trkpt>
      <trkpt lat="44.04897" lon="2.88649">
        <ele>321.8</ele>
        <time>2022-09-21T17:43:09+02:00</time>
      </trkpt>
      <trkpt lat="44.04894" lon="2.88611">
        <ele>322.5</ele>
        <time>2022-09-21T17:43:15+02:00</time>
      </trkpt>
      <trkpt lat="44.04896" lon="2.88576">
        <ele>323.1</ele>
        <time>2022-09-21T17:43:21+02:00</time>
      </trkpt>
      <trkpt lat="44.04898" lon="2.88538">
        <ele>323.8</ele>
        <time>2022-09-21T17:43:28+02:00</time>
      </trkpt>
      <trkpt lat="44.04911" lon="2.88469">
        <ele>324.6</ele>
        <time>2022-09-21T17:43:39+02:00</time>
      </trkpt>
      <trkpt lat="44.04939" lon="2.88411">
        <ele>324.4</ele>
        <time>2022-09-21T17:43:49+02:00</time>
      </trkpt>
      <trkpt lat="44.04957" lon="2.88387">
        <ele>324.3</ele>
        <time>2022-09-21T17:43:54+02:00</time>
      </trkpt>
      <trkpt lat="44.04976" lon="2.88367">
        <ele>324.2</ele>
        <time>2022-09-21T17:43:59+02:00</time>
      </trkpt>
      <trkpt lat="44.04996" lon="2.88347">
        <ele>324.2</ele>
        <time>2022-09-21T17:44:04+02:00</time>
      </trkpt>
      <trkpt lat="44.05016" lon="2.88327">
        <ele>324.5</ele>
        <time>2022-09-21T17:44:09+02:00</time>
      </trkpt>
      <trkpt lat="44.05037" lon="2.88308">
        <ele>324.6</ele>
        <time>2022-09-21T17:44:14+02:00</time>
      </trkpt>
      <trkpt lat="44.05059" lon="2.88291">
        <ele>324.8</ele>
        <time>2022-09-21T17:44:18+02:00</time>
      </trkpt>
      <trkpt lat="44.05081" lon="2.88274">
        <ele>325</ele>
        <time>2022-09-21T17:44:24+02:00</time>
      </trkpt>
      <trkpt lat="44.05103" lon="2.88261">
        <ele>324.4</ele>
        <time>2022-09-21T17:44:29+02:00</time>
      </trkpt>
      <trkpt lat="44.05124" lon="2.88249">
        <ele>323.5</ele>
        <time>2022-09-21T17:44:34+02:00</time>
      </trkpt>
      <trkpt lat="44.05158" lon="2.88235">
        <ele>322.9</ele>
        <time>2022-09-21T17:44:44+02:00</time>
      </trkpt>
      <trkpt lat="44.05191" lon="2.88225">
        <ele>323.7</ele>
        <time>2022-09-21T17:44:51+02:00</time>
      </trkpt>
      <trkpt lat="44.05213" lon="2.88213">
        <ele>324.1</ele>
        <time>2022-09-21T17:44:55+02:00</time>
      </trkpt>
      <trkpt lat="44.05234" lon="2.88202">
        <ele>324.1</ele>
        <time>2022-09-21T17:45:00+02:00</time>
      </trkpt>
      <trkpt lat="44.05264" lon="2.8819">
        <ele>324.1</ele>
        <time>2022-09-21T17:45:07+02:00</time>
      </trkpt>
      <trkpt lat="44.05312" lon="2.88155">
        <ele>322.6</ele>
        <time>2022-09-21T17:45:19+02:00</time>
      </trkpt>
      <trkpt lat="44.05332" lon="2.88137">
        <ele>322</ele>
        <time>2022-09-21T17:45:24+02:00</time>
      </trkpt>
      <trkpt lat="44.05354" lon="2.88118">
        <ele>323</ele>
        <time>2022-09-21T17:45:29+02:00</time>
      </trkpt>
      <trkpt lat="44.05375" lon="2.88098">
        <ele>323.1</ele>
        <time>2022-09-21T17:45:34+02:00</time>
      </trkpt>
      <trkpt lat="44.05396" lon="2.88076">
        <ele>323</ele>
        <time>2022-09-21T17:45:39+02:00</time>
      </trkpt>
      <trkpt lat="44.05415" lon="2.88051">
        <ele>323.5</ele>
        <time>2022-09-21T17:45:44+02:00</time>
      </trkpt>
      <trkpt lat="44.05432" lon="2.88023">
        <ele>324.4</ele>
        <time>2022-09-21T17:45:49+02:00</time>
      </trkpt>
      <trkpt lat="44.05448" lon="2.87994">
        <ele>323.9</ele>
        <time>2022-09-21T17:45:54+02:00</time>
      </trkpt>
      <trkpt lat="44.05463" lon="2.87964">
        <ele>323.1</ele>
        <time>2022-09-21T17:45:59+02:00</time>
      </trkpt>
      <trkpt lat="44.05476" lon="2.87934">
        <ele>321.9</ele>
        <time>2022-09-21T17:46:04+02:00</time>
      </trkpt>
      <trkpt lat="44.05487" lon="2.87899">
        <ele>322</ele>
        <time>2022-09-21T17:46:09+02:00</time>
      </trkpt>
      <trkpt lat="44.05497" lon="2.87868">
        <ele>323.9</ele>
        <time>2022-09-21T17:46:14+02:00</time>
      </trkpt>
      <trkpt lat="44.05509" lon="2.87819">
        <ele>326.8</ele>
        <time>2022-09-21T17:46:23+02:00</time>
      </trkpt>
      <trkpt lat="44.05522" lon="2.87763">
        <ele>326.8</ele>
        <time>2022-09-21T17:46:32+02:00</time>
      </trkpt>
      <trkpt lat="44.05526" lon="2.87727">
        <ele>326.5</ele>
        <time>2022-09-21T17:46:37+02:00</time>
      </trkpt>
      <trkpt lat="44.05534" lon="2.87691">
        <ele>326.5</ele>
        <time>2022-09-21T17:46:44+02:00</time>
      </trkpt>
      <trkpt lat="44.05541" lon="2.87642">
        <ele>326</ele>
        <time>2022-09-21T17:46:51+02:00</time>
      </trkpt>
      <trkpt lat="44.05548" lon="2.87611">
        <ele>325.4</ele>
        <time>2022-09-21T17:46:56+02:00</time>
      </trkpt>
      <trkpt lat="44.05557" lon="2.87573">
        <ele>324.2</ele>
        <time>2022-09-21T17:47:03+02:00</time>
      </trkpt>
      <trkpt lat="44.05573" lon="2.87529">
        <ele>322.2</ele>
        <time>2022-09-21T17:47:11+02:00</time>
      </trkpt>
      <trkpt lat="44.05586" lon="2.87495">
        <ele>320.6</ele>
        <time>2022-09-21T17:47:18+02:00</time>
      </trkpt>
      <trkpt lat="44.05598" lon="2.87463">
        <ele>322.2</ele>
        <time>2022-09-21T17:47:25+02:00</time>
      </trkpt>
      <trkpt lat="44.0561" lon="2.87429">
        <ele>322.2</ele>
        <time>2022-09-21T17:47:33+02:00</time>
      </trkpt>
      <trkpt lat="44.05619" lon="2.87397">
        <ele>322.2</ele>
        <time>2022-09-21T17:47:40+02:00</time>
      </trkpt>
      <trkpt lat="44.05632" lon="2.87366">
        <ele>322.6</ele>
        <time>2022-09-21T17:47:48+02:00</time>
      </trkpt>
      <trkpt lat="44.0564" lon="2.87336">
        <ele>322.4</ele>
        <time>2022-09-21T17:47:54+02:00</time>
      </trkpt>
      <trkpt lat="44.05654" lon="2.87309">
        <ele>322.6</ele>
        <time>2022-09-21T17:48:01+02:00</time>
      </trkpt>
      <trkpt lat="44.0567" lon="2.87283">
        <ele>323.1</ele>
        <time>2022-09-21T17:48:10+02:00</time>
      </trkpt>
      <trkpt lat="44.05695" lon="2.87246">
        <ele>325.2</ele>
        <time>2022-09-21T17:48:21+02:00</time>
      </trkpt>
      <trkpt lat="44.05711" lon="2.87219">
        <ele>324.8</ele>
        <time>2022-09-21T17:48:28+02:00</time>
      </trkpt>
      <trkpt lat="44.05727" lon="2.87188">
        <ele>323.3</ele>
        <time>2022-09-21T17:48:37+02:00</time>
      </trkpt>
      <trkpt lat="44.05742" lon="2.87158">
        <ele>321.8</ele>
        <time>2022-09-21T17:48:45+02:00</time>
      </trkpt>
      <trkpt lat="44.05759" lon="2.87134">
        <ele>322.8</ele>
        <time>2022-09-21T17:48:54+02:00</time>
      </trkpt>
      <trkpt lat="44.05772" lon="2.87105">
        <ele>323.4</ele>
        <time>2022-09-21T17:49:03+02:00</time>
      </trkpt>
      <trkpt lat="44.05829" lon="2.87086">
        <ele>327</ele>
        <time>2022-09-21T17:49:56+02:00</time>
      </trkpt>
      <trkpt lat="44.05864" lon="2.8708">
        <ele>327.5</ele>
        <time>2022-09-21T17:50:01+02:00</time>
      </trkpt>
      <trkpt lat="44.05898" lon="2.87085">
        <ele>328.9</ele>
        <time>2022-09-21T17:50:05+02:00</time>
      </trkpt>
      <trkpt lat="44.05913" lon="2.87045">
        <ele>325.7</ele>
        <time>2022-09-21T17:50:10+02:00</time>
      </trkpt>
      <trkpt lat="44.05911" lon="2.86996">
        <ele>322.1</ele>
        <time>2022-09-21T17:50:15+02:00</time>
      </trkpt>
      <trkpt lat="44.05889" lon="2.86977">
        <ele>322.4</ele>
        <time>2022-09-21T17:50:21+02:00</time>
      </trkpt>
      <trkpt lat="44.05856" lon="2.86982">
        <ele>320.9</ele>
        <time>2022-09-21T17:50:25+02:00</time>
      </trkpt>
      <trkpt lat="44.05828" lon="2.86967">
        <ele>320.1</ele>
        <time>2022-09-21T17:50:31+02:00</time>
      </trkpt>
      <trkpt lat="44.05804" lon="2.86952">
        <ele>320.5</ele>
        <time>2022-09-21T17:50:36+02:00</time>
      </trkpt>
      <trkpt lat="44.05783" lon="2.86938">
        <ele>320.8</ele>
        <time>2022-09-21T17:50:41+02:00</time>
      </trkpt>
      <trkpt lat="44.05779" lon="2.86903">
        <ele>320.5</ele>
        <time>2022-09-21T17:50:51+02:00</time>
      </trkpt>
      <trkpt lat="44.0579" lon="2.86867">
        <ele>319.9</ele>
        <time>2022-09-21T17:50:57+02:00</time>
      </trkpt>
      <trkpt lat="44.05799" lon="2.86826">
        <ele>320.2</ele>
        <time>2022-09-21T17:51:02+02:00</time>
      </trkpt>
      <trkpt lat="44.05843" lon="2.86758">
        <ele>322.9</ele>
        <time>2022-09-21T17:51:16+02:00</time>
      </trkpt>
      <trkpt lat="44.05868" lon="2.86743">
        <ele>324.1</ele>
        <time>2022-09-21T17:51:26+02:00</time>
      </trkpt>
      <trkpt lat="44.05892" lon="2.86728">
        <ele>324.8</ele>
        <time>2022-09-21T17:51:33+02:00</time>
      </trkpt>
      <trkpt lat="44.0591" lon="2.86702">
        <ele>324.6</ele>
        <time>2022-09-21T17:51:43+02:00</time>
      </trkpt>
      <trkpt lat="44.05929" lon="2.8668">
        <ele>324.9</ele>
        <time>2022-09-21T17:51:56+02:00</time>
      </trkpt>
      <trkpt lat="44.05948" lon="2.86661">
        <ele>325.9</ele>
        <time>2022-09-21T17:52:08+02:00</time>
      </trkpt>
      <trkpt lat="44.05973" lon="2.86646">
        <ele>327.3</ele>
        <time>2022-09-21T17:52:24+02:00</time>
      </trkpt>
      <trkpt lat="44.05997" lon="2.86634">
        <ele>327.6</ele>
        <time>2022-09-21T17:52:41+02:00</time>
      </trkpt>
      <trkpt lat="44.06019" lon="2.86619">
        <ele>329.4</ele>
        <time>2022-09-21T17:52:59+02:00</time>
      </trkpt>
      <trkpt lat="44.0604" lon="2.86606">
        <ele>330.4</ele>
        <time>2022-09-21T17:53:15+02:00</time>
      </trkpt>
      <trkpt lat="44.06061" lon="2.86592">
        <ele>330.3</ele>
        <time>2022-09-21T17:53:30+02:00</time>
      </trkpt>
      <trkpt lat="44.06082" lon="2.86577">
        <ele>329.8</ele>
        <time>2022-09-21T17:53:45+02:00</time>
      </trkpt>
      <trkpt lat="44.061" lon="2.86557">
        <ele>333.2</ele>
        <time>2022-09-21T17:54:01+02:00</time>
      </trkpt>
      <trkpt lat="44.06118" lon="2.86533">
        <ele>334.8</ele>
        <time>2022-09-21T17:54:17+02:00</time>
      </trkpt>
      <trkpt lat="44.06134" lon="2.86505">
        <ele>333.6</ele>
        <time>2022-09-21T17:54:34+02:00</time>
      </trkpt>
      <trkpt lat="44.06147" lon="2.86478">
        <ele>334.7</ele>
        <time>2022-09-21T17:54:49+02:00</time>
      </trkpt>
      <trkpt lat="44.0616" lon="2.86451">
        <ele>334.2</ele>
        <time>2022-09-21T17:55:05+02:00</time>
      </trkpt>
      <trkpt lat="44.06178" lon="2.86432">
        <ele>335.7</ele>
        <time>2022-09-21T17:55:21+02:00</time>
      </trkpt>
      <trkpt lat="44.062" lon="2.86425">
        <ele>340.6</ele>
        <time>2022-09-21T17:55:36+02:00</time>
      </trkpt>
      <trkpt lat="44.06225" lon="2.86422">
        <ele>346.2</ele>
        <time>2022-09-21T17:55:50+02:00</time>
      </trkpt>
      <trkpt lat="44.06249" lon="2.86422">
        <ele>351.9</ele>
        <time>2022-09-21T17:56:05+02:00</time>
      </trkpt>
      <trkpt lat="44.06274" lon="2.86418">
        <ele>357.1</ele>
        <time>2022-09-21T17:56:18+02:00</time>
      </trkpt>
      <trkpt lat="44.06306" lon="2.8642">
        <ele>365.3</ele>
        <time>2022-09-21T17:56:33+02:00</time>
      </trkpt>
      <trkpt lat="44.06327" lon="2.86397">
        <ele>362.9</ele>
        <time>2022-09-21T17:56:45+02:00</time>
      </trkpt>
      <trkpt lat="44.06344" lon="2.86361">
        <ele>354.3</ele>
        <time>2022-09-21T17:56:58+02:00</time>
      </trkpt>
      <trkpt lat="44.06364" lon="2.86333">
        <ele>350</ele>
        <time>2022-09-21T17:57:08+02:00</time>
      </trkpt>
      <trkpt lat="44.06385" lon="2.86309">
        <ele>349.6</ele>
        <time>2022-09-21T17:57:20+02:00</time>
      </trkpt>
      <trkpt lat="44.06411" lon="2.86298">
        <ele>352.6</ele>
        <time>2022-09-21T17:57:33+02:00</time>
      </trkpt>
      <trkpt lat="44.06434" lon="2.86295">
        <ele>357.8</ele>
        <time>2022-09-21T17:57:43+02:00</time>
      </trkpt>
      <trkpt lat="44.06462" lon="2.86297">
        <ele>366.2</ele>
        <time>2022-09-21T17:57:55+02:00</time>
      </trkpt>
      <trkpt lat="44.06487" lon="2.86302">
        <ele>374.8</ele>
        <time>2022-09-21T17:58:06+02:00</time>
      </trkpt>
      <trkpt lat="44.06514" lon="2.86308">
        <ele>382.1</ele>
        <time>2022-09-21T17:58:18+02:00</time>
      </trkpt>
      <trkpt lat="44.0654" lon="2.86306">
        <ele>384.4</ele>
        <time>2022-09-21T17:58:31+02:00</time>
      </trkpt>
      <trkpt lat="44.06552" lon="2.86276">
        <ele>378.2</ele>
        <time>2022-09-21T17:58:38+02:00</time>
      </trkpt>
      <trkpt lat="44.06552" lon="2.86245">
        <ele>371.6</ele>
        <time>2022-09-21T17:58:48+02:00</time>
      </trkpt>
      <trkpt lat="44.06541" lon="2.86214">
        <ele>368.2</ele>
        <time>2022-09-21T17:58:58+02:00</time>
      </trkpt>
      <trkpt lat="44.06522" lon="2.86191">
        <ele>361.2</ele>
        <time>2022-09-21T17:59:09+02:00</time>
      </trkpt>
      <trkpt lat="44.06507" lon="2.86158">
        <ele>352.3</ele>
        <time>2022-09-21T17:59:21+02:00</time>
      </trkpt>
      <trkpt lat="44.06513" lon="2.86126">
        <ele>349.4</ele>
        <time>2022-09-21T17:59:32+02:00</time>
      </trkpt>
      <trkpt lat="44.06492" lon="2.8614">
        <ele>345.2</ele>
        <time>2022-09-21T18:00:23+02:00</time>
      </trkpt>
      <trkpt lat="44.06515" lon="2.86127">
        <ele>350.3</ele>
        <time>2022-09-21T18:01:25+02:00</time>
      </trkpt>
      <trkpt lat="44.06538" lon="2.86109">
        <ele>355.6</ele>
        <time>2022-09-21T18:01:44+02:00</time>
      </trkpt>
      <trkpt lat="44.06563" lon="2.86094">
        <ele>361.9</ele>
        <time>2022-09-21T18:01:53+02:00</time>
      </trkpt>
      <trkpt lat="44.06589" lon="2.86082">
        <ele>368.4</ele>
        <time>2022-09-21T18:02:02+02:00</time>
      </trkpt>
      <trkpt lat="44.06614" lon="2.86064">
        <ele>371.4</ele>
        <time>2022-09-21T18:02:11+02:00</time>
      </trkpt>
      <trkpt lat="44.06637" lon="2.8604">
        <ele>372.4</ele>
        <time>2022-09-21T18:02:19+02:00</time>
      </trkpt>
      <trkpt lat="44.06647" lon="2.86005">
        <ele>366.3</ele>
        <time>2022-09-21T18:02:28+02:00</time>
      </trkpt>
      <trkpt lat="44.06642" lon="2.8597">
        <ele>360.9</ele>
        <time>2022-09-21T18:02:36+02:00</time>
      </trkpt>
      <trkpt lat="44.06638" lon="2.85938">
        <ele>356.9</ele>
        <time>2022-09-21T18:02:46+02:00</time>
      </trkpt>
      <trkpt lat="44.06639" lon="2.85905">
        <ele>355.7</ele>
        <time>2022-09-21T18:02:58+02:00</time>
      </trkpt>
      <trkpt lat="44.06646" lon="2.85868">
        <ele>358.8</ele>
        <time>2022-09-21T18:03:14+02:00</time>
      </trkpt>
      <trkpt lat="44.06645" lon="2.85829">
        <ele>358.7</ele>
        <time>2022-09-21T18:03:26+02:00</time>
      </trkpt>
      <trkpt lat="44.06643" lon="2.8579">
        <ele>360.2</ele>
        <time>2022-09-21T18:03:37+02:00</time>
      </trkpt>
      <trkpt lat="44.06643" lon="2.85753">
        <ele>362.6</ele>
        <time>2022-09-21T18:03:51+02:00</time>
      </trkpt>
      <trkpt lat="44.06639" lon="2.85719">
        <ele>360.6</ele>
        <time>2022-09-21T18:04:04+02:00</time>
      </trkpt>
      <trkpt lat="44.06638" lon="2.8568">
        <ele>359.9</ele>
        <time>2022-09-21T18:04:16+02:00</time>
      </trkpt>
      <trkpt lat="44.06646" lon="2.85647">
        <ele>363.5</ele>
        <time>2022-09-21T18:04:28+02:00</time>
      </trkpt>
      <trkpt lat="44.06653" lon="2.85616">
        <ele>366.3</ele>
        <time>2022-09-21T18:04:38+02:00</time>
      </trkpt>
      <trkpt lat="44.0665" lon="2.85574">
        <ele>363.9</ele>
        <time>2022-09-21T18:04:51+02:00</time>
      </trkpt>
      <trkpt lat="44.06647" lon="2.85538">
        <ele>361.4</ele>
        <time>2022-09-21T18:05:01+02:00</time>
      </trkpt>
      <trkpt lat="44.06649" lon="2.85501">
        <ele>361.2</ele>
        <time>2022-09-21T18:05:10+02:00</time>
      </trkpt>
      <trkpt lat="44.06656" lon="2.85465">
        <ele>359.1</ele>
        <time>2022-09-21T18:05:18+02:00</time>
      </trkpt>
      <trkpt lat="44.06671" lon="2.85428">
        <ele>359.8</ele>
        <time>2022-09-21T18:05:25+02:00</time>
      </trkpt>
      <trkpt lat="44.06688" lon="2.85368">
        <ele>361.1</ele>
        <time>2022-09-21T18:05:33+02:00</time>
      </trkpt>
      <trkpt lat="44.06697" lon="2.85331">
        <ele>360.3</ele>
        <time>2022-09-21T18:05:38+02:00</time>
      </trkpt>
      <trkpt lat="44.06706" lon="2.85292">
        <ele>360.5</ele>
        <time>2022-09-21T18:05:43+02:00</time>
      </trkpt>
      <trkpt lat="44.06716" lon="2.8526">
        <ele>361.3</ele>
        <time>2022-09-21T18:05:49+02:00</time>
      </trkpt>
      <trkpt lat="44.06749" lon="2.85201">
        <ele>364.8</ele>
        <time>2022-09-21T18:05:58+02:00</time>
      </trkpt>
      <trkpt lat="44.06768" lon="2.85171">
        <ele>365.5</ele>
        <time>2022-09-21T18:06:04+02:00</time>
      </trkpt>
      <trkpt lat="44.06814" lon="2.85128">
        <ele>371.2</ele>
        <time>2022-09-21T18:06:13+02:00</time>
      </trkpt>
      <trkpt lat="44.06848" lon="2.85108">
        <ele>375.4</ele>
        <time>2022-09-21T18:06:19+02:00</time>
      </trkpt>
      <trkpt lat="44.06877" lon="2.85085">
        <ele>374.6</ele>
        <time>2022-09-21T18:06:23+02:00</time>
      </trkpt>
      <trkpt lat="44.06904" lon="2.8506">
        <ele>380.9</ele>
        <time>2022-09-21T18:06:28+02:00</time>
      </trkpt>
      <trkpt lat="44.06927" lon="2.85032">
        <ele>384.1</ele>
        <time>2022-09-21T18:06:34+02:00</time>
      </trkpt>
      <trkpt lat="44.06928" lon="2.8499">
        <ele>387.1</ele>
        <time>2022-09-21T18:06:38+02:00</time>
      </trkpt>
      <trkpt lat="44.06908" lon="2.84962">
        <ele>399.6</ele>
        <time>2022-09-21T18:06:48+02:00</time>
      </trkpt>
      <trkpt lat="44.06881" lon="2.84948">
        <ele>404</ele>
        <time>2022-09-21T18:07:01+02:00</time>
      </trkpt>
      <trkpt lat="44.06858" lon="2.8495">
        <ele>401.2</ele>
        <time>2022-09-21T18:07:13+02:00</time>
      </trkpt>
      <trkpt lat="44.06835" lon="2.84953">
        <ele>398</ele>
        <time>2022-09-21T18:07:23+02:00</time>
      </trkpt>
      <trkpt lat="44.06811" lon="2.84954">
        <ele>389.3</ele>
        <time>2022-09-21T18:07:35+02:00</time>
      </trkpt>
      <trkpt lat="44.06787" lon="2.84947">
        <ele>383</ele>
        <time>2022-09-21T18:07:50+02:00</time>
      </trkpt>
      <trkpt lat="44.06762" lon="2.84934">
        <ele>377.3</ele>
        <time>2022-09-21T18:08:10+02:00</time>
      </trkpt>
      <trkpt lat="44.06741" lon="2.84922">
        <ele>371.9</ele>
        <time>2022-09-21T18:08:24+02:00</time>
      </trkpt>
      <trkpt lat="44.06718" lon="2.84905">
        <ele>368</ele>
        <time>2022-09-21T18:08:37+02:00</time>
      </trkpt>
      <trkpt lat="44.06705" lon="2.84875">
        <ele>374.4</ele>
        <time>2022-09-21T18:08:53+02:00</time>
      </trkpt>
      <trkpt lat="44.06702" lon="2.84842">
        <ele>386.3</ele>
        <time>2022-09-21T18:09:08+02:00</time>
      </trkpt>
      <trkpt lat="44.06693" lon="2.8481">
        <ele>397.2</ele>
        <time>2022-09-21T18:09:23+02:00</time>
      </trkpt>
      <trkpt lat="44.06677" lon="2.84785">
        <ele>403.6</ele>
        <time>2022-09-21T18:09:39+02:00</time>
      </trkpt>
      <trkpt lat="44.06657" lon="2.84767">
        <ele>404.7</ele>
        <time>2022-09-21T18:09:57+02:00</time>
      </trkpt>
      <trkpt lat="44.06632" lon="2.84755">
        <ele>399.4</ele>
        <time>2022-09-21T18:10:15+02:00</time>
      </trkpt>
      <trkpt lat="44.06608" lon="2.84739">
        <ele>395.5</ele>
        <time>2022-09-21T18:10:30+02:00</time>
      </trkpt>
      <trkpt lat="44.06593" lon="2.84713">
        <ele>400</ele>
        <time>2022-09-21T18:10:45+02:00</time>
      </trkpt>
      <trkpt lat="44.06583" lon="2.84682">
        <ele>409.3</ele>
        <time>2022-09-21T18:11:01+02:00</time>
      </trkpt>
      <trkpt lat="44.06573" lon="2.84649">
        <ele>421.7</ele>
        <time>2022-09-21T18:11:18+02:00</time>
      </trkpt>
      <trkpt lat="44.06557" lon="2.84625">
        <ele>429.1</ele>
        <time>2022-09-21T18:11:34+02:00</time>
      </trkpt>
      <trkpt lat="44.06535" lon="2.84617">
        <ele>426.6</ele>
        <time>2022-09-21T18:11:53+02:00</time>
      </trkpt>
      <trkpt lat="44.06512" lon="2.84606">
        <ele>425.6</ele>
        <time>2022-09-21T18:12:11+02:00</time>
      </trkpt>
      <trkpt lat="44.06487" lon="2.84598">
        <ele>420.8</ele>
        <time>2022-09-21T18:12:29+02:00</time>
      </trkpt>
      <trkpt lat="44.06466" lon="2.84581">
        <ele>420</ele>
        <time>2022-09-21T18:12:49+02:00</time>
      </trkpt>
      <trkpt lat="44.06448" lon="2.8456">
        <ele>418.6</ele>
        <time>2022-09-21T18:13:04+02:00</time>
      </trkpt>
      <trkpt lat="44.06433" lon="2.84529">
        <ele>421.5</ele>
        <time>2022-09-21T18:13:21+02:00</time>
      </trkpt>
      <trkpt lat="44.06417" lon="2.84502">
        <ele>422.5</ele>
        <time>2022-09-21T18:13:43+02:00</time>
      </trkpt>
      <trkpt lat="44.06399" lon="2.84479">
        <ele>409.2</ele>
        <time>2022-09-21T18:14:04+02:00</time>
      </trkpt>
      <trkpt lat="44.06388" lon="2.84449">
        <ele>398.9</ele>
        <time>2022-09-21T18:14:21+02:00</time>
      </trkpt>
      <trkpt lat="44.06397" lon="2.84419">
        <ele>402.8</ele>
        <time>2022-09-21T18:14:41+02:00</time>
      </trkpt>
      <trkpt lat="44.06412" lon="2.84394">
        <ele>408.7</ele>
        <time>2022-09-21T18:14:59+02:00</time>
      </trkpt>
      <trkpt lat="44.06424" lon="2.84367">
        <ele>411</ele>
        <time>2022-09-21T18:15:19+02:00</time>
      </trkpt>
      <trkpt lat="44.06435" lon="2.84336">
        <ele>412.1</ele>
        <time>2022-09-21T18:15:36+02:00</time>
      </trkpt>
      <trkpt lat="44.06447" lon="2.84304">
        <ele>415.4</ele>
        <time>2022-09-21T18:15:56+02:00</time>
      </trkpt>
      <trkpt lat="44.06457" lon="2.84274">
        <ele>418.3</ele>
        <time>2022-09-21T18:16:13+02:00</time>
      </trkpt>
      <trkpt lat="44.06468" lon="2.84243">
        <ele>422.3</ele>
        <time>2022-09-21T18:16:29+02:00</time>
      </trkpt>
      <trkpt lat="44.0649" lon="2.84224">
        <ele>435.8</ele>
        <time>2022-09-21T18:16:51+02:00</time>
      </trkpt>
      <trkpt lat="44.06511" lon="2.84216">
        <ele>446.9</ele>
        <time>2022-09-21T18:17:08+02:00</time>
      </trkpt>
      <trkpt lat="44.06532" lon="2.842">
        <ele>453.3</ele>
        <time>2022-09-21T18:17:19+02:00</time>
      </trkpt>
      <trkpt lat="44.06546" lon="2.8416">
        <ele>451.1</ele>
        <time>2022-09-21T18:18:18+02:00</time>
      </trkpt>
      <trkpt lat="44.06562" lon="2.84119">
        <ele>447.3</ele>
        <time>2022-09-21T18:18:34+02:00</time>
      </trkpt>
      <trkpt lat="44.06572" lon="2.84073">
        <ele>441.3</ele>
        <time>2022-09-21T18:18:43+02:00</time>
      </trkpt>
      <trkpt lat="44.06577" lon="2.84008">
        <ele>435.7</ele>
        <time>2022-09-21T18:18:54+02:00</time>
      </trkpt>
      <trkpt lat="44.06578" lon="2.8397">
        <ele>432.2</ele>
        <time>2022-09-21T18:18:59+02:00</time>
      </trkpt>
      <trkpt lat="44.06589" lon="2.83938">
        <ele>436</ele>
        <time>2022-09-21T18:19:05+02:00</time>
      </trkpt>
      <trkpt lat="44.06613" lon="2.83878">
        <ele>431.9</ele>
        <time>2022-09-21T18:19:14+02:00</time>
      </trkpt>
      <trkpt lat="44.06625" lon="2.83846">
        <ele>427.6</ele>
        <time>2022-09-21T18:19:18+02:00</time>
      </trkpt>
      <trkpt lat="44.06632" lon="2.83809">
        <ele>419.7</ele>
        <time>2022-09-21T18:19:24+02:00</time>
      </trkpt>
      <trkpt lat="44.06641" lon="2.83774">
        <ele>414.6</ele>
        <time>2022-09-21T18:19:28+02:00</time>
      </trkpt>
      <trkpt lat="44.06651" lon="2.83735">
        <ele>410</ele>
        <time>2022-09-21T18:19:33+02:00</time>
      </trkpt>
      <trkpt lat="44.06665" lon="2.83701">
        <ele>410.9</ele>
        <time>2022-09-21T18:19:38+02:00</time>
      </trkpt>
      <trkpt lat="44.06685" lon="2.83679">
        <ele>415.8</ele>
        <time>2022-09-21T18:19:43+02:00</time>
      </trkpt>
      <trkpt lat="44.06711" lon="2.8367">
        <ele>426.4</ele>
        <time>2022-09-21T18:19:48+02:00</time>
      </trkpt>
      <trkpt lat="44.06745" lon="2.83667">
        <ele>442.6</ele>
        <time>2022-09-21T18:19:53+02:00</time>
      </trkpt>
      <trkpt lat="44.06774" lon="2.83662">
        <ele>446.7</ele>
        <time>2022-09-21T18:19:58+02:00</time>
      </trkpt>
      <trkpt lat="44.06798" lon="2.83641">
        <ele>442.4</ele>
        <time>2022-09-21T18:20:03+02:00</time>
      </trkpt>
      <trkpt lat="44.06811" lon="2.83612">
        <ele>433.4</ele>
        <time>2022-09-21T18:20:09+02:00</time>
      </trkpt>
      <trkpt lat="44.0681" lon="2.83565">
        <ele>417.4</ele>
        <time>2022-09-21T18:20:18+02:00</time>
      </trkpt>
      <trkpt lat="44.06809" lon="2.83516">
        <ele>403.1</ele>
        <time>2022-09-21T18:20:26+02:00</time>
      </trkpt>
      <trkpt lat="44.06802" lon="2.83449">
        <ele>389.4</ele>
        <time>2022-09-21T18:20:33+02:00</time>
      </trkpt>
      <trkpt lat="44.06794" lon="2.83409">
        <ele>380.9</ele>
        <time>2022-09-21T18:20:39+02:00</time>
      </trkpt>
      <trkpt lat="44.06783" lon="2.83371">
        <ele>375.5</ele>
        <time>2022-09-21T18:20:44+02:00</time>
      </trkpt>
      <trkpt lat="44.0678" lon="2.83337">
        <ele>374.2</ele>
        <time>2022-09-21T18:20:49+02:00</time>
      </trkpt>
      <trkpt lat="44.06838" lon="2.83285">
        <ele>395.5</ele>
        <time>2022-09-21T18:21:03+02:00</time>
      </trkpt>
      <trkpt lat="44.06857" lon="2.83264">
        <ele>395.9</ele>
        <time>2022-09-21T18:21:08+02:00</time>
      </trkpt>
      <trkpt lat="44.0688" lon="2.83242">
        <ele>394.3</ele>
        <time>2022-09-21T18:21:14+02:00</time>
      </trkpt>
      <trkpt lat="44.06904" lon="2.83221">
        <ele>391</ele>
        <time>2022-09-21T18:21:19+02:00</time>
      </trkpt>
      <trkpt lat="44.06928" lon="2.83194">
        <ele>385.1</ele>
        <time>2022-09-21T18:21:24+02:00</time>
      </trkpt>
      <trkpt lat="44.06944" lon="2.83157">
        <ele>377</ele>
        <time>2022-09-21T18:21:29+02:00</time>
      </trkpt>
      <trkpt lat="44.06952" lon="2.83128">
        <ele>375</ele>
        <time>2022-09-21T18:21:34+02:00</time>
      </trkpt>
      <trkpt lat="44.06969" lon="2.8306">
        <ele>370.6</ele>
        <time>2022-09-21T18:21:44+02:00</time>
      </trkpt>
      <trkpt lat="44.06973" lon="2.83029">
        <ele>368.3</ele>
        <time>2022-09-21T18:21:52+02:00</time>
      </trkpt>
      <trkpt lat="44.0697" lon="2.8294">
        <ele>357.5</ele>
        <time>2022-09-21T18:23:17+02:00</time>
      </trkpt>
      <trkpt lat="44.06969" lon="2.82893">
        <ele>354.5</ele>
        <time>2022-09-21T18:23:23+02:00</time>
      </trkpt>
      <trkpt lat="44.06968" lon="2.82841">
        <ele>354.2</ele>
        <time>2022-09-21T18:23:28+02:00</time>
      </trkpt>
      <trkpt lat="44.06966" lon="2.82788">
        <ele>352.5</ele>
        <time>2022-09-21T18:23:33+02:00</time>
      </trkpt>
      <trkpt lat="44.0696" lon="2.82741">
        <ele>349.9</ele>
        <time>2022-09-21T18:23:37+02:00</time>
      </trkpt>
      <trkpt lat="44.06949" lon="2.82698">
        <ele>345.7</ele>
        <time>2022-09-21T18:23:42+02:00</time>
      </trkpt>
      <trkpt lat="44.0693" lon="2.82657">
        <ele>338.8</ele>
        <time>2022-09-21T18:23:48+02:00</time>
      </trkpt>
      <trkpt lat="44.06908" lon="2.82618">
        <ele>334.7</ele>
        <time>2022-09-21T18:23:52+02:00</time>
      </trkpt>
      <trkpt lat="44.06885" lon="2.82581">
        <ele>332.8</ele>
        <time>2022-09-21T18:23:58+02:00</time>
      </trkpt>
      <trkpt lat="44.06868" lon="2.82542">
        <ele>331.3</ele>
        <time>2022-09-21T18:24:03+02:00</time>
      </trkpt>
      <trkpt lat="44.06856" lon="2.82495">
        <ele>329.6</ele>
        <time>2022-09-21T18:24:08+02:00</time>
      </trkpt>
      <trkpt lat="44.06855" lon="2.82442">
        <ele>328.7</ele>
        <time>2022-09-21T18:24:13+02:00</time>
      </trkpt>
      <trkpt lat="44.06861" lon="2.8239">
        <ele>329.1</ele>
        <time>2022-09-21T18:24:17+02:00</time>
      </trkpt>
      <trkpt lat="44.06869" lon="2.8234">
        <ele>329.3</ele>
        <time>2022-09-21T18:24:23+02:00</time>
      </trkpt>
      <trkpt lat="44.0687" lon="2.82285">
        <ele>329</ele>
        <time>2022-09-21T18:24:27+02:00</time>
      </trkpt>
      <trkpt lat="44.06866" lon="2.82231">
        <ele>328.5</ele>
        <time>2022-09-21T18:24:33+02:00</time>
      </trkpt>
      <trkpt lat="44.06864" lon="2.82177">
        <ele>328.7</ele>
        <time>2022-09-21T18:24:37+02:00</time>
      </trkpt>
      <trkpt lat="44.0687" lon="2.82125">
        <ele>329.1</ele>
        <time>2022-09-21T18:24:42+02:00</time>
      </trkpt>
      <trkpt lat="44.06866" lon="2.82079">
        <ele>327.9</ele>
        <time>2022-09-21T18:24:47+02:00</time>
      </trkpt>
      <trkpt lat="44.06855" lon="2.82027">
        <ele>326.6</ele>
        <time>2022-09-21T18:24:53+02:00</time>
      </trkpt>
      <trkpt lat="44.0685" lon="2.8197">
        <ele>326.4</ele>
        <time>2022-09-21T18:24:58+02:00</time>
      </trkpt>
      <trkpt lat="44.06844" lon="2.81916">
        <ele>325.9</ele>
        <time>2022-09-21T18:25:03+02:00</time>
      </trkpt>
      <trkpt lat="44.06835" lon="2.81868">
        <ele>324.3</ele>
        <time>2022-09-21T18:25:08+02:00</time>
      </trkpt>
      <trkpt lat="44.06839" lon="2.81825">
        <ele>324.8</ele>
        <time>2022-09-21T18:25:13+02:00</time>
      </trkpt>
      <trkpt lat="44.06858" lon="2.81794">
        <ele>326.4</ele>
        <time>2022-09-21T18:25:18+02:00</time>
      </trkpt>
      <trkpt lat="44.06879" lon="2.8177">
        <ele>327.2</ele>
        <time>2022-09-21T18:25:23+02:00</time>
      </trkpt>
      <trkpt lat="44.06894" lon="2.81735">
        <ele>326.8</ele>
        <time>2022-09-21T18:25:28+02:00</time>
      </trkpt>
      <trkpt lat="44.06888" lon="2.81692">
        <ele>326.2</ele>
        <time>2022-09-21T18:25:33+02:00</time>
      </trkpt>
      <trkpt lat="44.06869" lon="2.81654">
        <ele>325.5</ele>
        <time>2022-09-21T18:25:38+02:00</time>
      </trkpt>
      <trkpt lat="44.06859" lon="2.8161">
        <ele>325.6</ele>
        <time>2022-09-21T18:25:43+02:00</time>
      </trkpt>
      <trkpt lat="44.06858" lon="2.81562">
        <ele>325.3</ele>
        <time>2022-09-21T18:25:48+02:00</time>
      </trkpt>
      <trkpt lat="44.06872" lon="2.81525">
        <ele>324.8</ele>
        <time>2022-09-21T18:25:53+02:00</time>
      </trkpt>
      <trkpt lat="44.06894" lon="2.81499">
        <ele>324</ele>
        <time>2022-09-21T18:25:58+02:00</time>
      </trkpt>
      <trkpt lat="44.06911" lon="2.81476">
        <ele>324</ele>
        <time>2022-09-21T18:26:03+02:00</time>
      </trkpt>
      <trkpt lat="44.06924" lon="2.81437">
        <ele>324.7</ele>
        <time>2022-09-21T18:26:13+02:00</time>
      </trkpt>
      <trkpt lat="44.06947" lon="2.81395">
        <ele>325.6</ele>
        <time>2022-09-21T18:26:23+02:00</time>
      </trkpt>
      <trkpt lat="44.06972" lon="2.81362">
        <ele>325.4</ele>
        <time>2022-09-21T18:26:33+02:00</time>
      </trkpt>
      <trkpt lat="44.06995" lon="2.8133">
        <ele>324</ele>
        <time>2022-09-21T18:26:42+02:00</time>
      </trkpt>
      <trkpt lat="44.07023" lon="2.81283">
        <ele>325.6</ele>
        <time>2022-09-21T18:26:48+02:00</time>
      </trkpt>
      <trkpt lat="44.07039" lon="2.81244">
        <ele>324</ele>
        <time>2022-09-21T18:26:53+02:00</time>
      </trkpt>
      <trkpt lat="44.07062" lon="2.81228">
        <ele>324</ele>
        <time>2022-09-21T18:26:58+02:00</time>
      </trkpt>
      <trkpt lat="44.07084" lon="2.81237">
        <ele>324.1</ele>
        <time>2022-09-21T18:27:03+02:00</time>
      </trkpt>
      <trkpt lat="44.07106" lon="2.81244">
        <ele>327.1</ele>
        <time>2022-09-21T18:27:08+02:00</time>
      </trkpt>
      <trkpt lat="44.07141" lon="2.81235">
        <ele>331.1</ele>
        <time>2022-09-21T18:27:18+02:00</time>
      </trkpt>
      <trkpt lat="44.0716" lon="2.81212">
        <ele>330.8</ele>
        <time>2022-09-21T18:27:23+02:00</time>
      </trkpt>
      <trkpt lat="44.07178" lon="2.81181">
        <ele>328.6</ele>
        <time>2022-09-21T18:27:28+02:00</time>
      </trkpt>
      <trkpt lat="44.07194" lon="2.81155">
        <ele>326.4</ele>
        <time>2022-09-21T18:27:33+02:00</time>
      </trkpt>
      <trkpt lat="44.07219" lon="2.81117">
        <ele>324.7</ele>
        <time>2022-09-21T18:27:43+02:00</time>
      </trkpt>
      <trkpt lat="44.07237" lon="2.81097">
        <ele>324.7</ele>
        <time>2022-09-21T18:27:48+02:00</time>
      </trkpt>
      <trkpt lat="44.07265" lon="2.81074">
        <ele>326.5</ele>
        <time>2022-09-21T18:27:58+02:00</time>
      </trkpt>
      <trkpt lat="44.07292" lon="2.8107">
        <ele>328.5</ele>
        <time>2022-09-21T18:28:05+02:00</time>
      </trkpt>
      <trkpt lat="44.07323" lon="2.81068">
        <ele>330.7</ele>
        <time>2022-09-21T18:28:13+02:00</time>
      </trkpt>
      <trkpt lat="44.07344" lon="2.81034">
        <ele>330.8</ele>
        <time>2022-09-21T18:28:20+02:00</time>
      </trkpt>
      <trkpt lat="44.07334" lon="2.80994">
        <ele>329.2</ele>
        <time>2022-09-21T18:28:27+02:00</time>
      </trkpt>
      <trkpt lat="44.07317" lon="2.80972">
        <ele>328.6</ele>
        <time>2022-09-21T18:28:41+02:00</time>
      </trkpt>
      <trkpt lat="44.07293" lon="2.80951">
        <ele>325.7</ele>
        <time>2022-09-21T18:28:54+02:00</time>
      </trkpt>
      <trkpt lat="44.07269" lon="2.80937">
        <ele>321.6</ele>
        <time>2022-09-21T18:29:08+02:00</time>
      </trkpt>
      <trkpt lat="44.07235" lon="2.80959">
        <ele>318.8</ele>
        <time>2022-09-21T18:29:20+02:00</time>
      </trkpt>
      <trkpt lat="44.0722" lon="2.80982">
        <ele>318.9</ele>
        <time>2022-09-21T18:29:27+02:00</time>
      </trkpt>
      <trkpt lat="44.07168" lon="2.81045">
        <ele>313.5</ele>
        <time>2022-09-21T18:29:37+02:00</time>
      </trkpt>
      <trkpt lat="44.07135" lon="2.81083">
        <ele>316.7</ele>
        <time>2022-09-21T18:29:43+02:00</time>
      </trkpt>
      <trkpt lat="44.07114" lon="2.81106">
        <ele>319.3</ele>
        <time>2022-09-21T18:29:48+02:00</time>
      </trkpt>
      <trkpt lat="44.0709" lon="2.81091">
        <ele>318.4</ele>
        <time>2022-09-21T18:30:01+02:00</time>
      </trkpt>
      <trkpt lat="44.07064" lon="2.8106">
        <ele>319.5</ele>
        <time>2022-09-21T18:33:25+02:00</time>
      </trkpt>
      <trkpt lat="44.07048" lon="2.81032">
        <ele>322.4</ele>
        <time>2022-09-21T18:33:31+02:00</time>
      </trkpt>
      <trkpt lat="44.07029" lon="2.81008">
        <ele>327.5</ele>
        <time>2022-09-21T18:33:38+02:00</time>
      </trkpt>
      <trkpt lat="44.0701" lon="2.80979">
        <ele>335.5</ele>
        <time>2022-09-21T18:33:47+02:00</time>
      </trkpt>
      <trkpt lat="44.06992" lon="2.80957">
        <ele>347.4</ele>
        <time>2022-09-21T18:33:55+02:00</time>
      </trkpt>
      <trkpt lat="44.06975" lon="2.80925">
        <ele>366.1</ele>
        <time>2022-09-21T18:34:03+02:00</time>
      </trkpt>
      <trkpt lat="44.0699" lon="2.80876">
        <ele>369.4</ele>
        <time>2022-09-21T18:35:41+02:00</time>
      </trkpt>
      <trkpt lat="44.07002" lon="2.80843">
        <ele>372.5</ele>
        <time>2022-09-21T18:35:48+02:00</time>
      </trkpt>
      <trkpt lat="44.07013" lon="2.80808">
        <ele>370.8</ele>
        <time>2022-09-21T18:35:55+02:00</time>
      </trkpt>
      <trkpt lat="44.07018" lon="2.80773">
        <ele>370.1</ele>
        <time>2022-09-21T18:36:02+02:00</time>
      </trkpt>
      <trkpt lat="44.07022" lon="2.80731">
        <ele>367.2</ele>
        <time>2022-09-21T18:36:12+02:00</time>
      </trkpt>
      <trkpt lat="44.07023" lon="2.8069">
        <ele>362.2</ele>
        <time>2022-09-21T18:36:21+02:00</time>
      </trkpt>
      <trkpt lat="44.07013" lon="2.80651">
        <ele>359.5</ele>
        <time>2022-09-21T18:36:29+02:00</time>
      </trkpt>
      <trkpt lat="44.07006" lon="2.8062">
        <ele>353.5</ele>
        <time>2022-09-21T18:36:36+02:00</time>
      </trkpt>
      <trkpt lat="44.06994" lon="2.8059">
        <ele>348</ele>
        <time>2022-09-21T18:36:45+02:00</time>
      </trkpt>
      <trkpt lat="44.06972" lon="2.80563">
        <ele>342.8</ele>
        <time>2022-09-21T18:37:39+02:00</time>
      </trkpt>
      <trkpt lat="44.0695" lon="2.80534">
        <ele>335.6</ele>
        <time>2022-09-21T18:37:46+02:00</time>
      </trkpt>
      <trkpt lat="44.06926" lon="2.80508">
        <ele>329</ele>
        <time>2022-09-21T18:37:55+02:00</time>
      </trkpt>
      <trkpt lat="44.06886" lon="2.80497">
        <ele>324.2</ele>
        <time>2022-09-21T18:38:01+02:00</time>
      </trkpt>
      <trkpt lat="44.06852" lon="2.80492">
        <ele>320.8</ele>
        <time>2022-09-21T18:38:06+02:00</time>
      </trkpt>
      <trkpt lat="44.06828" lon="2.80493">
        <ele>319.3</ele>
        <time>2022-09-21T18:38:12+02:00</time>
      </trkpt>
      <trkpt lat="44.06806" lon="2.805">
        <ele>317.7</ele>
        <time>2022-09-21T18:38:24+02:00</time>
      </trkpt>
      <trkpt lat="44.06784" lon="2.80512">
        <ele>318.2</ele>
        <time>2022-09-21T18:39:42+02:00</time>
      </trkpt>
      <trkpt lat="44.06757" lon="2.80522">
        <ele>317</ele>
        <time>2022-09-21T18:39:54+02:00</time>
      </trkpt>
      <trkpt lat="44.06728" lon="2.80532">
        <ele>316.5</ele>
        <time>2022-09-21T18:40:05+02:00</time>
      </trkpt>
      <trkpt lat="44.06704" lon="2.80538">
        <ele>315.6</ele>
        <time>2022-09-21T18:40:16+02:00</time>
      </trkpt>
      <trkpt lat="44.06684" lon="2.80558">
        <ele>319.4</ele>
        <time>2022-09-21T18:40:28+02:00</time>
      </trkpt>
      <trkpt lat="44.06658" lon="2.80562">
        <ele>318.2</ele>
        <time>2022-09-21T18:40:46+02:00</time>
      </trkpt>
      <trkpt lat="44.06637" lon="2.8058">
        <ele>322.6</ele>
        <time>2022-09-21T18:40:57+02:00</time>
      </trkpt>
      <trkpt lat="44.06611" lon="2.80596">
        <ele>327.5</ele>
        <time>2022-09-21T18:41:10+02:00</time>
      </trkpt>
      <trkpt lat="44.06589" lon="2.8061">
        <ele>331.6</ele>
        <time>2022-09-21T18:41:21+02:00</time>
      </trkpt>
      <trkpt lat="44.06565" lon="2.80619">
        <ele>335</ele>
        <time>2022-09-21T18:41:38+02:00</time>
      </trkpt>
      <trkpt lat="44.06538" lon="2.80622">
        <ele>336.4</ele>
        <time>2022-09-21T18:41:51+02:00</time>
      </trkpt>
      <trkpt lat="44.06516" lon="2.8063">
        <ele>338.6</ele>
        <time>2022-09-21T18:42:03+02:00</time>
      </trkpt>
      <trkpt lat="44.06494" lon="2.80643">
        <ele>343.6</ele>
        <time>2022-09-21T18:42:15+02:00</time>
      </trkpt>
      <trkpt lat="44.0647" lon="2.80665">
        <ele>357.9</ele>
        <time>2022-09-21T18:42:29+02:00</time>
      </trkpt>
      <trkpt lat="44.06455" lon="2.8069">
        <ele>369.3</ele>
        <time>2022-09-21T18:42:41+02:00</time>
      </trkpt>
      <trkpt lat="44.06441" lon="2.80719">
        <ele>380.6</ele>
        <time>2022-09-21T18:42:54+02:00</time>
      </trkpt>
      <trkpt lat="44.06426" lon="2.80744">
        <ele>390.7</ele>
        <time>2022-09-21T18:43:09+02:00</time>
      </trkpt>
      <trkpt lat="44.06404" lon="2.80732">
        <ele>398.2</ele>
        <time>2022-09-21T18:43:37+02:00</time>
      </trkpt>
      <trkpt lat="44.06393" lon="2.80703">
        <ele>398.9</ele>
        <time>2022-09-21T18:43:51+02:00</time>
      </trkpt>
      <trkpt lat="44.06375" lon="2.80682">
        <ele>405</ele>
        <time>2022-09-21T18:44:06+02:00</time>
      </trkpt>
      <trkpt lat="44.06371" lon="2.8065">
        <ele>400.3</ele>
        <time>2022-09-21T18:44:28+02:00</time>
      </trkpt>
      <trkpt lat="44.06359" lon="2.80613">
        <ele>396.7</ele>
        <time>2022-09-21T18:44:37+02:00</time>
      </trkpt>
      <trkpt lat="44.06343" lon="2.80589">
        <ele>398</ele>
        <time>2022-09-21T18:44:49+02:00</time>
      </trkpt>
      <trkpt lat="44.06319" lon="2.80571">
        <ele>401.7</ele>
        <time>2022-09-21T18:45:03+02:00</time>
      </trkpt>
      <trkpt lat="44.063" lon="2.80543">
        <ele>397.8</ele>
        <time>2022-09-21T18:45:20+02:00</time>
      </trkpt>
      <trkpt lat="44.06277" lon="2.8052">
        <ele>398.5</ele>
        <time>2022-09-21T18:45:31+02:00</time>
      </trkpt>
      <trkpt lat="44.06254" lon="2.80514">
        <ele>406.8</ele>
        <time>2022-09-21T18:45:41+02:00</time>
      </trkpt>
      <trkpt lat="44.06235" lon="2.80494">
        <ele>408</ele>
        <time>2022-09-21T18:46:01+02:00</time>
      </trkpt>
      <trkpt lat="44.06223" lon="2.80466">
        <ele>403.1</ele>
        <time>2022-09-21T18:46:14+02:00</time>
      </trkpt>
      <trkpt lat="44.06204" lon="2.80447">
        <ele>404.2</ele>
        <time>2022-09-21T18:46:27+02:00</time>
      </trkpt>
      <trkpt lat="44.06185" lon="2.80426">
        <ele>404.1</ele>
        <time>2022-09-21T18:46:43+02:00</time>
      </trkpt>
      <trkpt lat="44.06142" lon="2.80359">
        <ele>403.5</ele>
        <time>2022-09-21T18:46:56+02:00</time>
      </trkpt>
      <trkpt lat="44.06125" lon="2.80322">
        <ele>402.9</ele>
        <time>2022-09-21T18:47:01+02:00</time>
      </trkpt>
      <trkpt lat="44.06103" lon="2.80291">
        <ele>409.6</ele>
        <time>2022-09-21T18:47:06+02:00</time>
      </trkpt>
      <trkpt lat="44.06089" lon="2.80255">
        <ele>412.6</ele>
        <time>2022-09-21T18:47:12+02:00</time>
      </trkpt>
      <trkpt lat="44.06087" lon="2.80207">
        <ele>408.4</ele>
        <time>2022-09-21T18:47:16+02:00</time>
      </trkpt>
      <trkpt lat="44.06087" lon="2.80155">
        <ele>402</ele>
        <time>2022-09-21T18:47:21+02:00</time>
      </trkpt>
      <trkpt lat="44.06075" lon="2.80112">
        <ele>401.2</ele>
        <time>2022-09-21T18:47:26+02:00</time>
      </trkpt>
      <trkpt lat="44.06064" lon="2.80068">
        <ele>400.6</ele>
        <time>2022-09-21T18:47:31+02:00</time>
      </trkpt>
      <trkpt lat="44.06055" lon="2.80016">
        <ele>399.1</ele>
        <time>2022-09-21T18:47:36+02:00</time>
      </trkpt>
      <trkpt lat="44.06057" lon="2.79963">
        <ele>391.8</ele>
        <time>2022-09-21T18:47:41+02:00</time>
      </trkpt>
      <trkpt lat="44.0606" lon="2.79916">
        <ele>385</ele>
        <time>2022-09-21T18:47:46+02:00</time>
      </trkpt>
      <trkpt lat="44.06052" lon="2.79865">
        <ele>376.4</ele>
        <time>2022-09-21T18:47:51+02:00</time>
      </trkpt>
      <trkpt lat="44.06034" lon="2.79821">
        <ele>372.4</ele>
        <time>2022-09-21T18:47:56+02:00</time>
      </trkpt>
      <trkpt lat="44.06009" lon="2.79786">
        <ele>373.9</ele>
        <time>2022-09-21T18:48:01+02:00</time>
      </trkpt>
      <trkpt lat="44.05983" lon="2.79748">
        <ele>373.3</ele>
        <time>2022-09-21T18:48:06+02:00</time>
      </trkpt>
      <trkpt lat="44.05965" lon="2.79696">
        <ele>361.3</ele>
        <time>2022-09-21T18:48:11+02:00</time>
      </trkpt>
      <trkpt lat="44.0595" lon="2.79645">
        <ele>346.6</ele>
        <time>2022-09-21T18:48:17+02:00</time>
      </trkpt>
      <trkpt lat="44.05929" lon="2.79605">
        <ele>334.6</ele>
        <time>2022-09-21T18:48:22+02:00</time>
      </trkpt>
      <trkpt lat="44.05901" lon="2.7957">
        <ele>331.1</ele>
        <time>2022-09-21T18:48:26+02:00</time>
      </trkpt>
      <trkpt lat="44.05876" lon="2.7954">
        <ele>340.4</ele>
        <time>2022-09-21T18:48:31+02:00</time>
      </trkpt>
      <trkpt lat="44.05863" lon="2.79501">
        <ele>351.9</ele>
        <time>2022-09-21T18:48:36+02:00</time>
      </trkpt>
      <trkpt lat="44.05871" lon="2.7946">
        <ele>354.3</ele>
        <time>2022-09-21T18:48:41+02:00</time>
      </trkpt>
      <trkpt lat="44.05882" lon="2.79423">
        <ele>353.7</ele>
        <time>2022-09-21T18:48:47+02:00</time>
      </trkpt>
      <trkpt lat="44.05884" lon="2.79358">
        <ele>350.6</ele>
        <time>2022-09-21T18:48:56+02:00</time>
      </trkpt>
      <trkpt lat="44.05879" lon="2.7931">
        <ele>349.2</ele>
        <time>2022-09-21T18:49:01+02:00</time>
      </trkpt>
      <trkpt lat="44.05871" lon="2.79255">
        <ele>346.3</ele>
        <time>2022-09-21T18:49:07+02:00</time>
      </trkpt>
      <trkpt lat="44.05862" lon="2.79201">
        <ele>343.3</ele>
        <time>2022-09-21T18:49:11+02:00</time>
      </trkpt>
      <trkpt lat="44.05854" lon="2.79149">
        <ele>338.9</ele>
        <time>2022-09-21T18:49:16+02:00</time>
      </trkpt>
      <trkpt lat="44.05845" lon="2.79096">
        <ele>332.9</ele>
        <time>2022-09-21T18:49:21+02:00</time>
      </trkpt>
      <trkpt lat="44.05828" lon="2.7905">
        <ele>333.9</ele>
        <time>2022-09-21T18:49:26+02:00</time>
      </trkpt>
      <trkpt lat="44.05806" lon="2.79013">
        <ele>341.4</ele>
        <time>2022-09-21T18:49:31+02:00</time>
      </trkpt>
      <trkpt lat="44.05795" lon="2.78978">
        <ele>346.1</ele>
        <time>2022-09-21T18:49:36+02:00</time>
      </trkpt>
      <trkpt lat="44.0579" lon="2.78946">
        <ele>347.8</ele>
        <time>2022-09-21T18:49:42+02:00</time>
      </trkpt>
      <trkpt lat="44.05788" lon="2.78903">
        <ele>348.2</ele>
        <time>2022-09-21T18:49:51+02:00</time>
      </trkpt>
      <trkpt lat="44.05788" lon="2.78866">
        <ele>349</ele>
        <time>2022-09-21T18:50:04+02:00</time>
      </trkpt>
      <trkpt lat="44.05791" lon="2.78834">
        <ele>348.3</ele>
        <time>2022-09-21T18:50:14+02:00</time>
      </trkpt>
      <trkpt lat="44.05788" lon="2.78797">
        <ele>357</ele>
        <time>2022-09-21T18:51:41+02:00</time>
      </trkpt>
      <trkpt lat="44.058" lon="2.78759">
        <ele>358.3</ele>
        <time>2022-09-21T18:51:49+02:00</time>
      </trkpt>
      <trkpt lat="44.05802" lon="2.7872">
        <ele>361.9</ele>
        <time>2022-09-21T18:52:29+02:00</time>
      </trkpt>
      <trkpt lat="44.05804" lon="2.78686">
        <ele>364.1</ele>
        <time>2022-09-21T18:52:36+02:00</time>
      </trkpt>
      <trkpt lat="44.05811" lon="2.78651">
        <ele>363.6</ele>
        <time>2022-09-21T18:52:46+02:00</time>
      </trkpt>
      <trkpt lat="44.05834" lon="2.78625">
        <ele>354.2</ele>
        <time>2022-09-21T18:52:52+02:00</time>
      </trkpt>
      <trkpt lat="44.05856" lon="2.78596">
        <ele>349.7</ele>
        <time>2022-09-21T18:53:02+02:00</time>
      </trkpt>
      <trkpt lat="44.05876" lon="2.78571">
        <ele>349.1</ele>
        <time>2022-09-21T18:53:11+02:00</time>
      </trkpt>
      <trkpt lat="44.05894" lon="2.7855">
        <ele>350.7</ele>
        <time>2022-09-21T18:53:18+02:00</time>
      </trkpt>
      <trkpt lat="44.05916" lon="2.78536">
        <ele>348.8</ele>
        <time>2022-09-21T18:53:27+02:00</time>
      </trkpt>
      <trkpt lat="44.05941" lon="2.78532">
        <ele>342.9</ele>
        <time>2022-09-21T18:53:36+02:00</time>
      </trkpt>
      <trkpt lat="44.05969" lon="2.78532">
        <ele>334.3</ele>
        <time>2022-09-21T18:53:47+02:00</time>
      </trkpt>
      <trkpt lat="44.05995" lon="2.78537">
        <ele>324.3</ele>
        <time>2022-09-21T18:53:57+02:00</time>
      </trkpt>
      <trkpt lat="44.06015" lon="2.78553">
        <ele>316.6</ele>
        <time>2022-09-21T18:54:04+02:00</time>
      </trkpt>
      <trkpt lat="44.06051" lon="2.78591">
        <ele>303.5</ele>
        <time>2022-09-21T18:54:13+02:00</time>
      </trkpt>
      <trkpt lat="44.06073" lon="2.78618">
        <ele>298</ele>
        <time>2022-09-21T18:54:18+02:00</time>
      </trkpt>
      <trkpt lat="44.06094" lon="2.78647">
        <ele>294.2</ele>
        <time>2022-09-21T18:54:23+02:00</time>
      </trkpt>
      <trkpt lat="44.06114" lon="2.78675">
        <ele>292.9</ele>
        <time>2022-09-21T18:54:28+02:00</time>
      </trkpt>
      <trkpt lat="44.06142" lon="2.78687">
        <ele>296.5</ele>
        <time>2022-09-21T18:54:33+02:00</time>
      </trkpt>
      <trkpt lat="44.06175" lon="2.78673">
        <ele>300.3</ele>
        <time>2022-09-21T18:54:38+02:00</time>
      </trkpt>
      <trkpt lat="44.06209" lon="2.78647">
        <ele>313.4</ele>
        <time>2022-09-21T18:54:43+02:00</time>
      </trkpt>
      <trkpt lat="44.06243" lon="2.78622">
        <ele>330.2</ele>
        <time>2022-09-21T18:54:48+02:00</time>
      </trkpt>
      <trkpt lat="44.0627" lon="2.78605">
        <ele>332.3</ele>
        <time>2022-09-21T18:54:53+02:00</time>
      </trkpt>
      <trkpt lat="44.06289" lon="2.78583">
        <ele>333.5</ele>
        <time>2022-09-21T18:54:59+02:00</time>
      </trkpt>
      <trkpt lat="44.0631" lon="2.78552">
        <ele>339.6</ele>
        <time>2022-09-21T18:55:08+02:00</time>
      </trkpt>
      <trkpt lat="44.06329" lon="2.78512">
        <ele>350.3</ele>
        <time>2022-09-21T18:55:16+02:00</time>
      </trkpt>
      <trkpt lat="44.06344" lon="2.78486">
        <ele>352.7</ele>
        <time>2022-09-21T18:55:23+02:00</time>
      </trkpt>
      <trkpt lat="44.06352" lon="2.78449">
        <ele>359.8</ele>
        <time>2022-09-21T18:55:31+02:00</time>
      </trkpt>
      <trkpt lat="44.06359" lon="2.78411">
        <ele>366.1</ele>
        <time>2022-09-21T18:55:37+02:00</time>
      </trkpt>
      <trkpt lat="44.06363" lon="2.78378">
        <ele>368.6</ele>
        <time>2022-09-21T18:55:45+02:00</time>
      </trkpt>
      <trkpt lat="44.06371" lon="2.78337">
        <ele>369.1</ele>
        <time>2022-09-21T18:55:52+02:00</time>
      </trkpt>
      <trkpt lat="44.0637" lon="2.78289">
        <ele>367.9</ele>
        <time>2022-09-21T18:56:02+02:00</time>
      </trkpt>
      <trkpt lat="44.06365" lon="2.78255">
        <ele>369.7</ele>
        <time>2022-09-21T18:56:10+02:00</time>
      </trkpt>
      <trkpt lat="44.06356" lon="2.78216">
        <ele>363.3</ele>
        <time>2022-09-21T18:56:16+02:00</time>
      </trkpt>
      <trkpt lat="44.06323" lon="2.78145">
        <ele>356.8</ele>
        <time>2022-09-21T18:56:28+02:00</time>
      </trkpt>
      <trkpt lat="44.06299" lon="2.7811">
        <ele>351.7</ele>
        <time>2022-09-21T18:56:33+02:00</time>
      </trkpt>
      <trkpt lat="44.06276" lon="2.78067">
        <ele>341</ele>
        <time>2022-09-21T18:56:38+02:00</time>
      </trkpt>
      <trkpt lat="44.06254" lon="2.78025">
        <ele>327.5</ele>
        <time>2022-09-21T18:56:43+02:00</time>
      </trkpt>
      <trkpt lat="44.06222" lon="2.77998">
        <ele>328.4</ele>
        <time>2022-09-21T18:56:48+02:00</time>
      </trkpt>
      <trkpt lat="44.06197" lon="2.7798">
        <ele>333.7</ele>
        <time>2022-09-21T18:56:53+02:00</time>
      </trkpt>
      <trkpt lat="44.06164" lon="2.77971">
        <ele>346</ele>
        <time>2022-09-21T18:57:04+02:00</time>
      </trkpt>
      <trkpt lat="44.06139" lon="2.7795">
        <ele>351.4</ele>
        <time>2022-09-21T18:57:11+02:00</time>
      </trkpt>
      <trkpt lat="44.06125" lon="2.77915">
        <ele>346.1</ele>
        <time>2022-09-21T18:57:18+02:00</time>
      </trkpt>
      <trkpt lat="44.06107" lon="2.77892">
        <ele>350.1</ele>
        <time>2022-09-21T18:57:25+02:00</time>
      </trkpt>
      <trkpt lat="44.06092" lon="2.77869">
        <ele>352.3</ele>
        <time>2022-09-21T18:57:32+02:00</time>
      </trkpt>
      <trkpt lat="44.06071" lon="2.77833">
        <ele>355.1</ele>
        <time>2022-09-21T18:57:42+02:00</time>
      </trkpt>
      <trkpt lat="44.06049" lon="2.77802">
        <ele>367.4</ele>
        <time>2022-09-21T18:57:51+02:00</time>
      </trkpt>
      <trkpt lat="44.06043" lon="2.77766">
        <ele>370.8</ele>
        <time>2022-09-21T18:58:01+02:00</time>
      </trkpt>
      <trkpt lat="44.06035" lon="2.77727">
        <ele>378</ele>
        <time>2022-09-21T18:58:08+02:00</time>
      </trkpt>
      <trkpt lat="44.06035" lon="2.77695">
        <ele>381.2</ele>
        <time>2022-09-21T18:58:15+02:00</time>
      </trkpt>
      <trkpt lat="44.06043" lon="2.77664">
        <ele>379.8</ele>
        <time>2022-09-21T18:58:24+02:00</time>
      </trkpt>
      <trkpt lat="44.06056" lon="2.77633">
        <ele>378.9</ele>
        <time>2022-09-21T18:58:33+02:00</time>
      </trkpt>
      <trkpt lat="44.06073" lon="2.77604">
        <ele>375.9</ele>
        <time>2022-09-21T18:58:43+02:00</time>
      </trkpt>
      <trkpt lat="44.0609" lon="2.77582">
        <ele>370.8</ele>
        <time>2022-09-21T18:58:52+02:00</time>
      </trkpt>
      <trkpt lat="44.06102" lon="2.77555">
        <ele>368.8</ele>
        <time>2022-09-21T18:59:02+02:00</time>
      </trkpt>
      <trkpt lat="44.06117" lon="2.77519">
        <ele>368</ele>
        <time>2022-09-21T18:59:12+02:00</time>
      </trkpt>
      <trkpt lat="44.06126" lon="2.77465">
        <ele>372.5</ele>
        <time>2022-09-21T18:59:25+02:00</time>
      </trkpt>
      <trkpt lat="44.06139" lon="2.77428">
        <ele>371.8</ele>
        <time>2022-09-21T18:59:32+02:00</time>
      </trkpt>
      <trkpt lat="44.06147" lon="2.77397">
        <ele>370.7</ele>
        <time>2022-09-21T18:59:40+02:00</time>
      </trkpt>
      <trkpt lat="44.06156" lon="2.77352">
        <ele>369.2</ele>
        <time>2022-09-21T18:59:47+02:00</time>
      </trkpt>
      <trkpt lat="44.06157" lon="2.7732">
        <ele>368.6</ele>
        <time>2022-09-21T18:59:54+02:00</time>
      </trkpt>
      <trkpt lat="44.06159" lon="2.77278">
        <ele>364.1</ele>
        <time>2022-09-21T19:00:01+02:00</time>
      </trkpt>
      <trkpt lat="44.06157" lon="2.77245">
        <ele>360.6</ele>
        <time>2022-09-21T19:00:09+02:00</time>
      </trkpt>
      <trkpt lat="44.06149" lon="2.77206">
        <ele>351.8</ele>
        <time>2022-09-21T19:00:15+02:00</time>
      </trkpt>
      <trkpt lat="44.06141" lon="2.77169">
        <ele>342.8</ele>
        <time>2022-09-21T19:00:25+02:00</time>
      </trkpt>
      <trkpt lat="44.06132" lon="2.77137">
        <ele>333.5</ele>
        <time>2022-09-21T19:00:34+02:00</time>
      </trkpt>
      <trkpt lat="44.0612" lon="2.77103">
        <ele>323.6</ele>
        <time>2022-09-21T19:00:47+02:00</time>
      </trkpt>
      <trkpt lat="44.06093" lon="2.7709">
        <ele>321.5</ele>
        <time>2022-09-21T19:00:57+02:00</time>
      </trkpt>
      <trkpt lat="44.06068" lon="2.77088">
        <ele>322.3</ele>
        <time>2022-09-21T19:01:06+02:00</time>
      </trkpt>
      <trkpt lat="44.06041" lon="2.77081">
        <ele>321.1</ele>
        <time>2022-09-21T19:01:13+02:00</time>
      </trkpt>
      <trkpt lat="44.0601" lon="2.77065">
        <ele>316.2</ele>
        <time>2022-09-21T19:01:18+02:00</time>
      </trkpt>
      <trkpt lat="44.05981" lon="2.77065">
        <ele>321.6</ele>
        <time>2022-09-21T19:01:23+02:00</time>
      </trkpt>
      <trkpt lat="44.05948" lon="2.77071">
        <ele>332.6</ele>
        <time>2022-09-21T19:01:28+02:00</time>
      </trkpt>
      <trkpt lat="44.05913" lon="2.77057">
        <ele>336.3</ele>
        <time>2022-09-21T19:01:33+02:00</time>
      </trkpt>
      <trkpt lat="44.05883" lon="2.77023">
        <ele>335.7</ele>
        <time>2022-09-21T19:01:38+02:00</time>
      </trkpt>
      <trkpt lat="44.05855" lon="2.76985">
        <ele>332.4</ele>
        <time>2022-09-21T19:01:43+02:00</time>
      </trkpt>
      <trkpt lat="44.05826" lon="2.76946">
        <ele>327.9</ele>
        <time>2022-09-21T19:01:48+02:00</time>
      </trkpt>
      <trkpt lat="44.05792" lon="2.76906">
        <ele>330.1</ele>
        <time>2022-09-21T19:01:53+02:00</time>
      </trkpt>
      <trkpt lat="44.05751" lon="2.76858">
        <ele>332.4</ele>
        <time>2022-09-21T19:01:58+02:00</time>
      </trkpt>
      <trkpt lat="44.0571" lon="2.76805">
        <ele>325.1</ele>
        <time>2022-09-21T19:02:03+02:00</time>
      </trkpt>
      <trkpt lat="44.05681" lon="2.76753">
        <ele>308.8</ele>
        <time>2022-09-21T19:02:08+02:00</time>
      </trkpt>
      <trkpt lat="44.05656" lon="2.76722">
        <ele>302.3</ele>
        <time>2022-09-21T19:02:13+02:00</time>
      </trkpt>
      <trkpt lat="44.05621" lon="2.76706">
        <ele>305.9</ele>
        <time>2022-09-21T19:02:18+02:00</time>
      </trkpt>
      <trkpt lat="44.05587" lon="2.76695">
        <ele>310.5</ele>
        <time>2022-09-21T19:02:23+02:00</time>
      </trkpt>
      <trkpt lat="44.05559" lon="2.76677">
        <ele>309.6</ele>
        <time>2022-09-21T19:02:28+02:00</time>
      </trkpt>
      <trkpt lat="44.05533" lon="2.76656">
        <ele>307.9</ele>
        <time>2022-09-21T19:02:33+02:00</time>
      </trkpt>
      <trkpt lat="44.05509" lon="2.76637">
        <ele>306</ele>
        <time>2022-09-21T19:02:38+02:00</time>
      </trkpt>
      <trkpt lat="44.05487" lon="2.76619">
        <ele>302.8</ele>
        <time>2022-09-21T19:02:43+02:00</time>
      </trkpt>
      <trkpt lat="44.05465" lon="2.76601">
        <ele>300.1</ele>
        <time>2022-09-21T19:02:48+02:00</time>
      </trkpt>
      <trkpt lat="44.05442" lon="2.76583">
        <ele>298.2</ele>
        <time>2022-09-21T19:02:53+02:00</time>
      </trkpt>
      <trkpt lat="44.05418" lon="2.76567">
        <ele>299.8</ele>
        <time>2022-09-21T19:02:58+02:00</time>
      </trkpt>
      <trkpt lat="44.05395" lon="2.76553">
        <ele>295.2</ele>
        <time>2022-09-21T19:03:03+02:00</time>
      </trkpt>
      <trkpt lat="44.05374" lon="2.76538">
        <ele>290.1</ele>
        <time>2022-09-21T19:03:08+02:00</time>
      </trkpt>
      <trkpt lat="44.05354" lon="2.7652">
        <ele>284.3</ele>
        <time>2022-09-21T19:03:13+02:00</time>
      </trkpt>
      <trkpt lat="44.05333" lon="2.76506">
        <ele>279.7</ele>
        <time>2022-09-21T19:03:18+02:00</time>
      </trkpt>
      <trkpt lat="44.05304" lon="2.76489">
        <ele>276.2</ele>
        <time>2022-09-21T19:03:28+02:00</time>
      </trkpt>
      <trkpt lat="44.05275" lon="2.76477">
        <ele>274.2</ele>
        <time>2022-09-21T19:03:33+02:00</time>
      </trkpt>
      <trkpt lat="44.05252" lon="2.76467">
        <ele>272.7</ele>
        <time>2022-09-21T19:03:40+02:00</time>
      </trkpt>
      <trkpt lat="44.05218" lon="2.76466">
        <ele>279.2</ele>
        <time>2022-09-21T19:03:48+02:00</time>
      </trkpt>
      <trkpt lat="44.05186" lon="2.76452">
        <ele>282.2</ele>
        <time>2022-09-21T19:03:59+02:00</time>
      </trkpt>
      <trkpt lat="44.05157" lon="2.76453">
        <ele>287.3</ele>
        <time>2022-09-21T19:04:06+02:00</time>
      </trkpt>
      <trkpt lat="44.05131" lon="2.76448">
        <ele>289.7</ele>
        <time>2022-09-21T19:04:16+02:00</time>
      </trkpt>
      <trkpt lat="44.05102" lon="2.76438">
        <ele>290.3</ele>
        <time>2022-09-21T19:04:26+02:00</time>
      </trkpt>
      <trkpt lat="44.05074" lon="2.76434">
        <ele>294.4</ele>
        <time>2022-09-21T19:04:35+02:00</time>
      </trkpt>
      <trkpt lat="44.05045" lon="2.76427">
        <ele>301.5</ele>
        <time>2022-09-21T19:04:44+02:00</time>
      </trkpt>
      <trkpt lat="44.05022" lon="2.76415">
        <ele>304.9</ele>
        <time>2022-09-21T19:04:51+02:00</time>
      </trkpt>
      <trkpt lat="44.04991" lon="2.76396">
        <ele>310.1</ele>
        <time>2022-09-21T19:05:02+02:00</time>
      </trkpt>
      <trkpt lat="44.0497" lon="2.76374">
        <ele>312.2</ele>
        <time>2022-09-21T19:05:09+02:00</time>
      </trkpt>
      <trkpt lat="44.0495" lon="2.76355">
        <ele>315.2</ele>
        <time>2022-09-21T19:05:17+02:00</time>
      </trkpt>
      <trkpt lat="44.04932" lon="2.76336">
        <ele>317.8</ele>
        <time>2022-09-21T19:05:24+02:00</time>
      </trkpt>
    </trkseg>
  </trk>
</gpx>